<?xml version="1.0" encoding="UTF-8" standalone="no" ?>
<gpx xmlns="http://www.topografix.com/GPX/1/1" xmlns:xsi="http://www.w3.org/2001/XMLSchema-instance" xsi:schemaLocation="http://www.topografix.com/GPX/1/1 http://www.topografix.com/GPX/1/1/gpx.xsd" version="1.1" creator="VisuGPX - https://www.visugpx.com">
  <metadata>
    <name>2020-08-21 Saugues - Villeret d'Apchier sur le chemin de Saint Jacques</name>
    <desc><![CDATA[Etape 4 sur le chemin de Saint Jacques
Aujourd'hui, étape cool de transition entre Saugues et Villeret d'Apchier
Nous avons même du attendre l'ouverture du gîte à 16h]]></desc>
  </metadata>
  <trk>
    <name><![CDATA[2020-08-21 SANTIAGO E04]]></name>
    <trkseg>
      <trkpt lat="44.9589" lon="3.54957">
        <ele>970.11</ele>
        <time>2020-08-21T07:15:12Z</time>
      </trkpt>
      <trkpt lat="44.95889" lon="3.54956">
        <ele>970.11</ele>
        <time>2020-08-21T07:15:14Z</time>
      </trkpt>
      <trkpt lat="44.95888" lon="3.54956">
        <ele>970.11</ele>
        <time>2020-08-21T07:15:15Z</time>
      </trkpt>
      <trkpt lat="44.95881" lon="3.54945">
        <ele>970.11</ele>
        <time>2020-08-21T07:15:39Z</time>
      </trkpt>
      <trkpt lat="44.95886" lon="3.54948">
        <ele>970.11</ele>
        <time>2020-08-21T07:16:04Z</time>
      </trkpt>
      <trkpt lat="44.95891" lon="3.54953">
        <ele>969.63</ele>
        <time>2020-08-21T07:16:14Z</time>
      </trkpt>
      <trkpt lat="44.95898" lon="3.54947">
        <ele>969.63</ele>
        <time>2020-08-21T07:16:28Z</time>
      </trkpt>
      <trkpt lat="44.95903" lon="3.54938">
        <ele>969.63</ele>
        <time>2020-08-21T07:16:43Z</time>
      </trkpt>
      <trkpt lat="44.95908" lon="3.54923">
        <ele>970.59</ele>
        <time>2020-08-21T07:16:58Z</time>
      </trkpt>
      <trkpt lat="44.95918" lon="3.54903">
        <ele>971.07</ele>
        <time>2020-08-21T07:17:14Z</time>
      </trkpt>
      <trkpt lat="44.95923" lon="3.54893">
        <ele>971.07</ele>
        <time>2020-08-21T07:17:22Z</time>
      </trkpt>
      <trkpt lat="44.95931" lon="3.54882">
        <ele>972.03</ele>
        <time>2020-08-21T07:17:35Z</time>
      </trkpt>
      <trkpt lat="44.95939" lon="3.54873">
        <ele>972.51</ele>
        <time>2020-08-21T07:17:46Z</time>
      </trkpt>
      <trkpt lat="44.95943" lon="3.54862">
        <ele>972.99</ele>
        <time>2020-08-21T07:17:59Z</time>
      </trkpt>
      <trkpt lat="44.95946" lon="3.5485">
        <ele>973.47</ele>
        <time>2020-08-21T07:18:09Z</time>
      </trkpt>
      <trkpt lat="44.95947" lon="3.5483">
        <ele>973.95</ele>
        <time>2020-08-21T07:18:25Z</time>
      </trkpt>
      <trkpt lat="44.95949" lon="3.54811">
        <ele>973.95</ele>
        <time>2020-08-21T07:18:40Z</time>
      </trkpt>
      <trkpt lat="44.95953" lon="3.54795">
        <ele>974.43</ele>
        <time>2020-08-21T07:18:55Z</time>
      </trkpt>
      <trkpt lat="44.95958" lon="3.54784">
        <ele>974.91</ele>
        <time>2020-08-21T07:19:09Z</time>
      </trkpt>
      <trkpt lat="44.95958" lon="3.54777">
        <ele>975.39</ele>
        <time>2020-08-21T07:19:14Z</time>
      </trkpt>
      <trkpt lat="44.95961" lon="3.54762">
        <ele>975.88</ele>
        <time>2020-08-21T07:19:28Z</time>
      </trkpt>
      <trkpt lat="44.95961" lon="3.54758">
        <ele>975.39</ele>
        <time>2020-08-21T07:19:42Z</time>
      </trkpt>
      <trkpt lat="44.95966" lon="3.54758">
        <ele>975.39</ele>
        <time>2020-08-21T07:20:10Z</time>
      </trkpt>
      <trkpt lat="44.95973" lon="3.54754">
        <ele>976.36</ele>
        <time>2020-08-21T07:20:23Z</time>
      </trkpt>
      <trkpt lat="44.95988" lon="3.54758">
        <ele>976.84</ele>
        <time>2020-08-21T07:20:40Z</time>
      </trkpt>
      <trkpt lat="44.95999" lon="3.54762">
        <ele>977.32</ele>
        <time>2020-08-21T07:20:54Z</time>
      </trkpt>
      <trkpt lat="44.96004" lon="3.54767">
        <ele>977.32</ele>
        <time>2020-08-21T07:21:06Z</time>
      </trkpt>
      <trkpt lat="44.96007" lon="3.54771">
        <ele>977.8</ele>
        <time>2020-08-21T07:21:21Z</time>
      </trkpt>
      <trkpt lat="44.96012" lon="3.54772">
        <ele>977.8</ele>
        <time>2020-08-21T07:21:34Z</time>
      </trkpt>
      <trkpt lat="44.96023" lon="3.54773">
        <ele>978.28</ele>
        <time>2020-08-21T07:21:48Z</time>
      </trkpt>
      <trkpt lat="44.96033" lon="3.54777">
        <ele>978.28</ele>
        <time>2020-08-21T07:22:05Z</time>
      </trkpt>
      <trkpt lat="44.96037" lon="3.54776">
        <ele>978.28</ele>
        <time>2020-08-21T07:22:18Z</time>
      </trkpt>
      <trkpt lat="44.96037" lon="3.54778">
        <ele>978.28</ele>
        <time>2020-08-21T07:22:33Z</time>
      </trkpt>
      <trkpt lat="44.96039" lon="3.54778">
        <ele>977.8</ele>
        <time>2020-08-21T07:23:01Z</time>
      </trkpt>
      <trkpt lat="44.96039" lon="3.54776">
        <ele>977.8</ele>
        <time>2020-08-21T07:23:40Z</time>
      </trkpt>
      <trkpt lat="44.96039" lon="3.5478">
        <ele>977.8</ele>
        <time>2020-08-21T07:24:15Z</time>
      </trkpt>
      <trkpt lat="44.9604" lon="3.54778">
        <ele>977.32</ele>
        <time>2020-08-21T07:24:49Z</time>
      </trkpt>
      <trkpt lat="44.96038" lon="3.54777">
        <ele>977.32</ele>
        <time>2020-08-21T07:25:19Z</time>
      </trkpt>
      <trkpt lat="44.96043" lon="3.54777">
        <ele>976.84</ele>
        <time>2020-08-21T07:25:56Z</time>
      </trkpt>
      <trkpt lat="44.96042" lon="3.54775">
        <ele>976.84</ele>
        <time>2020-08-21T07:26:16Z</time>
      </trkpt>
      <trkpt lat="44.9604" lon="3.54775">
        <ele>976.84</ele>
        <time>2020-08-21T07:26:39Z</time>
      </trkpt>
      <trkpt lat="44.96038" lon="3.5478">
        <ele>976.84</ele>
        <time>2020-08-21T07:27:17Z</time>
      </trkpt>
      <trkpt lat="44.9604" lon="3.54771">
        <ele>976.84</ele>
        <time>2020-08-21T07:27:51Z</time>
      </trkpt>
      <trkpt lat="44.96041" lon="3.5477">
        <ele>976.84</ele>
        <time>2020-08-21T07:28:26Z</time>
      </trkpt>
      <trkpt lat="44.96041" lon="3.54771">
        <ele>976.84</ele>
        <time>2020-08-21T07:29:02Z</time>
      </trkpt>
      <trkpt lat="44.9604" lon="3.54773">
        <ele>976.84</ele>
        <time>2020-08-21T07:29:37Z</time>
      </trkpt>
      <trkpt lat="44.96041" lon="3.54776">
        <ele>977.32</ele>
        <time>2020-08-21T07:30:00Z</time>
      </trkpt>
      <trkpt lat="44.96046" lon="3.54773">
        <ele>977.32</ele>
        <time>2020-08-21T07:30:38Z</time>
      </trkpt>
      <trkpt lat="44.96048" lon="3.54772">
        <ele>977.32</ele>
        <time>2020-08-21T07:31:04Z</time>
      </trkpt>
      <trkpt lat="44.96042" lon="3.54774">
        <ele>977.32</ele>
        <time>2020-08-21T07:31:38Z</time>
      </trkpt>
      <trkpt lat="44.96044" lon="3.54769">
        <ele>977.32</ele>
        <time>2020-08-21T07:32:02Z</time>
      </trkpt>
      <trkpt lat="44.96046" lon="3.54777">
        <ele>977.32</ele>
        <time>2020-08-21T07:32:29Z</time>
      </trkpt>
      <trkpt lat="44.96045" lon="3.54777">
        <ele>976.84</ele>
        <time>2020-08-21T07:33:00Z</time>
      </trkpt>
      <trkpt lat="44.96052" lon="3.54777">
        <ele>976.84</ele>
        <time>2020-08-21T07:33:19Z</time>
      </trkpt>
      <trkpt lat="44.96056" lon="3.54768">
        <ele>976.84</ele>
        <time>2020-08-21T07:33:34Z</time>
      </trkpt>
      <trkpt lat="44.9606" lon="3.5476">
        <ele>976.84</ele>
        <time>2020-08-21T07:33:45Z</time>
      </trkpt>
      <trkpt lat="44.96064" lon="3.54757">
        <ele>975.39</ele>
        <time>2020-08-21T07:33:51Z</time>
      </trkpt>
      <trkpt lat="44.96067" lon="3.54743">
        <ele>974.91</ele>
        <time>2020-08-21T07:34:03Z</time>
      </trkpt>
      <trkpt lat="44.96066" lon="3.5473">
        <ele>974.43</ele>
        <time>2020-08-21T07:34:17Z</time>
      </trkpt>
      <trkpt lat="44.96063" lon="3.54727">
        <ele>974.43</ele>
        <time>2020-08-21T07:34:37Z</time>
      </trkpt>
      <trkpt lat="44.96064" lon="3.54726">
        <ele>973.95</ele>
        <time>2020-08-21T07:34:59Z</time>
      </trkpt>
      <trkpt lat="44.96061" lon="3.54726">
        <ele>973.95</ele>
        <time>2020-08-21T07:35:15Z</time>
      </trkpt>
      <trkpt lat="44.96061" lon="3.54725">
        <ele>973.95</ele>
        <time>2020-08-21T07:35:37Z</time>
      </trkpt>
      <trkpt lat="44.96065" lon="3.54727">
        <ele>973.95</ele>
        <time>2020-08-21T07:35:58Z</time>
      </trkpt>
      <trkpt lat="44.96068" lon="3.54726">
        <ele>973.95</ele>
        <time>2020-08-21T07:36:18Z</time>
      </trkpt>
      <trkpt lat="44.96065" lon="3.54725">
        <ele>973.95</ele>
        <time>2020-08-21T07:36:39Z</time>
      </trkpt>
      <trkpt lat="44.96063" lon="3.54725">
        <ele>973.95</ele>
        <time>2020-08-21T07:36:53Z</time>
      </trkpt>
      <trkpt lat="44.96063" lon="3.54715">
        <ele>973.47</ele>
        <time>2020-08-21T07:37:05Z</time>
      </trkpt>
      <trkpt lat="44.96058" lon="3.54714">
        <ele>973.47</ele>
        <time>2020-08-21T07:37:14Z</time>
      </trkpt>
      <trkpt lat="44.96055" lon="3.54715">
        <ele>974.43</ele>
        <time>2020-08-21T07:37:21Z</time>
      </trkpt>
      <trkpt lat="44.96051" lon="3.54715">
        <ele>974.43</ele>
        <time>2020-08-21T07:37:32Z</time>
      </trkpt>
      <trkpt lat="44.96055" lon="3.54704">
        <ele>974.43</ele>
        <time>2020-08-21T07:37:52Z</time>
      </trkpt>
      <trkpt lat="44.9605" lon="3.54703">
        <ele>974.43</ele>
        <time>2020-08-21T07:38:10Z</time>
      </trkpt>
      <trkpt lat="44.96045" lon="3.54712">
        <ele>974.43</ele>
        <time>2020-08-21T07:38:32Z</time>
      </trkpt>
      <trkpt lat="44.96042" lon="3.54724">
        <ele>974.43</ele>
        <time>2020-08-21T07:38:54Z</time>
      </trkpt>
      <trkpt lat="44.9604" lon="3.5473">
        <ele>974.43</ele>
        <time>2020-08-21T07:39:12Z</time>
      </trkpt>
      <trkpt lat="44.96053" lon="3.5473">
        <ele>974.43</ele>
        <time>2020-08-21T07:39:32Z</time>
      </trkpt>
      <trkpt lat="44.96049" lon="3.54751">
        <ele>974.43</ele>
        <time>2020-08-21T07:39:57Z</time>
      </trkpt>
      <trkpt lat="44.96045" lon="3.54755">
        <ele>974.43</ele>
        <time>2020-08-21T07:40:23Z</time>
      </trkpt>
      <trkpt lat="44.96045" lon="3.54756">
        <ele>972.99</ele>
        <time>2020-08-21T07:40:58Z</time>
      </trkpt>
      <trkpt lat="44.9604" lon="3.54754">
        <ele>973.47</ele>
        <time>2020-08-21T07:41:30Z</time>
      </trkpt>
      <trkpt lat="44.96038" lon="3.54746">
        <ele>973.47</ele>
        <time>2020-08-21T07:41:56Z</time>
      </trkpt>
      <trkpt lat="44.96042" lon="3.54728">
        <ele>973.95</ele>
        <time>2020-08-21T07:42:15Z</time>
      </trkpt>
      <trkpt lat="44.96052" lon="3.54707">
        <ele>973.95</ele>
        <time>2020-08-21T07:42:32Z</time>
      </trkpt>
      <trkpt lat="44.96051" lon="3.54698">
        <ele>973.95</ele>
        <time>2020-08-21T07:42:46Z</time>
      </trkpt>
      <trkpt lat="44.9605" lon="3.54688">
        <ele>973.95</ele>
        <time>2020-08-21T07:43:08Z</time>
      </trkpt>
      <trkpt lat="44.96046" lon="3.54668">
        <ele>973.95</ele>
        <time>2020-08-21T07:43:32Z</time>
      </trkpt>
      <trkpt lat="44.96042" lon="3.5466">
        <ele>973.95</ele>
        <time>2020-08-21T07:43:51Z</time>
      </trkpt>
      <trkpt lat="44.96044" lon="3.54665">
        <ele>974.43</ele>
        <time>2020-08-21T07:44:07Z</time>
      </trkpt>
      <trkpt lat="44.96043" lon="3.54666">
        <ele>974.43</ele>
        <time>2020-08-21T07:44:21Z</time>
      </trkpt>
      <trkpt lat="44.96041" lon="3.54672">
        <ele>975.88</ele>
        <time>2020-08-21T07:44:35Z</time>
      </trkpt>
      <trkpt lat="44.96044" lon="3.54693">
        <ele>975.88</ele>
        <time>2020-08-21T07:44:50Z</time>
      </trkpt>
      <trkpt lat="44.96044" lon="3.54694">
        <ele>974.43</ele>
        <time>2020-08-21T07:44:52Z</time>
      </trkpt>
      <trkpt lat="44.96042" lon="3.54687">
        <ele>972.51</ele>
        <time>2020-08-21T07:45:09Z</time>
      </trkpt>
      <trkpt lat="44.96033" lon="3.54682">
        <ele>971.55</ele>
        <time>2020-08-21T07:45:26Z</time>
      </trkpt>
      <trkpt lat="44.96023" lon="3.54679">
        <ele>971.55</ele>
        <time>2020-08-21T07:45:43Z</time>
      </trkpt>
      <trkpt lat="44.96012" lon="3.54679">
        <ele>971.55</ele>
        <time>2020-08-21T07:46:01Z</time>
      </trkpt>
      <trkpt lat="44.96012" lon="3.5468">
        <ele>972.51</ele>
        <time>2020-08-21T07:46:03Z</time>
      </trkpt>
      <trkpt lat="44.95999" lon="3.54685">
        <ele>972.99</ele>
        <time>2020-08-21T07:46:24Z</time>
      </trkpt>
      <trkpt lat="44.95993" lon="3.54681">
        <ele>972.99</ele>
        <time>2020-08-21T07:46:45Z</time>
      </trkpt>
      <trkpt lat="44.95983" lon="3.54668">
        <ele>972.99</ele>
        <time>2020-08-21T07:47:04Z</time>
      </trkpt>
      <trkpt lat="44.95978" lon="3.5466">
        <ele>972.99</ele>
        <time>2020-08-21T07:47:23Z</time>
      </trkpt>
      <trkpt lat="44.9598" lon="3.54654">
        <ele>972.03</ele>
        <time>2020-08-21T07:47:36Z</time>
      </trkpt>
      <trkpt lat="44.95976" lon="3.54646">
        <ele>972.03</ele>
        <time>2020-08-21T07:47:53Z</time>
      </trkpt>
      <trkpt lat="44.95968" lon="3.54633">
        <ele>971.07</ele>
        <time>2020-08-21T07:48:11Z</time>
      </trkpt>
      <trkpt lat="44.95958" lon="3.5463">
        <ele>972.03</ele>
        <time>2020-08-21T07:48:31Z</time>
      </trkpt>
      <trkpt lat="44.95971" lon="3.54621">
        <ele>972.03</ele>
        <time>2020-08-21T07:49:06Z</time>
      </trkpt>
      <trkpt lat="44.95973" lon="3.54607">
        <ele>971.07</ele>
        <time>2020-08-21T07:49:32Z</time>
      </trkpt>
      <trkpt lat="44.95964" lon="3.54593">
        <ele>970.59</ele>
        <time>2020-08-21T07:49:51Z</time>
      </trkpt>
      <trkpt lat="44.95952" lon="3.54584">
        <ele>969.63</ele>
        <time>2020-08-21T07:50:07Z</time>
      </trkpt>
      <trkpt lat="44.95936" lon="3.54575">
        <ele>968.18</ele>
        <time>2020-08-21T07:50:24Z</time>
      </trkpt>
      <trkpt lat="44.95927" lon="3.54565">
        <ele>967.7</ele>
        <time>2020-08-21T07:50:41Z</time>
      </trkpt>
      <trkpt lat="44.95925" lon="3.54563">
        <ele>967.22</ele>
        <time>2020-08-21T07:51:02Z</time>
      </trkpt>
      <trkpt lat="44.95918" lon="3.54562">
        <ele>965.78</ele>
        <time>2020-08-21T07:51:19Z</time>
      </trkpt>
      <trkpt lat="44.95903" lon="3.54535">
        <ele>965.3</ele>
        <time>2020-08-21T07:51:37Z</time>
      </trkpt>
      <trkpt lat="44.95896" lon="3.5451">
        <ele>964.34</ele>
        <time>2020-08-21T07:51:57Z</time>
      </trkpt>
      <trkpt lat="44.95893" lon="3.54488">
        <ele>963.38</ele>
        <time>2020-08-21T07:52:18Z</time>
      </trkpt>
      <trkpt lat="44.95889" lon="3.54466">
        <ele>961.94</ele>
        <time>2020-08-21T07:52:35Z</time>
      </trkpt>
      <trkpt lat="44.95887" lon="3.54455">
        <ele>961.94</ele>
        <time>2020-08-21T07:52:46Z</time>
      </trkpt>
      <trkpt lat="44.95885" lon="3.54438">
        <ele>960.49</ele>
        <time>2020-08-21T07:53:01Z</time>
      </trkpt>
      <trkpt lat="44.95875" lon="3.54424">
        <ele>959.05</ele>
        <time>2020-08-21T07:53:19Z</time>
      </trkpt>
      <trkpt lat="44.95871" lon="3.54419">
        <ele>959.05</ele>
        <time>2020-08-21T07:53:25Z</time>
      </trkpt>
      <trkpt lat="44.95863" lon="3.54406">
        <ele>958.09</ele>
        <time>2020-08-21T07:53:40Z</time>
      </trkpt>
      <trkpt lat="44.95854" lon="3.54394">
        <ele>957.61</ele>
        <time>2020-08-21T07:53:53Z</time>
      </trkpt>
      <trkpt lat="44.95845" lon="3.54376">
        <ele>956.65</ele>
        <time>2020-08-21T07:54:09Z</time>
      </trkpt>
      <trkpt lat="44.95843" lon="3.54368">
        <ele>955.69</ele>
        <time>2020-08-21T07:54:17Z</time>
      </trkpt>
      <trkpt lat="44.95831" lon="3.54354">
        <ele>955.21</ele>
        <time>2020-08-21T07:54:35Z</time>
      </trkpt>
      <trkpt lat="44.9583" lon="3.54348">
        <ele>954.73</ele>
        <time>2020-08-21T07:54:40Z</time>
      </trkpt>
      <trkpt lat="44.95829" lon="3.54345">
        <ele>954.25</ele>
        <time>2020-08-21T07:54:42Z</time>
      </trkpt>
      <trkpt lat="44.95827" lon="3.54341">
        <ele>954.25</ele>
        <time>2020-08-21T07:54:46Z</time>
      </trkpt>
      <trkpt lat="44.95819" lon="3.54323">
        <ele>952.8</ele>
        <time>2020-08-21T07:55:03Z</time>
      </trkpt>
      <trkpt lat="44.95811" lon="3.54304">
        <ele>952.32</ele>
        <time>2020-08-21T07:55:20Z</time>
      </trkpt>
      <trkpt lat="44.9581" lon="3.54303">
        <ele>952.32</ele>
        <time>2020-08-21T07:55:22Z</time>
      </trkpt>
      <trkpt lat="44.95806" lon="3.54297">
        <ele>952.32</ele>
        <time>2020-08-21T07:55:28Z</time>
      </trkpt>
      <trkpt lat="44.95797" lon="3.54283">
        <ele>952.32</ele>
        <time>2020-08-21T07:55:42Z</time>
      </trkpt>
      <trkpt lat="44.95793" lon="3.54276">
        <ele>951.84</ele>
        <time>2020-08-21T07:55:55Z</time>
      </trkpt>
      <trkpt lat="44.95783" lon="3.54261">
        <ele>950.88</ele>
        <time>2020-08-21T07:56:10Z</time>
      </trkpt>
      <trkpt lat="44.95771" lon="3.5425">
        <ele>950.4</ele>
        <time>2020-08-21T07:56:25Z</time>
      </trkpt>
      <trkpt lat="44.95763" lon="3.54242">
        <ele>949.44</ele>
        <time>2020-08-21T07:56:40Z</time>
      </trkpt>
      <trkpt lat="44.95761" lon="3.54239">
        <ele>949.44</ele>
        <time>2020-08-21T07:56:55Z</time>
      </trkpt>
      <trkpt lat="44.95742" lon="3.54224">
        <ele>947.04</ele>
        <time>2020-08-21T07:57:17Z</time>
      </trkpt>
      <trkpt lat="44.95725" lon="3.54212">
        <ele>945.11</ele>
        <time>2020-08-21T07:57:37Z</time>
      </trkpt>
      <trkpt lat="44.95711" lon="3.54208">
        <ele>944.63</ele>
        <time>2020-08-21T07:57:52Z</time>
      </trkpt>
      <trkpt lat="44.95697" lon="3.542">
        <ele>944.15</ele>
        <time>2020-08-21T07:58:06Z</time>
      </trkpt>
      <trkpt lat="44.95681" lon="3.54192">
        <ele>943.19</ele>
        <time>2020-08-21T07:58:23Z</time>
      </trkpt>
      <trkpt lat="44.95666" lon="3.54183">
        <ele>942.23</ele>
        <time>2020-08-21T07:58:39Z</time>
      </trkpt>
      <trkpt lat="44.95653" lon="3.54175">
        <ele>941.27</ele>
        <time>2020-08-21T07:58:53Z</time>
      </trkpt>
      <trkpt lat="44.95649" lon="3.5417">
        <ele>941.27</ele>
        <time>2020-08-21T07:58:58Z</time>
      </trkpt>
      <trkpt lat="44.95633" lon="3.54156">
        <ele>940.31</ele>
        <time>2020-08-21T07:59:15Z</time>
      </trkpt>
      <trkpt lat="44.95628" lon="3.54148">
        <ele>940.31</ele>
        <time>2020-08-21T07:59:22Z</time>
      </trkpt>
      <trkpt lat="44.95627" lon="3.54131">
        <ele>939.35</ele>
        <time>2020-08-21T07:59:36Z</time>
      </trkpt>
      <trkpt lat="44.95633" lon="3.54117">
        <ele>939.35</ele>
        <time>2020-08-21T07:59:48Z</time>
      </trkpt>
      <trkpt lat="44.95636" lon="3.54105">
        <ele>939.35</ele>
        <time>2020-08-21T08:00:04Z</time>
      </trkpt>
      <trkpt lat="44.9563" lon="3.54099">
        <ele>939.35</ele>
        <time>2020-08-21T08:00:22Z</time>
      </trkpt>
      <trkpt lat="44.95629" lon="3.54098">
        <ele>939.35</ele>
        <time>2020-08-21T08:00:23Z</time>
      </trkpt>
      <trkpt lat="44.95617" lon="3.54085">
        <ele>939.35</ele>
        <time>2020-08-21T08:00:40Z</time>
      </trkpt>
      <trkpt lat="44.95613" lon="3.54087">
        <ele>938.86</ele>
        <time>2020-08-21T08:00:52Z</time>
      </trkpt>
      <trkpt lat="44.95613" lon="3.54087">
        <ele>938.86</ele>
        <time>2020-08-21T08:01:15Z</time>
      </trkpt>
      <trkpt lat="44.95609" lon="3.54077">
        <ele>938.86</ele>
        <time>2020-08-21T08:01:34Z</time>
      </trkpt>
      <trkpt lat="44.95602" lon="3.5406">
        <ele>938.86</ele>
        <time>2020-08-21T08:01:48Z</time>
      </trkpt>
      <trkpt lat="44.95598" lon="3.54049">
        <ele>938.86</ele>
        <time>2020-08-21T08:01:56Z</time>
      </trkpt>
      <trkpt lat="44.95598" lon="3.54044">
        <ele>938.86</ele>
        <time>2020-08-21T08:02:00Z</time>
      </trkpt>
      <trkpt lat="44.95596" lon="3.54022">
        <ele>938.86</ele>
        <time>2020-08-21T08:02:15Z</time>
      </trkpt>
      <trkpt lat="44.95594" lon="3.54021">
        <ele>938.86</ele>
        <time>2020-08-21T08:02:17Z</time>
      </trkpt>
      <trkpt lat="44.95586" lon="3.53999">
        <ele>938.86</ele>
        <time>2020-08-21T08:02:34Z</time>
      </trkpt>
      <trkpt lat="44.95582" lon="3.53983">
        <ele>938.86</ele>
        <time>2020-08-21T08:02:46Z</time>
      </trkpt>
      <trkpt lat="44.95576" lon="3.53959">
        <ele>938.38</ele>
        <time>2020-08-21T08:03:04Z</time>
      </trkpt>
      <trkpt lat="44.95571" lon="3.53938">
        <ele>937.42</ele>
        <time>2020-08-21T08:03:18Z</time>
      </trkpt>
      <trkpt lat="44.95567" lon="3.53919">
        <ele>937.42</ele>
        <time>2020-08-21T08:03:32Z</time>
      </trkpt>
      <trkpt lat="44.95562" lon="3.539">
        <ele>937.42</ele>
        <time>2020-08-21T08:03:48Z</time>
      </trkpt>
      <trkpt lat="44.95563" lon="3.53904">
        <ele>937.42</ele>
        <time>2020-08-21T08:04:15Z</time>
      </trkpt>
      <trkpt lat="44.95559" lon="3.53884">
        <ele>936.94</ele>
        <time>2020-08-21T08:04:32Z</time>
      </trkpt>
      <trkpt lat="44.95553" lon="3.53864">
        <ele>936.94</ele>
        <time>2020-08-21T08:04:48Z</time>
      </trkpt>
      <trkpt lat="44.95546" lon="3.53864">
        <ele>936.94</ele>
        <time>2020-08-21T08:05:03Z</time>
      </trkpt>
      <trkpt lat="44.95543" lon="3.53863">
        <ele>936.46</ele>
        <time>2020-08-21T08:05:07Z</time>
      </trkpt>
      <trkpt lat="44.95526" lon="3.53863">
        <ele>936.46</ele>
        <time>2020-08-21T08:05:24Z</time>
      </trkpt>
      <trkpt lat="44.95521" lon="3.53863">
        <ele>936.46</ele>
        <time>2020-08-21T08:05:28Z</time>
      </trkpt>
      <trkpt lat="44.955" lon="3.53858">
        <ele>935.98</ele>
        <time>2020-08-21T08:05:47Z</time>
      </trkpt>
      <trkpt lat="44.95483" lon="3.53852">
        <ele>935.98</ele>
        <time>2020-08-21T08:06:02Z</time>
      </trkpt>
      <trkpt lat="44.95465" lon="3.53841">
        <ele>936.94</ele>
        <time>2020-08-21T08:06:19Z</time>
      </trkpt>
      <trkpt lat="44.95449" lon="3.5383">
        <ele>936.94</ele>
        <time>2020-08-21T08:06:36Z</time>
      </trkpt>
      <trkpt lat="44.95436" lon="3.53825">
        <ele>936.94</ele>
        <time>2020-08-21T08:06:54Z</time>
      </trkpt>
      <trkpt lat="44.95432" lon="3.5382">
        <ele>936.94</ele>
        <time>2020-08-21T08:07:17Z</time>
      </trkpt>
      <trkpt lat="44.95421" lon="3.53809">
        <ele>935.98</ele>
        <time>2020-08-21T08:07:32Z</time>
      </trkpt>
      <trkpt lat="44.95408" lon="3.53794">
        <ele>936.94</ele>
        <time>2020-08-21T08:07:47Z</time>
      </trkpt>
      <trkpt lat="44.95397" lon="3.53782">
        <ele>937.42</ele>
        <time>2020-08-21T08:08:02Z</time>
      </trkpt>
      <trkpt lat="44.95383" lon="3.53767">
        <ele>937.42</ele>
        <time>2020-08-21T08:08:20Z</time>
      </trkpt>
      <trkpt lat="44.95372" lon="3.53756">
        <ele>937.9</ele>
        <time>2020-08-21T08:08:33Z</time>
      </trkpt>
      <trkpt lat="44.95357" lon="3.53745">
        <ele>938.38</ele>
        <time>2020-08-21T08:08:48Z</time>
      </trkpt>
      <trkpt lat="44.95339" lon="3.53733">
        <ele>938.38</ele>
        <time>2020-08-21T08:09:07Z</time>
      </trkpt>
      <trkpt lat="44.95325" lon="3.53726">
        <ele>938.38</ele>
        <time>2020-08-21T08:09:21Z</time>
      </trkpt>
      <trkpt lat="44.95306" lon="3.5372">
        <ele>938.38</ele>
        <time>2020-08-21T08:09:39Z</time>
      </trkpt>
      <trkpt lat="44.95304" lon="3.53719">
        <ele>938.38</ele>
        <time>2020-08-21T08:09:41Z</time>
      </trkpt>
      <trkpt lat="44.95287" lon="3.53712">
        <ele>938.38</ele>
        <time>2020-08-21T08:09:56Z</time>
      </trkpt>
      <trkpt lat="44.95274" lon="3.53703">
        <ele>938.86</ele>
        <time>2020-08-21T08:10:10Z</time>
      </trkpt>
      <trkpt lat="44.95261" lon="3.53688">
        <ele>939.83</ele>
        <time>2020-08-21T08:10:25Z</time>
      </trkpt>
      <trkpt lat="44.95251" lon="3.53669">
        <ele>941.27</ele>
        <time>2020-08-21T08:10:41Z</time>
      </trkpt>
      <trkpt lat="44.95246" lon="3.53648">
        <ele>941.27</ele>
        <time>2020-08-21T08:10:56Z</time>
      </trkpt>
      <trkpt lat="44.9524" lon="3.53626">
        <ele>941.27</ele>
        <time>2020-08-21T08:11:11Z</time>
      </trkpt>
      <trkpt lat="44.95234" lon="3.53606">
        <ele>941.75</ele>
        <time>2020-08-21T08:11:25Z</time>
      </trkpt>
      <trkpt lat="44.95228" lon="3.53592">
        <ele>942.23</ele>
        <time>2020-08-21T08:11:36Z</time>
      </trkpt>
      <trkpt lat="44.95221" lon="3.53573">
        <ele>942.71</ele>
        <time>2020-08-21T08:11:50Z</time>
      </trkpt>
      <trkpt lat="44.9521" lon="3.53551">
        <ele>942.71</ele>
        <time>2020-08-21T08:12:07Z</time>
      </trkpt>
      <trkpt lat="44.95203" lon="3.53534">
        <ele>942.71</ele>
        <time>2020-08-21T08:12:20Z</time>
      </trkpt>
      <trkpt lat="44.95198" lon="3.53522">
        <ele>942.71</ele>
        <time>2020-08-21T08:12:29Z</time>
      </trkpt>
      <trkpt lat="44.95192" lon="3.53509">
        <ele>942.71</ele>
        <time>2020-08-21T08:12:39Z</time>
      </trkpt>
      <trkpt lat="44.9518" lon="3.53487">
        <ele>942.71</ele>
        <time>2020-08-21T08:12:56Z</time>
      </trkpt>
      <trkpt lat="44.95171" lon="3.53467">
        <ele>942.71</ele>
        <time>2020-08-21T08:13:11Z</time>
      </trkpt>
      <trkpt lat="44.9516" lon="3.53445">
        <ele>942.23</ele>
        <time>2020-08-21T08:13:28Z</time>
      </trkpt>
      <trkpt lat="44.95151" lon="3.53427">
        <ele>942.71</ele>
        <time>2020-08-21T08:13:43Z</time>
      </trkpt>
      <trkpt lat="44.95149" lon="3.53421">
        <ele>942.71</ele>
        <time>2020-08-21T08:13:47Z</time>
      </trkpt>
      <trkpt lat="44.95144" lon="3.53414">
        <ele>942.71</ele>
        <time>2020-08-21T08:13:54Z</time>
      </trkpt>
      <trkpt lat="44.95135" lon="3.53394">
        <ele>942.71</ele>
        <time>2020-08-21T08:14:09Z</time>
      </trkpt>
      <trkpt lat="44.95128" lon="3.53383">
        <ele>942.71</ele>
        <time>2020-08-21T08:14:19Z</time>
      </trkpt>
      <trkpt lat="44.95122" lon="3.5337">
        <ele>942.71</ele>
        <time>2020-08-21T08:14:29Z</time>
      </trkpt>
      <trkpt lat="44.95112" lon="3.53351">
        <ele>942.71</ele>
        <time>2020-08-21T08:14:45Z</time>
      </trkpt>
      <trkpt lat="44.95098" lon="3.53334">
        <ele>942.71</ele>
        <time>2020-08-21T08:15:01Z</time>
      </trkpt>
      <trkpt lat="44.95087" lon="3.53322">
        <ele>942.71</ele>
        <time>2020-08-21T08:15:17Z</time>
      </trkpt>
      <trkpt lat="44.95076" lon="3.53312">
        <ele>942.71</ele>
        <time>2020-08-21T08:15:33Z</time>
      </trkpt>
      <trkpt lat="44.95073" lon="3.53309">
        <ele>942.71</ele>
        <time>2020-08-21T08:15:37Z</time>
      </trkpt>
      <trkpt lat="44.95058" lon="3.53297">
        <ele>942.71</ele>
        <time>2020-08-21T08:15:54Z</time>
      </trkpt>
      <trkpt lat="44.95042" lon="3.53287">
        <ele>942.71</ele>
        <time>2020-08-21T08:16:10Z</time>
      </trkpt>
      <trkpt lat="44.95026" lon="3.53278">
        <ele>942.71</ele>
        <time>2020-08-21T08:16:26Z</time>
      </trkpt>
      <trkpt lat="44.95022" lon="3.53273">
        <ele>942.71</ele>
        <time>2020-08-21T08:16:32Z</time>
      </trkpt>
      <trkpt lat="44.95016" lon="3.53262">
        <ele>942.71</ele>
        <time>2020-08-21T08:16:42Z</time>
      </trkpt>
      <trkpt lat="44.95015" lon="3.5326">
        <ele>942.71</ele>
        <time>2020-08-21T08:16:44Z</time>
      </trkpt>
      <trkpt lat="44.94998" lon="3.5326">
        <ele>943.19</ele>
        <time>2020-08-21T08:17:00Z</time>
      </trkpt>
      <trkpt lat="44.94982" lon="3.53261">
        <ele>943.19</ele>
        <time>2020-08-21T08:17:15Z</time>
      </trkpt>
      <trkpt lat="44.94979" lon="3.53261">
        <ele>943.19</ele>
        <time>2020-08-21T08:17:18Z</time>
      </trkpt>
      <trkpt lat="44.94957" lon="3.53258">
        <ele>943.67</ele>
        <time>2020-08-21T08:17:36Z</time>
      </trkpt>
      <trkpt lat="44.94941" lon="3.53259">
        <ele>944.63</ele>
        <time>2020-08-21T08:17:52Z</time>
      </trkpt>
      <trkpt lat="44.94927" lon="3.53255">
        <ele>945.11</ele>
        <time>2020-08-21T08:18:07Z</time>
      </trkpt>
      <trkpt lat="44.94916" lon="3.53252">
        <ele>945.59</ele>
        <time>2020-08-21T08:18:18Z</time>
      </trkpt>
      <trkpt lat="44.94901" lon="3.53246">
        <ele>946.56</ele>
        <time>2020-08-21T08:18:33Z</time>
      </trkpt>
      <trkpt lat="44.94886" lon="3.5324">
        <ele>947.04</ele>
        <time>2020-08-21T08:18:48Z</time>
      </trkpt>
      <trkpt lat="44.9487" lon="3.53234">
        <ele>948</ele>
        <time>2020-08-21T08:19:04Z</time>
      </trkpt>
      <trkpt lat="44.94858" lon="3.53229">
        <ele>948.96</ele>
        <time>2020-08-21T08:19:17Z</time>
      </trkpt>
      <trkpt lat="44.94845" lon="3.53224">
        <ele>949.92</ele>
        <time>2020-08-21T08:19:30Z</time>
      </trkpt>
      <trkpt lat="44.9483" lon="3.53215">
        <ele>951.36</ele>
        <time>2020-08-21T08:19:48Z</time>
      </trkpt>
      <trkpt lat="44.94824" lon="3.53212">
        <ele>951.84</ele>
        <time>2020-08-21T08:19:55Z</time>
      </trkpt>
      <trkpt lat="44.94817" lon="3.53207">
        <ele>952.32</ele>
        <time>2020-08-21T08:20:04Z</time>
      </trkpt>
      <trkpt lat="44.94803" lon="3.53194">
        <ele>954.25</ele>
        <time>2020-08-21T08:20:20Z</time>
      </trkpt>
      <trkpt lat="44.94793" lon="3.53185">
        <ele>954.25</ele>
        <time>2020-08-21T08:20:33Z</time>
      </trkpt>
      <trkpt lat="44.94787" lon="3.5318">
        <ele>955.21</ele>
        <time>2020-08-21T08:20:40Z</time>
      </trkpt>
      <trkpt lat="44.94776" lon="3.5317">
        <ele>956.17</ele>
        <time>2020-08-21T08:20:54Z</time>
      </trkpt>
      <trkpt lat="44.94768" lon="3.53165">
        <ele>957.13</ele>
        <time>2020-08-21T08:21:12Z</time>
      </trkpt>
      <trkpt lat="44.9476" lon="3.53154">
        <ele>958.57</ele>
        <time>2020-08-21T08:21:31Z</time>
      </trkpt>
      <trkpt lat="44.94751" lon="3.53148">
        <ele>959.53</ele>
        <time>2020-08-21T08:21:44Z</time>
      </trkpt>
      <trkpt lat="44.94749" lon="3.53146">
        <ele>959.53</ele>
        <time>2020-08-21T08:21:52Z</time>
      </trkpt>
      <trkpt lat="44.94747" lon="3.53145">
        <ele>959.53</ele>
        <time>2020-08-21T08:21:55Z</time>
      </trkpt>
      <trkpt lat="44.94732" lon="3.53135">
        <ele>960.49</ele>
        <time>2020-08-21T08:22:10Z</time>
      </trkpt>
      <trkpt lat="44.94721" lon="3.5313">
        <ele>960.98</ele>
        <time>2020-08-21T08:22:24Z</time>
      </trkpt>
      <trkpt lat="44.9471" lon="3.53123">
        <ele>961.46</ele>
        <time>2020-08-21T08:22:37Z</time>
      </trkpt>
      <trkpt lat="44.94695" lon="3.53113">
        <ele>962.9</ele>
        <time>2020-08-21T08:22:53Z</time>
      </trkpt>
      <trkpt lat="44.9469" lon="3.53109">
        <ele>963.38</ele>
        <time>2020-08-21T08:22:59Z</time>
      </trkpt>
      <trkpt lat="44.94674" lon="3.53098">
        <ele>963.86</ele>
        <time>2020-08-21T08:23:16Z</time>
      </trkpt>
      <trkpt lat="44.94657" lon="3.53087">
        <ele>965.3</ele>
        <time>2020-08-21T08:23:35Z</time>
      </trkpt>
      <trkpt lat="44.94646" lon="3.53082">
        <ele>966.26</ele>
        <time>2020-08-21T08:23:48Z</time>
      </trkpt>
      <trkpt lat="44.94642" lon="3.53079">
        <ele>966.74</ele>
        <time>2020-08-21T08:23:53Z</time>
      </trkpt>
      <trkpt lat="44.94639" lon="3.53076">
        <ele>966.26</ele>
        <time>2020-08-21T08:23:57Z</time>
      </trkpt>
      <trkpt lat="44.94631" lon="3.53071">
        <ele>967.7</ele>
        <time>2020-08-21T08:24:06Z</time>
      </trkpt>
      <trkpt lat="44.94619" lon="3.5306">
        <ele>968.18</ele>
        <time>2020-08-21T08:24:21Z</time>
      </trkpt>
      <trkpt lat="44.94607" lon="3.53049">
        <ele>968.67</ele>
        <time>2020-08-21T08:24:35Z</time>
      </trkpt>
      <trkpt lat="44.94605" lon="3.53048">
        <ele>968.67</ele>
        <time>2020-08-21T08:24:37Z</time>
      </trkpt>
      <trkpt lat="44.94598" lon="3.53042">
        <ele>968.67</ele>
        <time>2020-08-21T08:24:45Z</time>
      </trkpt>
      <trkpt lat="44.94586" lon="3.53032">
        <ele>969.63</ele>
        <time>2020-08-21T08:25:00Z</time>
      </trkpt>
      <trkpt lat="44.94573" lon="3.53026">
        <ele>970.59</ele>
        <time>2020-08-21T08:25:13Z</time>
      </trkpt>
      <trkpt lat="44.94561" lon="3.53021">
        <ele>971.55</ele>
        <time>2020-08-21T08:25:24Z</time>
      </trkpt>
      <trkpt lat="44.94557" lon="3.5302">
        <ele>972.03</ele>
        <time>2020-08-21T08:25:28Z</time>
      </trkpt>
      <trkpt lat="44.94543" lon="3.53015">
        <ele>972.99</ele>
        <time>2020-08-21T08:25:43Z</time>
      </trkpt>
      <trkpt lat="44.9453" lon="3.53011">
        <ele>973.95</ele>
        <time>2020-08-21T08:25:57Z</time>
      </trkpt>
      <trkpt lat="44.94516" lon="3.53004">
        <ele>975.39</ele>
        <time>2020-08-21T08:26:13Z</time>
      </trkpt>
      <trkpt lat="44.94503" lon="3.52996">
        <ele>976.36</ele>
        <time>2020-08-21T08:26:28Z</time>
      </trkpt>
      <trkpt lat="44.94495" lon="3.52989">
        <ele>977.32</ele>
        <time>2020-08-21T08:26:38Z</time>
      </trkpt>
      <trkpt lat="44.9449" lon="3.52984">
        <ele>979.24</ele>
        <time>2020-08-21T08:26:52Z</time>
      </trkpt>
      <trkpt lat="44.94485" lon="3.52977">
        <ele>979.24</ele>
        <time>2020-08-21T08:27:06Z</time>
      </trkpt>
      <trkpt lat="44.94485" lon="3.52976">
        <ele>980.2</ele>
        <time>2020-08-21T08:27:26Z</time>
      </trkpt>
      <trkpt lat="44.9448" lon="3.52967">
        <ele>980.2</ele>
        <time>2020-08-21T08:27:40Z</time>
      </trkpt>
      <trkpt lat="44.94478" lon="3.52963">
        <ele>980.2</ele>
        <time>2020-08-21T08:27:43Z</time>
      </trkpt>
      <trkpt lat="44.94475" lon="3.52958">
        <ele>980.68</ele>
        <time>2020-08-21T08:27:48Z</time>
      </trkpt>
      <trkpt lat="44.94473" lon="3.52956">
        <ele>980.68</ele>
        <time>2020-08-21T08:27:50Z</time>
      </trkpt>
      <trkpt lat="44.94469" lon="3.52948">
        <ele>981.16</ele>
        <time>2020-08-21T08:27:57Z</time>
      </trkpt>
      <trkpt lat="44.9446" lon="3.52931">
        <ele>982.6</ele>
        <time>2020-08-21T08:28:11Z</time>
      </trkpt>
      <trkpt lat="44.94451" lon="3.52914">
        <ele>983.57</ele>
        <time>2020-08-21T08:28:26Z</time>
      </trkpt>
      <trkpt lat="44.94442" lon="3.52903">
        <ele>984.05</ele>
        <time>2020-08-21T08:28:38Z</time>
      </trkpt>
      <trkpt lat="44.94429" lon="3.5289">
        <ele>985.01</ele>
        <time>2020-08-21T08:28:54Z</time>
      </trkpt>
      <trkpt lat="44.94416" lon="3.52876">
        <ele>984.53</ele>
        <time>2020-08-21T08:29:10Z</time>
      </trkpt>
      <trkpt lat="44.94404" lon="3.52861">
        <ele>985.49</ele>
        <time>2020-08-21T08:29:25Z</time>
      </trkpt>
      <trkpt lat="44.94393" lon="3.52849">
        <ele>985.49</ele>
        <time>2020-08-21T08:29:39Z</time>
      </trkpt>
      <trkpt lat="44.94381" lon="3.52836">
        <ele>986.45</ele>
        <time>2020-08-21T08:29:54Z</time>
      </trkpt>
      <trkpt lat="44.9437" lon="3.52823">
        <ele>987.89</ele>
        <time>2020-08-21T08:30:08Z</time>
      </trkpt>
      <trkpt lat="44.94358" lon="3.52812">
        <ele>987.89</ele>
        <time>2020-08-21T08:30:22Z</time>
      </trkpt>
      <trkpt lat="44.94346" lon="3.52804">
        <ele>988.85</ele>
        <time>2020-08-21T08:30:36Z</time>
      </trkpt>
      <trkpt lat="44.94334" lon="3.52797">
        <ele>989.33</ele>
        <time>2020-08-21T08:30:49Z</time>
      </trkpt>
      <trkpt lat="44.94322" lon="3.52797">
        <ele>990.78</ele>
        <time>2020-08-21T08:31:01Z</time>
      </trkpt>
      <trkpt lat="44.94307" lon="3.52799">
        <ele>991.74</ele>
        <time>2020-08-21T08:31:19Z</time>
      </trkpt>
      <trkpt lat="44.94308" lon="3.52806">
        <ele>991.74</ele>
        <time>2020-08-21T08:31:44Z</time>
      </trkpt>
      <trkpt lat="44.94301" lon="3.52803">
        <ele>991.74</ele>
        <time>2020-08-21T08:32:17Z</time>
      </trkpt>
      <trkpt lat="44.94285" lon="3.52808">
        <ele>993.18</ele>
        <time>2020-08-21T08:32:35Z</time>
      </trkpt>
      <trkpt lat="44.94279" lon="3.52811">
        <ele>993.18</ele>
        <time>2020-08-21T08:32:42Z</time>
      </trkpt>
      <trkpt lat="44.94264" lon="3.52816">
        <ele>994.14</ele>
        <time>2020-08-21T08:32:57Z</time>
      </trkpt>
      <trkpt lat="44.94256" lon="3.52819">
        <ele>994.62</ele>
        <time>2020-08-21T08:33:05Z</time>
      </trkpt>
      <trkpt lat="44.9424" lon="3.52826">
        <ele>995.1</ele>
        <time>2020-08-21T08:33:22Z</time>
      </trkpt>
      <trkpt lat="44.94226" lon="3.52828">
        <ele>996.06</ele>
        <time>2020-08-21T08:33:38Z</time>
      </trkpt>
      <trkpt lat="44.94225" lon="3.5283">
        <ele>996.06</ele>
        <time>2020-08-21T08:33:57Z</time>
      </trkpt>
      <trkpt lat="44.94222" lon="3.52828">
        <ele>996.06</ele>
        <time>2020-08-21T08:34:28Z</time>
      </trkpt>
      <trkpt lat="44.94227" lon="3.52831">
        <ele>996.06</ele>
        <time>2020-08-21T08:34:54Z</time>
      </trkpt>
      <trkpt lat="44.94218" lon="3.52827">
        <ele>996.06</ele>
        <time>2020-08-21T08:35:23Z</time>
      </trkpt>
      <trkpt lat="44.94221" lon="3.52831">
        <ele>996.06</ele>
        <time>2020-08-21T08:35:53Z</time>
      </trkpt>
      <trkpt lat="44.94218" lon="3.52828">
        <ele>996.06</ele>
        <time>2020-08-21T08:36:25Z</time>
      </trkpt>
      <trkpt lat="44.94218" lon="3.52824">
        <ele>996.06</ele>
        <time>2020-08-21T08:36:49Z</time>
      </trkpt>
      <trkpt lat="44.94221" lon="3.52832">
        <ele>996.06</ele>
        <time>2020-08-21T08:37:12Z</time>
      </trkpt>
      <trkpt lat="44.94223" lon="3.52837">
        <ele>995.58</ele>
        <time>2020-08-21T08:37:42Z</time>
      </trkpt>
      <trkpt lat="44.94224" lon="3.52835">
        <ele>995.58</ele>
        <time>2020-08-21T08:38:13Z</time>
      </trkpt>
      <trkpt lat="44.94226" lon="3.52837">
        <ele>995.58</ele>
        <time>2020-08-21T08:38:47Z</time>
      </trkpt>
      <trkpt lat="44.94226" lon="3.52836">
        <ele>995.58</ele>
        <time>2020-08-21T08:39:22Z</time>
      </trkpt>
      <trkpt lat="44.94227" lon="3.52833">
        <ele>995.58</ele>
        <time>2020-08-21T08:39:47Z</time>
      </trkpt>
      <trkpt lat="44.94226" lon="3.52837">
        <ele>995.58</ele>
        <time>2020-08-21T08:40:15Z</time>
      </trkpt>
      <trkpt lat="44.94229" lon="3.52837">
        <ele>995.58</ele>
        <time>2020-08-21T08:40:49Z</time>
      </trkpt>
      <trkpt lat="44.94225" lon="3.52837">
        <ele>995.58</ele>
        <time>2020-08-21T08:41:20Z</time>
      </trkpt>
      <trkpt lat="44.94232" lon="3.52837">
        <ele>996.06</ele>
        <time>2020-08-21T08:41:52Z</time>
      </trkpt>
      <trkpt lat="44.94226" lon="3.52837">
        <ele>996.06</ele>
        <time>2020-08-21T08:42:20Z</time>
      </trkpt>
      <trkpt lat="44.94228" lon="3.52831">
        <ele>996.54</ele>
        <time>2020-08-21T08:42:50Z</time>
      </trkpt>
      <trkpt lat="44.94224" lon="3.52832">
        <ele>996.54</ele>
        <time>2020-08-21T08:43:23Z</time>
      </trkpt>
      <trkpt lat="44.94228" lon="3.52829">
        <ele>996.54</ele>
        <time>2020-08-21T08:43:51Z</time>
      </trkpt>
      <trkpt lat="44.94228" lon="3.52828">
        <ele>996.54</ele>
        <time>2020-08-21T08:44:19Z</time>
      </trkpt>
      <trkpt lat="44.94225" lon="3.52831">
        <ele>995.1</ele>
        <time>2020-08-21T08:44:59Z</time>
      </trkpt>
      <trkpt lat="44.94225" lon="3.52834">
        <ele>995.1</ele>
        <time>2020-08-21T08:45:48Z</time>
      </trkpt>
      <trkpt lat="44.94225" lon="3.52832">
        <ele>995.58</ele>
        <time>2020-08-21T08:46:33Z</time>
      </trkpt>
      <trkpt lat="44.94225" lon="3.52828">
        <ele>995.1</ele>
        <time>2020-08-21T08:47:17Z</time>
      </trkpt>
      <trkpt lat="44.94225" lon="3.52826">
        <ele>995.1</ele>
        <time>2020-08-21T08:47:48Z</time>
      </trkpt>
      <trkpt lat="44.94227" lon="3.52827">
        <ele>995.1</ele>
        <time>2020-08-21T08:48:20Z</time>
      </trkpt>
      <trkpt lat="44.94223" lon="3.52828">
        <ele>995.1</ele>
        <time>2020-08-21T08:48:47Z</time>
      </trkpt>
      <trkpt lat="44.94221" lon="3.52831">
        <ele>994.62</ele>
        <time>2020-08-21T08:49:16Z</time>
      </trkpt>
      <trkpt lat="44.94223" lon="3.52827">
        <ele>994.62</ele>
        <time>2020-08-21T08:49:54Z</time>
      </trkpt>
      <trkpt lat="44.94223" lon="3.52829">
        <ele>994.62</ele>
        <time>2020-08-21T08:50:27Z</time>
      </trkpt>
      <trkpt lat="44.94222" lon="3.52829">
        <ele>994.62</ele>
        <time>2020-08-21T08:50:54Z</time>
      </trkpt>
      <trkpt lat="44.94225" lon="3.52827">
        <ele>994.62</ele>
        <time>2020-08-21T08:51:27Z</time>
      </trkpt>
      <trkpt lat="44.94224" lon="3.52828">
        <ele>994.62</ele>
        <time>2020-08-21T08:51:56Z</time>
      </trkpt>
      <trkpt lat="44.94225" lon="3.52829">
        <ele>994.62</ele>
        <time>2020-08-21T08:52:22Z</time>
      </trkpt>
      <trkpt lat="44.94226" lon="3.52827">
        <ele>994.62</ele>
        <time>2020-08-21T08:52:51Z</time>
      </trkpt>
      <trkpt lat="44.94225" lon="3.52828">
        <ele>994.62</ele>
        <time>2020-08-21T08:53:13Z</time>
      </trkpt>
      <trkpt lat="44.94223" lon="3.5283">
        <ele>994.62</ele>
        <time>2020-08-21T08:53:49Z</time>
      </trkpt>
      <trkpt lat="44.94223" lon="3.5283">
        <ele>994.62</ele>
        <time>2020-08-21T08:54:14Z</time>
      </trkpt>
      <trkpt lat="44.94224" lon="3.52831">
        <ele>994.62</ele>
        <time>2020-08-21T08:54:38Z</time>
      </trkpt>
      <trkpt lat="44.94224" lon="3.52832">
        <ele>994.62</ele>
        <time>2020-08-21T08:54:49Z</time>
      </trkpt>
      <trkpt lat="44.9422" lon="3.52835">
        <ele>994.62</ele>
        <time>2020-08-21T08:55:02Z</time>
      </trkpt>
      <trkpt lat="44.94216" lon="3.52835">
        <ele>994.62</ele>
        <time>2020-08-21T08:55:06Z</time>
      </trkpt>
      <trkpt lat="44.94211" lon="3.52837">
        <ele>994.62</ele>
        <time>2020-08-21T08:55:11Z</time>
      </trkpt>
      <trkpt lat="44.94208" lon="3.52841">
        <ele>995.58</ele>
        <time>2020-08-21T08:55:15Z</time>
      </trkpt>
      <trkpt lat="44.94201" lon="3.52844">
        <ele>995.58</ele>
        <time>2020-08-21T08:55:22Z</time>
      </trkpt>
      <trkpt lat="44.94194" lon="3.52846">
        <ele>996.06</ele>
        <time>2020-08-21T08:55:30Z</time>
      </trkpt>
      <trkpt lat="44.94187" lon="3.52848">
        <ele>996.06</ele>
        <time>2020-08-21T08:55:37Z</time>
      </trkpt>
      <trkpt lat="44.94184" lon="3.52851">
        <ele>996.06</ele>
        <time>2020-08-21T08:55:40Z</time>
      </trkpt>
      <trkpt lat="44.94177" lon="3.52853">
        <ele>996.06</ele>
        <time>2020-08-21T08:55:47Z</time>
      </trkpt>
      <trkpt lat="44.94174" lon="3.52855">
        <ele>996.06</ele>
        <time>2020-08-21T08:55:50Z</time>
      </trkpt>
      <trkpt lat="44.94168" lon="3.52853">
        <ele>996.06</ele>
        <time>2020-08-21T08:55:55Z</time>
      </trkpt>
      <trkpt lat="44.94162" lon="3.52856">
        <ele>996.06</ele>
        <time>2020-08-21T08:56:00Z</time>
      </trkpt>
      <trkpt lat="44.9415" lon="3.52858">
        <ele>996.06</ele>
        <time>2020-08-21T08:56:13Z</time>
      </trkpt>
      <trkpt lat="44.9414" lon="3.52858">
        <ele>994.62</ele>
        <time>2020-08-21T08:56:23Z</time>
      </trkpt>
      <trkpt lat="44.9412" lon="3.52852">
        <ele>993.18</ele>
        <time>2020-08-21T08:56:43Z</time>
      </trkpt>
      <trkpt lat="44.94096" lon="3.52847">
        <ele>991.26</ele>
        <time>2020-08-21T08:57:05Z</time>
      </trkpt>
      <trkpt lat="44.94087" lon="3.52848">
        <ele>991.26</ele>
        <time>2020-08-21T08:57:13Z</time>
      </trkpt>
      <trkpt lat="44.94071" lon="3.52855">
        <ele>991.26</ele>
        <time>2020-08-21T08:57:28Z</time>
      </trkpt>
      <trkpt lat="44.94057" lon="3.52862">
        <ele>991.26</ele>
        <time>2020-08-21T08:57:43Z</time>
      </trkpt>
      <trkpt lat="44.94045" lon="3.52869">
        <ele>991.26</ele>
        <time>2020-08-21T08:57:56Z</time>
      </trkpt>
      <trkpt lat="44.94035" lon="3.52875">
        <ele>991.26</ele>
        <time>2020-08-21T08:58:09Z</time>
      </trkpt>
      <trkpt lat="44.94031" lon="3.52876">
        <ele>992.7</ele>
        <time>2020-08-21T08:58:15Z</time>
      </trkpt>
      <trkpt lat="44.94024" lon="3.5288">
        <ele>993.18</ele>
        <time>2020-08-21T08:58:28Z</time>
      </trkpt>
      <trkpt lat="44.94019" lon="3.52885">
        <ele>993.18</ele>
        <time>2020-08-21T08:58:49Z</time>
      </trkpt>
      <trkpt lat="44.94017" lon="3.52888">
        <ele>993.18</ele>
        <time>2020-08-21T08:58:53Z</time>
      </trkpt>
      <trkpt lat="44.94016" lon="3.5289">
        <ele>993.18</ele>
        <time>2020-08-21T08:58:55Z</time>
      </trkpt>
      <trkpt lat="44.94008" lon="3.52907">
        <ele>994.14</ele>
        <time>2020-08-21T08:59:10Z</time>
      </trkpt>
      <trkpt lat="44.94005" lon="3.52915">
        <ele>994.14</ele>
        <time>2020-08-21T08:59:19Z</time>
      </trkpt>
      <trkpt lat="44.94" lon="3.52932">
        <ele>995.58</ele>
        <time>2020-08-21T08:59:32Z</time>
      </trkpt>
      <trkpt lat="44.93995" lon="3.5295">
        <ele>996.54</ele>
        <time>2020-08-21T08:59:47Z</time>
      </trkpt>
      <trkpt lat="44.9399" lon="3.52964">
        <ele>997.99</ele>
        <time>2020-08-21T09:00:02Z</time>
      </trkpt>
      <trkpt lat="44.93988" lon="3.52961">
        <ele>997.99</ele>
        <time>2020-08-21T09:00:34Z</time>
      </trkpt>
      <trkpt lat="44.93982" lon="3.52969">
        <ele>999.43</ele>
        <time>2020-08-21T09:00:53Z</time>
      </trkpt>
      <trkpt lat="44.9397" lon="3.52972">
        <ele>1000.87</ele>
        <time>2020-08-21T09:01:07Z</time>
      </trkpt>
      <trkpt lat="44.93962" lon="3.52976">
        <ele>1002.31</ele>
        <time>2020-08-21T09:01:20Z</time>
      </trkpt>
      <trkpt lat="44.93953" lon="3.52982">
        <ele>1003.27</ele>
        <time>2020-08-21T09:01:33Z</time>
      </trkpt>
      <trkpt lat="44.93944" lon="3.5299">
        <ele>1004.72</ele>
        <time>2020-08-21T09:01:46Z</time>
      </trkpt>
      <trkpt lat="44.93934" lon="3.52995">
        <ele>1004.72</ele>
        <time>2020-08-21T09:01:58Z</time>
      </trkpt>
      <trkpt lat="44.93921" lon="3.52989">
        <ele>1006.64</ele>
        <time>2020-08-21T09:02:14Z</time>
      </trkpt>
      <trkpt lat="44.93909" lon="3.52986">
        <ele>1007.6</ele>
        <time>2020-08-21T09:02:29Z</time>
      </trkpt>
      <trkpt lat="44.93897" lon="3.52982">
        <ele>1008.56</ele>
        <time>2020-08-21T09:02:43Z</time>
      </trkpt>
      <trkpt lat="44.93886" lon="3.5298">
        <ele>1009.04</ele>
        <time>2020-08-21T09:02:56Z</time>
      </trkpt>
      <trkpt lat="44.93883" lon="3.52979">
        <ele>1009.52</ele>
        <time>2020-08-21T09:02:59Z</time>
      </trkpt>
      <trkpt lat="44.93868" lon="3.52975">
        <ele>1009.52</ele>
        <time>2020-08-21T09:03:14Z</time>
      </trkpt>
      <trkpt lat="44.93857" lon="3.52966">
        <ele>1010.96</ele>
        <time>2020-08-21T09:03:29Z</time>
      </trkpt>
      <trkpt lat="44.93852" lon="3.52961">
        <ele>1010.96</ele>
        <time>2020-08-21T09:03:35Z</time>
      </trkpt>
      <trkpt lat="44.93841" lon="3.52948">
        <ele>1011.93</ele>
        <time>2020-08-21T09:03:49Z</time>
      </trkpt>
      <trkpt lat="44.93834" lon="3.52939">
        <ele>1012.41</ele>
        <time>2020-08-21T09:03:58Z</time>
      </trkpt>
      <trkpt lat="44.93833" lon="3.52937">
        <ele>1012.41</ele>
        <time>2020-08-21T09:04:00Z</time>
      </trkpt>
      <trkpt lat="44.93822" lon="3.52922">
        <ele>1012.89</ele>
        <time>2020-08-21T09:04:13Z</time>
      </trkpt>
      <trkpt lat="44.93812" lon="3.52907">
        <ele>1013.37</ele>
        <time>2020-08-21T09:04:28Z</time>
      </trkpt>
      <trkpt lat="44.93803" lon="3.52895">
        <ele>1013.37</ele>
        <time>2020-08-21T09:04:40Z</time>
      </trkpt>
      <trkpt lat="44.938" lon="3.52889">
        <ele>1013.85</ele>
        <time>2020-08-21T09:04:45Z</time>
      </trkpt>
      <trkpt lat="44.93798" lon="3.52885">
        <ele>1013.85</ele>
        <time>2020-08-21T09:04:49Z</time>
      </trkpt>
      <trkpt lat="44.93794" lon="3.52879">
        <ele>1014.33</ele>
        <time>2020-08-21T09:04:54Z</time>
      </trkpt>
      <trkpt lat="44.9379" lon="3.52872">
        <ele>1014.33</ele>
        <time>2020-08-21T09:05:00Z</time>
      </trkpt>
      <trkpt lat="44.9378" lon="3.52862">
        <ele>1014.33</ele>
        <time>2020-08-21T09:05:13Z</time>
      </trkpt>
      <trkpt lat="44.93777" lon="3.52862">
        <ele>1014.33</ele>
        <time>2020-08-21T09:05:15Z</time>
      </trkpt>
      <trkpt lat="44.93768" lon="3.52858">
        <ele>1014.81</ele>
        <time>2020-08-21T09:05:25Z</time>
      </trkpt>
      <trkpt lat="44.93763" lon="3.52856">
        <ele>1016.25</ele>
        <time>2020-08-21T09:05:30Z</time>
      </trkpt>
      <trkpt lat="44.93761" lon="3.52856">
        <ele>1016.25</ele>
        <time>2020-08-21T09:05:32Z</time>
      </trkpt>
      <trkpt lat="44.93759" lon="3.52854">
        <ele>1015.77</ele>
        <time>2020-08-21T09:05:35Z</time>
      </trkpt>
      <trkpt lat="44.93757" lon="3.52855">
        <ele>1015.77</ele>
        <time>2020-08-21T09:05:38Z</time>
      </trkpt>
      <trkpt lat="44.93755" lon="3.52853">
        <ele>1015.77</ele>
        <time>2020-08-21T09:05:40Z</time>
      </trkpt>
      <trkpt lat="44.93751" lon="3.52853">
        <ele>1015.77</ele>
        <time>2020-08-21T09:05:44Z</time>
      </trkpt>
      <trkpt lat="44.93748" lon="3.52852">
        <ele>1015.77</ele>
        <time>2020-08-21T09:05:47Z</time>
      </trkpt>
      <trkpt lat="44.93744" lon="3.52852">
        <ele>1015.77</ele>
        <time>2020-08-21T09:05:50Z</time>
      </trkpt>
      <trkpt lat="44.93742" lon="3.52851">
        <ele>1015.77</ele>
        <time>2020-08-21T09:05:53Z</time>
      </trkpt>
      <trkpt lat="44.9374" lon="3.52853">
        <ele>1016.25</ele>
        <time>2020-08-21T09:05:55Z</time>
      </trkpt>
      <trkpt lat="44.93724" lon="3.5286">
        <ele>1016.73</ele>
        <time>2020-08-21T09:06:12Z</time>
      </trkpt>
      <trkpt lat="44.93707" lon="3.52865">
        <ele>1017.21</ele>
        <time>2020-08-21T09:06:30Z</time>
      </trkpt>
      <trkpt lat="44.93693" lon="3.52859">
        <ele>1017.69</ele>
        <time>2020-08-21T09:06:45Z</time>
      </trkpt>
      <trkpt lat="44.9368" lon="3.52842">
        <ele>1017.69</ele>
        <time>2020-08-21T09:07:01Z</time>
      </trkpt>
      <trkpt lat="44.93679" lon="3.5284">
        <ele>1017.69</ele>
        <time>2020-08-21T09:07:03Z</time>
      </trkpt>
      <trkpt lat="44.93666" lon="3.52821">
        <ele>1018.17</ele>
        <time>2020-08-21T09:07:19Z</time>
      </trkpt>
      <trkpt lat="44.93663" lon="3.52814">
        <ele>1018.65</ele>
        <time>2020-08-21T09:07:25Z</time>
      </trkpt>
      <trkpt lat="44.93658" lon="3.52808">
        <ele>1018.65</ele>
        <time>2020-08-21T09:07:31Z</time>
      </trkpt>
      <trkpt lat="44.93652" lon="3.52795">
        <ele>1018.65</ele>
        <time>2020-08-21T09:07:41Z</time>
      </trkpt>
      <trkpt lat="44.93646" lon="3.52792">
        <ele>1018.65</ele>
        <time>2020-08-21T09:07:46Z</time>
      </trkpt>
      <trkpt lat="44.93645" lon="3.52789">
        <ele>1018.65</ele>
        <time>2020-08-21T09:07:48Z</time>
      </trkpt>
      <trkpt lat="44.93644" lon="3.52784">
        <ele>1018.65</ele>
        <time>2020-08-21T09:07:52Z</time>
      </trkpt>
      <trkpt lat="44.93638" lon="3.52772">
        <ele>1019.13</ele>
        <time>2020-08-21T09:08:01Z</time>
      </trkpt>
      <trkpt lat="44.93637" lon="3.5277">
        <ele>1019.13</ele>
        <time>2020-08-21T09:08:03Z</time>
      </trkpt>
      <trkpt lat="44.93635" lon="3.52763">
        <ele>1019.13</ele>
        <time>2020-08-21T09:08:07Z</time>
      </trkpt>
      <trkpt lat="44.93628" lon="3.52752">
        <ele>1019.13</ele>
        <time>2020-08-21T09:08:18Z</time>
      </trkpt>
      <trkpt lat="44.93626" lon="3.52744">
        <ele>1019.13</ele>
        <time>2020-08-21T09:08:23Z</time>
      </trkpt>
      <trkpt lat="44.93624" lon="3.52743">
        <ele>1019.13</ele>
        <time>2020-08-21T09:08:25Z</time>
      </trkpt>
      <trkpt lat="44.93622" lon="3.52741">
        <ele>1019.13</ele>
        <time>2020-08-21T09:08:27Z</time>
      </trkpt>
      <trkpt lat="44.9362" lon="3.52735">
        <ele>1019.13</ele>
        <time>2020-08-21T09:08:31Z</time>
      </trkpt>
      <trkpt lat="44.93618" lon="3.52733">
        <ele>1019.13</ele>
        <time>2020-08-21T09:08:34Z</time>
      </trkpt>
      <trkpt lat="44.93617" lon="3.5273">
        <ele>1019.13</ele>
        <time>2020-08-21T09:08:36Z</time>
      </trkpt>
      <trkpt lat="44.93615" lon="3.52725">
        <ele>1019.13</ele>
        <time>2020-08-21T09:08:43Z</time>
      </trkpt>
      <trkpt lat="44.93613" lon="3.52722">
        <ele>1019.13</ele>
        <time>2020-08-21T09:08:46Z</time>
      </trkpt>
      <trkpt lat="44.93612" lon="3.5272">
        <ele>1019.13</ele>
        <time>2020-08-21T09:08:48Z</time>
      </trkpt>
      <trkpt lat="44.93608" lon="3.52711">
        <ele>1019.62</ele>
        <time>2020-08-21T09:08:54Z</time>
      </trkpt>
      <trkpt lat="44.93604" lon="3.52701">
        <ele>1019.62</ele>
        <time>2020-08-21T09:09:01Z</time>
      </trkpt>
      <trkpt lat="44.936" lon="3.52698">
        <ele>1019.62</ele>
        <time>2020-08-21T09:09:05Z</time>
      </trkpt>
      <trkpt lat="44.93594" lon="3.52688">
        <ele>1019.62</ele>
        <time>2020-08-21T09:09:14Z</time>
      </trkpt>
      <trkpt lat="44.93591" lon="3.52682">
        <ele>1019.62</ele>
        <time>2020-08-21T09:09:19Z</time>
      </trkpt>
      <trkpt lat="44.93582" lon="3.52668">
        <ele>1019.62</ele>
        <time>2020-08-21T09:09:35Z</time>
      </trkpt>
      <trkpt lat="44.93579" lon="3.52663">
        <ele>1019.62</ele>
        <time>2020-08-21T09:09:42Z</time>
      </trkpt>
      <trkpt lat="44.93575" lon="3.52655">
        <ele>1019.62</ele>
        <time>2020-08-21T09:09:48Z</time>
      </trkpt>
      <trkpt lat="44.93566" lon="3.52629">
        <ele>1020.58</ele>
        <time>2020-08-21T09:10:07Z</time>
      </trkpt>
      <trkpt lat="44.93561" lon="3.52608">
        <ele>1020.58</ele>
        <time>2020-08-21T09:10:22Z</time>
      </trkpt>
      <trkpt lat="44.93559" lon="3.52596">
        <ele>1020.58</ele>
        <time>2020-08-21T09:10:30Z</time>
      </trkpt>
      <trkpt lat="44.93558" lon="3.52589">
        <ele>1020.58</ele>
        <time>2020-08-21T09:10:35Z</time>
      </trkpt>
      <trkpt lat="44.93553" lon="3.52563">
        <ele>1021.54</ele>
        <time>2020-08-21T09:10:53Z</time>
      </trkpt>
      <trkpt lat="44.93543" lon="3.52539">
        <ele>1022.02</ele>
        <time>2020-08-21T09:11:10Z</time>
      </trkpt>
      <trkpt lat="44.93535" lon="3.52518">
        <ele>1022.5</ele>
        <time>2020-08-21T09:11:26Z</time>
      </trkpt>
      <trkpt lat="44.93525" lon="3.52494">
        <ele>1022.5</ele>
        <time>2020-08-21T09:11:46Z</time>
      </trkpt>
      <trkpt lat="44.93513" lon="3.52475">
        <ele>1020.58</ele>
        <time>2020-08-21T09:12:01Z</time>
      </trkpt>
      <trkpt lat="44.93501" lon="3.5246">
        <ele>1020.58</ele>
        <time>2020-08-21T09:12:16Z</time>
      </trkpt>
      <trkpt lat="44.93486" lon="3.52444">
        <ele>1020.58</ele>
        <time>2020-08-21T09:12:33Z</time>
      </trkpt>
      <trkpt lat="44.93468" lon="3.52438">
        <ele>1020.58</ele>
        <time>2020-08-21T09:12:51Z</time>
      </trkpt>
      <trkpt lat="44.9345" lon="3.52444">
        <ele>1020.1</ele>
        <time>2020-08-21T09:13:08Z</time>
      </trkpt>
      <trkpt lat="44.93429" lon="3.52449">
        <ele>1020.1</ele>
        <time>2020-08-21T09:13:27Z</time>
      </trkpt>
      <trkpt lat="44.93406" lon="3.52452">
        <ele>1020.1</ele>
        <time>2020-08-21T09:13:48Z</time>
      </trkpt>
      <trkpt lat="44.9339" lon="3.5245">
        <ele>1020.1</ele>
        <time>2020-08-21T09:14:04Z</time>
      </trkpt>
      <trkpt lat="44.93369" lon="3.52449">
        <ele>1020.1</ele>
        <time>2020-08-21T09:14:23Z</time>
      </trkpt>
      <trkpt lat="44.93362" lon="3.52449">
        <ele>1020.1</ele>
        <time>2020-08-21T09:14:29Z</time>
      </trkpt>
      <trkpt lat="44.93355" lon="3.52447">
        <ele>1021.54</ele>
        <time>2020-08-21T09:14:46Z</time>
      </trkpt>
      <trkpt lat="44.93355" lon="3.52445">
        <ele>1021.54</ele>
        <time>2020-08-21T09:15:16Z</time>
      </trkpt>
      <trkpt lat="44.9335" lon="3.52446">
        <ele>1021.54</ele>
        <time>2020-08-21T09:15:30Z</time>
      </trkpt>
      <trkpt lat="44.93338" lon="3.52449">
        <ele>1021.54</ele>
        <time>2020-08-21T09:15:42Z</time>
      </trkpt>
      <trkpt lat="44.93326" lon="3.52451">
        <ele>1021.54</ele>
        <time>2020-08-21T09:15:54Z</time>
      </trkpt>
      <trkpt lat="44.93321" lon="3.52449">
        <ele>1021.54</ele>
        <time>2020-08-21T09:16:00Z</time>
      </trkpt>
      <trkpt lat="44.93303" lon="3.52451">
        <ele>1021.54</ele>
        <time>2020-08-21T09:16:17Z</time>
      </trkpt>
      <trkpt lat="44.93285" lon="3.52454">
        <ele>1022.02</ele>
        <time>2020-08-21T09:16:35Z</time>
      </trkpt>
      <trkpt lat="44.93278" lon="3.52455">
        <ele>1022.5</ele>
        <time>2020-08-21T09:16:41Z</time>
      </trkpt>
      <trkpt lat="44.93273" lon="3.52451">
        <ele>1022.5</ele>
        <time>2020-08-21T09:16:46Z</time>
      </trkpt>
      <trkpt lat="44.93265" lon="3.52448">
        <ele>1022.98</ele>
        <time>2020-08-21T09:16:54Z</time>
      </trkpt>
      <trkpt lat="44.93261" lon="3.52446">
        <ele>1023.46</ele>
        <time>2020-08-21T09:16:58Z</time>
      </trkpt>
      <trkpt lat="44.93253" lon="3.52443">
        <ele>1023.94</ele>
        <time>2020-08-21T09:17:06Z</time>
      </trkpt>
      <trkpt lat="44.93241" lon="3.52439">
        <ele>1024.42</ele>
        <time>2020-08-21T09:17:19Z</time>
      </trkpt>
      <trkpt lat="44.93226" lon="3.52432">
        <ele>1025.86</ele>
        <time>2020-08-21T09:17:34Z</time>
      </trkpt>
      <trkpt lat="44.93211" lon="3.52429">
        <ele>1026.83</ele>
        <time>2020-08-21T09:17:50Z</time>
      </trkpt>
      <trkpt lat="44.93197" lon="3.52426">
        <ele>1027.31</ele>
        <time>2020-08-21T09:18:04Z</time>
      </trkpt>
      <trkpt lat="44.9318" lon="3.52421">
        <ele>1027.79</ele>
        <time>2020-08-21T09:18:20Z</time>
      </trkpt>
      <trkpt lat="44.93171" lon="3.52419">
        <ele>1028.75</ele>
        <time>2020-08-21T09:18:30Z</time>
      </trkpt>
      <trkpt lat="44.93157" lon="3.52418">
        <ele>1030.19</ele>
        <time>2020-08-21T09:18:45Z</time>
      </trkpt>
      <trkpt lat="44.93145" lon="3.52416">
        <ele>1031.15</ele>
        <time>2020-08-21T09:18:58Z</time>
      </trkpt>
      <trkpt lat="44.93142" lon="3.52414">
        <ele>1031.63</ele>
        <time>2020-08-21T09:19:03Z</time>
      </trkpt>
      <trkpt lat="44.93132" lon="3.52411">
        <ele>1032.59</ele>
        <time>2020-08-21T09:19:14Z</time>
      </trkpt>
      <trkpt lat="44.93123" lon="3.52406">
        <ele>1033.55</ele>
        <time>2020-08-21T09:19:24Z</time>
      </trkpt>
      <trkpt lat="44.93118" lon="3.52403">
        <ele>1034.52</ele>
        <time>2020-08-21T09:19:30Z</time>
      </trkpt>
      <trkpt lat="44.93111" lon="3.52391">
        <ele>1035.96</ele>
        <time>2020-08-21T09:19:44Z</time>
      </trkpt>
      <trkpt lat="44.93109" lon="3.52387">
        <ele>1035.96</ele>
        <time>2020-08-21T09:19:48Z</time>
      </trkpt>
      <trkpt lat="44.93103" lon="3.5237">
        <ele>1036.92</ele>
        <time>2020-08-21T09:20:02Z</time>
      </trkpt>
      <trkpt lat="44.931" lon="3.52365">
        <ele>1037.4</ele>
        <time>2020-08-21T09:20:06Z</time>
      </trkpt>
      <trkpt lat="44.93095" lon="3.52359">
        <ele>1037.4</ele>
        <time>2020-08-21T09:20:12Z</time>
      </trkpt>
      <trkpt lat="44.93081" lon="3.52342">
        <ele>1037.88</ele>
        <time>2020-08-21T09:20:28Z</time>
      </trkpt>
      <trkpt lat="44.93076" lon="3.52339">
        <ele>1037.88</ele>
        <time>2020-08-21T09:20:34Z</time>
      </trkpt>
      <trkpt lat="44.93072" lon="3.52338">
        <ele>1037.88</ele>
        <time>2020-08-21T09:20:37Z</time>
      </trkpt>
      <trkpt lat="44.93067" lon="3.52336">
        <ele>1037.88</ele>
        <time>2020-08-21T09:20:42Z</time>
      </trkpt>
      <trkpt lat="44.93052" lon="3.52328">
        <ele>1037.88</ele>
        <time>2020-08-21T09:20:59Z</time>
      </trkpt>
      <trkpt lat="44.93043" lon="3.5232">
        <ele>1037.88</ele>
        <time>2020-08-21T09:21:08Z</time>
      </trkpt>
      <trkpt lat="44.93026" lon="3.5231">
        <ele>1037.88</ele>
        <time>2020-08-21T09:21:26Z</time>
      </trkpt>
      <trkpt lat="44.93006" lon="3.52312">
        <ele>1035.96</ele>
        <time>2020-08-21T09:21:46Z</time>
      </trkpt>
      <trkpt lat="44.92999" lon="3.52311">
        <ele>1035.48</ele>
        <time>2020-08-21T09:22:04Z</time>
      </trkpt>
      <trkpt lat="44.92999" lon="3.5231">
        <ele>1035.96</ele>
        <time>2020-08-21T09:22:31Z</time>
      </trkpt>
      <trkpt lat="44.92996" lon="3.5231">
        <ele>1035.96</ele>
        <time>2020-08-21T09:22:57Z</time>
      </trkpt>
      <trkpt lat="44.92996" lon="3.52307">
        <ele>1035.96</ele>
        <time>2020-08-21T09:23:40Z</time>
      </trkpt>
      <trkpt lat="44.92998" lon="3.52309">
        <ele>1036.44</ele>
        <time>2020-08-21T09:24:19Z</time>
      </trkpt>
      <trkpt lat="44.92998" lon="3.52304">
        <ele>1036.44</ele>
        <time>2020-08-21T09:24:54Z</time>
      </trkpt>
      <trkpt lat="44.92997" lon="3.52306">
        <ele>1035.96</ele>
        <time>2020-08-21T09:25:32Z</time>
      </trkpt>
      <trkpt lat="44.93" lon="3.52305">
        <ele>1035.96</ele>
        <time>2020-08-21T09:26:14Z</time>
      </trkpt>
      <trkpt lat="44.93" lon="3.52306">
        <ele>1036.44</ele>
        <time>2020-08-21T09:26:53Z</time>
      </trkpt>
      <trkpt lat="44.92999" lon="3.52307">
        <ele>1037.4</ele>
        <time>2020-08-21T09:27:24Z</time>
      </trkpt>
      <trkpt lat="44.93001" lon="3.52306">
        <ele>1037.88</ele>
        <time>2020-08-21T09:28:06Z</time>
      </trkpt>
      <trkpt lat="44.92999" lon="3.52305">
        <ele>1037.88</ele>
        <time>2020-08-21T09:28:49Z</time>
      </trkpt>
      <trkpt lat="44.92998" lon="3.52307">
        <ele>1038.36</ele>
        <time>2020-08-21T09:29:33Z</time>
      </trkpt>
      <trkpt lat="44.92996" lon="3.52308">
        <ele>1038.84</ele>
        <time>2020-08-21T09:30:13Z</time>
      </trkpt>
      <trkpt lat="44.92999" lon="3.52311">
        <ele>1039.32</ele>
        <time>2020-08-21T09:30:47Z</time>
      </trkpt>
      <trkpt lat="44.92998" lon="3.52312">
        <ele>1038.36</ele>
        <time>2020-08-21T09:30:55Z</time>
      </trkpt>
      <trkpt lat="44.92999" lon="3.52312">
        <ele>1038.36</ele>
        <time>2020-08-21T09:31:30Z</time>
      </trkpt>
      <trkpt lat="44.92999" lon="3.52311">
        <ele>1038.36</ele>
        <time>2020-08-21T09:32:12Z</time>
      </trkpt>
      <trkpt lat="44.92999" lon="3.52308">
        <ele>1038.36</ele>
        <time>2020-08-21T09:32:54Z</time>
      </trkpt>
      <trkpt lat="44.92998" lon="3.5231">
        <ele>1038.36</ele>
        <time>2020-08-21T09:33:26Z</time>
      </trkpt>
      <trkpt lat="44.92998" lon="3.52308">
        <ele>1038.36</ele>
        <time>2020-08-21T09:33:58Z</time>
      </trkpt>
      <trkpt lat="44.93" lon="3.52308">
        <ele>1039.32</ele>
        <time>2020-08-21T09:34:23Z</time>
      </trkpt>
      <trkpt lat="44.92998" lon="3.52311">
        <ele>1039.32</ele>
        <time>2020-08-21T09:34:55Z</time>
      </trkpt>
      <trkpt lat="44.92999" lon="3.52312">
        <ele>1037.88</ele>
        <time>2020-08-21T09:35:25Z</time>
      </trkpt>
      <trkpt lat="44.92997" lon="3.52311">
        <ele>1039.32</ele>
        <time>2020-08-21T09:35:52Z</time>
      </trkpt>
      <trkpt lat="44.92998" lon="3.52311">
        <ele>1039.32</ele>
        <time>2020-08-21T09:36:14Z</time>
      </trkpt>
      <trkpt lat="44.92998" lon="3.5231">
        <ele>1039.32</ele>
        <time>2020-08-21T09:36:40Z</time>
      </trkpt>
      <trkpt lat="44.92991" lon="3.52308">
        <ele>1039.32</ele>
        <time>2020-08-21T09:36:55Z</time>
      </trkpt>
      <trkpt lat="44.92987" lon="3.52309">
        <ele>1039.32</ele>
        <time>2020-08-21T09:36:59Z</time>
      </trkpt>
      <trkpt lat="44.92973" lon="3.52307">
        <ele>1039.32</ele>
        <time>2020-08-21T09:37:14Z</time>
      </trkpt>
      <trkpt lat="44.92958" lon="3.52303">
        <ele>1039.32</ele>
        <time>2020-08-21T09:37:28Z</time>
      </trkpt>
      <trkpt lat="44.92942" lon="3.52293">
        <ele>1039.32</ele>
        <time>2020-08-21T09:37:45Z</time>
      </trkpt>
      <trkpt lat="44.92926" lon="3.52281">
        <ele>1040.28</ele>
        <time>2020-08-21T09:38:02Z</time>
      </trkpt>
      <trkpt lat="44.92916" lon="3.52273">
        <ele>1040.76</ele>
        <time>2020-08-21T09:38:12Z</time>
      </trkpt>
      <trkpt lat="44.92914" lon="3.52271">
        <ele>1040.76</ele>
        <time>2020-08-21T09:38:15Z</time>
      </trkpt>
      <trkpt lat="44.92897" lon="3.52258">
        <ele>1040.76</ele>
        <time>2020-08-21T09:38:32Z</time>
      </trkpt>
      <trkpt lat="44.92879" lon="3.52249">
        <ele>1041.25</ele>
        <time>2020-08-21T09:38:50Z</time>
      </trkpt>
      <trkpt lat="44.92863" lon="3.52239">
        <ele>1041.25</ele>
        <time>2020-08-21T09:39:07Z</time>
      </trkpt>
      <trkpt lat="44.92861" lon="3.52239">
        <ele>1042.69</ele>
        <time>2020-08-21T09:39:09Z</time>
      </trkpt>
      <trkpt lat="44.92848" lon="3.52235">
        <ele>1043.17</ele>
        <time>2020-08-21T09:39:23Z</time>
      </trkpt>
      <trkpt lat="44.92836" lon="3.52235">
        <ele>1043.65</ele>
        <time>2020-08-21T09:39:36Z</time>
      </trkpt>
      <trkpt lat="44.9283" lon="3.52233">
        <ele>1045.09</ele>
        <time>2020-08-21T09:39:43Z</time>
      </trkpt>
      <trkpt lat="44.92822" lon="3.52222">
        <ele>1045.57</ele>
        <time>2020-08-21T09:39:54Z</time>
      </trkpt>
      <trkpt lat="44.92811" lon="3.52203">
        <ele>1047.01</ele>
        <time>2020-08-21T09:40:11Z</time>
      </trkpt>
      <trkpt lat="44.92803" lon="3.52183">
        <ele>1048.45</ele>
        <time>2020-08-21T09:40:27Z</time>
      </trkpt>
      <trkpt lat="44.92792" lon="3.52164">
        <ele>1049.9</ele>
        <time>2020-08-21T09:40:43Z</time>
      </trkpt>
      <trkpt lat="44.92786" lon="3.52155">
        <ele>1049.9</ele>
        <time>2020-08-21T09:40:52Z</time>
      </trkpt>
      <trkpt lat="44.92773" lon="3.52141">
        <ele>1050.38</ele>
        <time>2020-08-21T09:41:09Z</time>
      </trkpt>
      <trkpt lat="44.92766" lon="3.52138">
        <ele>1050.38</ele>
        <time>2020-08-21T09:41:17Z</time>
      </trkpt>
      <trkpt lat="44.92749" lon="3.52128">
        <ele>1052.3</ele>
        <time>2020-08-21T09:41:34Z</time>
      </trkpt>
      <trkpt lat="44.92736" lon="3.5212">
        <ele>1053.26</ele>
        <time>2020-08-21T09:41:49Z</time>
      </trkpt>
      <trkpt lat="44.92723" lon="3.52112">
        <ele>1053.74</ele>
        <time>2020-08-21T09:42:03Z</time>
      </trkpt>
      <trkpt lat="44.92711" lon="3.52105">
        <ele>1055.67</ele>
        <time>2020-08-21T09:42:17Z</time>
      </trkpt>
      <trkpt lat="44.92696" lon="3.52093">
        <ele>1056.63</ele>
        <time>2020-08-21T09:42:34Z</time>
      </trkpt>
      <trkpt lat="44.92685" lon="3.52087">
        <ele>1057.59</ele>
        <time>2020-08-21T09:42:48Z</time>
      </trkpt>
      <trkpt lat="44.92674" lon="3.52081">
        <ele>1059.03</ele>
        <time>2020-08-21T09:43:02Z</time>
      </trkpt>
      <trkpt lat="44.92661" lon="3.52074">
        <ele>1059.51</ele>
        <time>2020-08-21T09:43:18Z</time>
      </trkpt>
      <trkpt lat="44.92654" lon="3.52067">
        <ele>1059.99</ele>
        <time>2020-08-21T09:43:30Z</time>
      </trkpt>
      <trkpt lat="44.92643" lon="3.52052">
        <ele>1060.95</ele>
        <time>2020-08-21T09:43:45Z</time>
      </trkpt>
      <trkpt lat="44.92639" lon="3.52044">
        <ele>1060.95</ele>
        <time>2020-08-21T09:43:49Z</time>
      </trkpt>
      <trkpt lat="44.92631" lon="3.52026">
        <ele>1062.39</ele>
        <time>2020-08-21T09:44:04Z</time>
      </trkpt>
      <trkpt lat="44.9262" lon="3.52007">
        <ele>1062.39</ele>
        <time>2020-08-21T09:44:19Z</time>
      </trkpt>
      <trkpt lat="44.92607" lon="3.51982">
        <ele>1063.36</ele>
        <time>2020-08-21T09:44:37Z</time>
      </trkpt>
      <trkpt lat="44.92598" lon="3.51968">
        <ele>1063.84</ele>
        <time>2020-08-21T09:44:52Z</time>
      </trkpt>
      <trkpt lat="44.92589" lon="3.51959">
        <ele>1064.8</ele>
        <time>2020-08-21T09:45:07Z</time>
      </trkpt>
      <trkpt lat="44.92581" lon="3.5195">
        <ele>1065.28</ele>
        <time>2020-08-21T09:45:20Z</time>
      </trkpt>
      <trkpt lat="44.92571" lon="3.5194">
        <ele>1066.72</ele>
        <time>2020-08-21T09:45:35Z</time>
      </trkpt>
      <trkpt lat="44.92555" lon="3.51925">
        <ele>1067.2</ele>
        <time>2020-08-21T09:45:51Z</time>
      </trkpt>
      <trkpt lat="44.92544" lon="3.51914">
        <ele>1066.72</ele>
        <time>2020-08-21T09:46:02Z</time>
      </trkpt>
      <trkpt lat="44.92534" lon="3.51901">
        <ele>1066.72</ele>
        <time>2020-08-21T09:46:14Z</time>
      </trkpt>
      <trkpt lat="44.92524" lon="3.5189">
        <ele>1067.68</ele>
        <time>2020-08-21T09:46:27Z</time>
      </trkpt>
      <trkpt lat="44.92515" lon="3.51876">
        <ele>1068.16</ele>
        <time>2020-08-21T09:46:41Z</time>
      </trkpt>
      <trkpt lat="44.92504" lon="3.5186">
        <ele>1068.64</ele>
        <time>2020-08-21T09:46:56Z</time>
      </trkpt>
      <trkpt lat="44.92489" lon="3.5184">
        <ele>1069.12</ele>
        <time>2020-08-21T09:47:13Z</time>
      </trkpt>
      <trkpt lat="44.92488" lon="3.51838">
        <ele>1067.68</ele>
        <time>2020-08-21T09:47:15Z</time>
      </trkpt>
      <trkpt lat="44.92483" lon="3.5183">
        <ele>1069.12</ele>
        <time>2020-08-21T09:47:22Z</time>
      </trkpt>
      <trkpt lat="44.9247" lon="3.51813">
        <ele>1069.12</ele>
        <time>2020-08-21T09:47:39Z</time>
      </trkpt>
      <trkpt lat="44.92462" lon="3.51807">
        <ele>1069.12</ele>
        <time>2020-08-21T09:47:54Z</time>
      </trkpt>
      <trkpt lat="44.92455" lon="3.51793">
        <ele>1068.64</ele>
        <time>2020-08-21T09:48:20Z</time>
      </trkpt>
      <trkpt lat="44.92444" lon="3.51776">
        <ele>1067.68</ele>
        <time>2020-08-21T09:48:37Z</time>
      </trkpt>
      <trkpt lat="44.92436" lon="3.51761">
        <ele>1066.72</ele>
        <time>2020-08-21T09:48:51Z</time>
      </trkpt>
      <trkpt lat="44.92426" lon="3.51743">
        <ele>1066.24</ele>
        <time>2020-08-21T09:49:03Z</time>
      </trkpt>
      <trkpt lat="44.92415" lon="3.51724">
        <ele>1066.24</ele>
        <time>2020-08-21T09:49:19Z</time>
      </trkpt>
      <trkpt lat="44.92403" lon="3.51703">
        <ele>1065.28</ele>
        <time>2020-08-21T09:49:36Z</time>
      </trkpt>
      <trkpt lat="44.92396" lon="3.51683">
        <ele>1064.32</ele>
        <time>2020-08-21T09:49:52Z</time>
      </trkpt>
      <trkpt lat="44.9239" lon="3.51669">
        <ele>1063.84</ele>
        <time>2020-08-21T09:50:03Z</time>
      </trkpt>
      <trkpt lat="44.92373" lon="3.51657">
        <ele>1063.84</ele>
        <time>2020-08-21T09:50:19Z</time>
      </trkpt>
      <trkpt lat="44.92356" lon="3.51647">
        <ele>1063.36</ele>
        <time>2020-08-21T09:50:33Z</time>
      </trkpt>
      <trkpt lat="44.92351" lon="3.51642">
        <ele>1063.36</ele>
        <time>2020-08-21T09:50:39Z</time>
      </trkpt>
      <trkpt lat="44.9234" lon="3.51632">
        <ele>1060.95</ele>
        <time>2020-08-21T09:50:53Z</time>
      </trkpt>
      <trkpt lat="44.92339" lon="3.51631">
        <ele>1060.95</ele>
        <time>2020-08-21T09:50:54Z</time>
      </trkpt>
      <trkpt lat="44.92336" lon="3.51627">
        <ele>1062.39</ele>
        <time>2020-08-21T09:50:58Z</time>
      </trkpt>
      <trkpt lat="44.92328" lon="3.5161">
        <ele>1061.43</ele>
        <time>2020-08-21T09:51:13Z</time>
      </trkpt>
      <trkpt lat="44.9232" lon="3.51595">
        <ele>1060.47</ele>
        <time>2020-08-21T09:51:27Z</time>
      </trkpt>
      <trkpt lat="44.92311" lon="3.51576">
        <ele>1059.51</ele>
        <time>2020-08-21T09:51:41Z</time>
      </trkpt>
      <trkpt lat="44.92305" lon="3.51559">
        <ele>1059.51</ele>
        <time>2020-08-21T09:51:55Z</time>
      </trkpt>
      <trkpt lat="44.92299" lon="3.51543">
        <ele>1057.11</ele>
        <time>2020-08-21T09:52:06Z</time>
      </trkpt>
      <trkpt lat="44.92296" lon="3.51534">
        <ele>1058.55</ele>
        <time>2020-08-21T09:52:11Z</time>
      </trkpt>
      <trkpt lat="44.92294" lon="3.51529">
        <ele>1057.59</ele>
        <time>2020-08-21T09:52:15Z</time>
      </trkpt>
      <trkpt lat="44.92284" lon="3.51506">
        <ele>1056.63</ele>
        <time>2020-08-21T09:52:33Z</time>
      </trkpt>
      <trkpt lat="44.92272" lon="3.51487">
        <ele>1054.22</ele>
        <time>2020-08-21T09:52:48Z</time>
      </trkpt>
      <trkpt lat="44.92268" lon="3.51476">
        <ele>1056.63</ele>
        <time>2020-08-21T09:52:54Z</time>
      </trkpt>
      <trkpt lat="44.92256" lon="3.51451">
        <ele>1054.7</ele>
        <time>2020-08-21T09:53:13Z</time>
      </trkpt>
      <trkpt lat="44.92246" lon="3.51426">
        <ele>1053.26</ele>
        <time>2020-08-21T09:53:32Z</time>
      </trkpt>
      <trkpt lat="44.92244" lon="3.51421">
        <ele>1054.7</ele>
        <time>2020-08-21T09:53:36Z</time>
      </trkpt>
      <trkpt lat="44.9224" lon="3.51413">
        <ele>1054.7</ele>
        <time>2020-08-21T09:53:43Z</time>
      </trkpt>
      <trkpt lat="44.92234" lon="3.51394">
        <ele>1054.7</ele>
        <time>2020-08-21T09:53:56Z</time>
      </trkpt>
      <trkpt lat="44.92233" lon="3.51391">
        <ele>1054.7</ele>
        <time>2020-08-21T09:53:58Z</time>
      </trkpt>
      <trkpt lat="44.92229" lon="3.51377">
        <ele>1053.26</ele>
        <time>2020-08-21T09:54:11Z</time>
      </trkpt>
      <trkpt lat="44.92221" lon="3.5135">
        <ele>1053.26</ele>
        <time>2020-08-21T09:54:27Z</time>
      </trkpt>
      <trkpt lat="44.92217" lon="3.51328">
        <ele>1053.26</ele>
        <time>2020-08-21T09:54:42Z</time>
      </trkpt>
      <trkpt lat="44.92215" lon="3.51311">
        <ele>1053.26</ele>
        <time>2020-08-21T09:54:57Z</time>
      </trkpt>
      <trkpt lat="44.92211" lon="3.51289">
        <ele>1052.78</ele>
        <time>2020-08-21T09:55:12Z</time>
      </trkpt>
      <trkpt lat="44.92208" lon="3.51269">
        <ele>1052.78</ele>
        <time>2020-08-21T09:55:27Z</time>
      </trkpt>
      <trkpt lat="44.92204" lon="3.51252">
        <ele>1052.78</ele>
        <time>2020-08-21T09:55:43Z</time>
      </trkpt>
      <trkpt lat="44.922" lon="3.51233">
        <ele>1053.26</ele>
        <time>2020-08-21T09:55:57Z</time>
      </trkpt>
      <trkpt lat="44.92193" lon="3.51205">
        <ele>1053.74</ele>
        <time>2020-08-21T09:56:13Z</time>
      </trkpt>
      <trkpt lat="44.9219" lon="3.5119">
        <ele>1053.26</ele>
        <time>2020-08-21T09:56:23Z</time>
      </trkpt>
      <trkpt lat="44.92183" lon="3.51169">
        <ele>1054.22</ele>
        <time>2020-08-21T09:56:36Z</time>
      </trkpt>
      <trkpt lat="44.92172" lon="3.51141">
        <ele>1054.7</ele>
        <time>2020-08-21T09:56:50Z</time>
      </trkpt>
      <trkpt lat="44.9217" lon="3.51128">
        <ele>1055.18</ele>
        <time>2020-08-21T09:57:03Z</time>
      </trkpt>
      <trkpt lat="44.92164" lon="3.51109">
        <ele>1055.67</ele>
        <time>2020-08-21T09:57:16Z</time>
      </trkpt>
      <trkpt lat="44.92162" lon="3.51097">
        <ele>1056.15</ele>
        <time>2020-08-21T09:57:28Z</time>
      </trkpt>
      <trkpt lat="44.92159" lon="3.5108">
        <ele>1057.11</ele>
        <time>2020-08-21T09:57:42Z</time>
      </trkpt>
      <trkpt lat="44.92153" lon="3.51061">
        <ele>1058.07</ele>
        <time>2020-08-21T09:57:56Z</time>
      </trkpt>
      <trkpt lat="44.92147" lon="3.5104">
        <ele>1058.55</ele>
        <time>2020-08-21T09:58:11Z</time>
      </trkpt>
      <trkpt lat="44.92146" lon="3.51038">
        <ele>1057.11</ele>
        <time>2020-08-21T09:58:13Z</time>
      </trkpt>
      <trkpt lat="44.92145" lon="3.51032">
        <ele>1058.07</ele>
        <time>2020-08-21T09:58:18Z</time>
      </trkpt>
      <trkpt lat="44.92137" lon="3.51011">
        <ele>1059.03</ele>
        <time>2020-08-21T09:58:35Z</time>
      </trkpt>
      <trkpt lat="44.92135" lon="3.51008">
        <ele>1057.59</ele>
        <time>2020-08-21T09:58:38Z</time>
      </trkpt>
      <trkpt lat="44.92129" lon="3.50991">
        <ele>1056.63</ele>
        <time>2020-08-21T09:58:53Z</time>
      </trkpt>
      <trkpt lat="44.9212" lon="3.5097">
        <ele>1055.67</ele>
        <time>2020-08-21T09:59:10Z</time>
      </trkpt>
      <trkpt lat="44.92113" lon="3.50955">
        <ele>1056.63</ele>
        <time>2020-08-21T09:59:22Z</time>
      </trkpt>
      <trkpt lat="44.92104" lon="3.50938">
        <ele>1055.18</ele>
        <time>2020-08-21T09:59:36Z</time>
      </trkpt>
      <trkpt lat="44.921" lon="3.50932">
        <ele>1055.18</ele>
        <time>2020-08-21T09:59:41Z</time>
      </trkpt>
      <trkpt lat="44.92085" lon="3.50903">
        <ele>1053.74</ele>
        <time>2020-08-21T10:00:01Z</time>
      </trkpt>
      <trkpt lat="44.92076" lon="3.50878">
        <ele>1052.3</ele>
        <time>2020-08-21T10:00:19Z</time>
      </trkpt>
      <trkpt lat="44.92074" lon="3.50874">
        <ele>1053.74</ele>
        <time>2020-08-21T10:00:23Z</time>
      </trkpt>
      <trkpt lat="44.92068" lon="3.5086">
        <ele>1052.3</ele>
        <time>2020-08-21T10:00:36Z</time>
      </trkpt>
      <trkpt lat="44.92063" lon="3.50844">
        <ele>1051.82</ele>
        <time>2020-08-21T10:00:51Z</time>
      </trkpt>
      <trkpt lat="44.92056" lon="3.50825">
        <ele>1051.34</ele>
        <time>2020-08-21T10:01:06Z</time>
      </trkpt>
      <trkpt lat="44.92049" lon="3.50801">
        <ele>1049.9</ele>
        <time>2020-08-21T10:01:24Z</time>
      </trkpt>
      <trkpt lat="44.9204" lon="3.50785">
        <ele>1048.94</ele>
        <time>2020-08-21T10:01:41Z</time>
      </trkpt>
      <trkpt lat="44.92039" lon="3.50783">
        <ele>1048.94</ele>
        <time>2020-08-21T10:02:02Z</time>
      </trkpt>
      <trkpt lat="44.92032" lon="3.50767">
        <ele>1046.53</ele>
        <time>2020-08-21T10:02:19Z</time>
      </trkpt>
      <trkpt lat="44.92031" lon="3.50765">
        <ele>1046.05</ele>
        <time>2020-08-21T10:02:21Z</time>
      </trkpt>
      <trkpt lat="44.92031" lon="3.50764">
        <ele>1046.05</ele>
        <time>2020-08-21T10:02:31Z</time>
      </trkpt>
      <trkpt lat="44.92029" lon="3.50761">
        <ele>1047.49</ele>
        <time>2020-08-21T10:02:35Z</time>
      </trkpt>
      <trkpt lat="44.92021" lon="3.50743">
        <ele>1046.05</ele>
        <time>2020-08-21T10:02:51Z</time>
      </trkpt>
      <trkpt lat="44.92013" lon="3.50718">
        <ele>1044.13</ele>
        <time>2020-08-21T10:03:09Z</time>
      </trkpt>
      <trkpt lat="44.92005" lon="3.50698">
        <ele>1043.65</ele>
        <time>2020-08-21T10:03:26Z</time>
      </trkpt>
      <trkpt lat="44.91996" lon="3.50678">
        <ele>1042.69</ele>
        <time>2020-08-21T10:03:44Z</time>
      </trkpt>
      <trkpt lat="44.91982" lon="3.5066">
        <ele>1043.17</ele>
        <time>2020-08-21T10:04:02Z</time>
      </trkpt>
      <trkpt lat="44.91981" lon="3.50655">
        <ele>1042.21</ele>
        <time>2020-08-21T10:04:07Z</time>
      </trkpt>
      <trkpt lat="44.91974" lon="3.50643">
        <ele>1042.21</ele>
        <time>2020-08-21T10:04:22Z</time>
      </trkpt>
      <trkpt lat="44.91962" lon="3.50632">
        <ele>1040.76</ele>
        <time>2020-08-21T10:04:37Z</time>
      </trkpt>
      <trkpt lat="44.91953" lon="3.50625">
        <ele>1040.76</ele>
        <time>2020-08-21T10:04:46Z</time>
      </trkpt>
      <trkpt lat="44.91938" lon="3.50609">
        <ele>1040.76</ele>
        <time>2020-08-21T10:05:01Z</time>
      </trkpt>
      <trkpt lat="44.91925" lon="3.50585">
        <ele>1038.36</ele>
        <time>2020-08-21T10:05:20Z</time>
      </trkpt>
      <trkpt lat="44.91919" lon="3.50563">
        <ele>1037.4</ele>
        <time>2020-08-21T10:05:36Z</time>
      </trkpt>
      <trkpt lat="44.91913" lon="3.50545">
        <ele>1036.92</ele>
        <time>2020-08-21T10:05:49Z</time>
      </trkpt>
      <trkpt lat="44.91907" lon="3.50521">
        <ele>1035.96</ele>
        <time>2020-08-21T10:06:05Z</time>
      </trkpt>
      <trkpt lat="44.91898" lon="3.505">
        <ele>1035.48</ele>
        <time>2020-08-21T10:06:19Z</time>
      </trkpt>
      <trkpt lat="44.91885" lon="3.50488">
        <ele>1035.48</ele>
        <time>2020-08-21T10:06:34Z</time>
      </trkpt>
      <trkpt lat="44.91873" lon="3.50482">
        <ele>1035.48</ele>
        <time>2020-08-21T10:06:52Z</time>
      </trkpt>
      <trkpt lat="44.91863" lon="3.50483">
        <ele>1036.92</ele>
        <time>2020-08-21T10:07:05Z</time>
      </trkpt>
      <trkpt lat="44.91849" lon="3.50485">
        <ele>1037.4</ele>
        <time>2020-08-21T10:07:19Z</time>
      </trkpt>
      <trkpt lat="44.91838" lon="3.5049">
        <ele>1038.36</ele>
        <time>2020-08-21T10:07:31Z</time>
      </trkpt>
      <trkpt lat="44.91835" lon="3.50498">
        <ele>1038.84</ele>
        <time>2020-08-21T10:07:43Z</time>
      </trkpt>
      <trkpt lat="44.9183" lon="3.50507">
        <ele>1040.28</ele>
        <time>2020-08-21T10:07:55Z</time>
      </trkpt>
      <trkpt lat="44.91834" lon="3.50516">
        <ele>1040.76</ele>
        <time>2020-08-21T10:08:09Z</time>
      </trkpt>
      <trkpt lat="44.91833" lon="3.50514">
        <ele>1040.76</ele>
        <time>2020-08-21T10:08:29Z</time>
      </trkpt>
      <trkpt lat="44.91831" lon="3.50511">
        <ele>1040.76</ele>
        <time>2020-08-21T10:08:51Z</time>
      </trkpt>
      <trkpt lat="44.91832" lon="3.50513">
        <ele>1041.25</ele>
        <time>2020-08-21T10:09:10Z</time>
      </trkpt>
      <trkpt lat="44.91833" lon="3.50509">
        <ele>1041.73</ele>
        <time>2020-08-21T10:09:27Z</time>
      </trkpt>
      <trkpt lat="44.91833" lon="3.50507">
        <ele>1040.28</ele>
        <time>2020-08-21T10:09:46Z</time>
      </trkpt>
      <trkpt lat="44.91846" lon="3.5051">
        <ele>1040.28</ele>
        <time>2020-08-21T10:10:14Z</time>
      </trkpt>
      <trkpt lat="44.91835" lon="3.50506">
        <ele>1040.28</ele>
        <time>2020-08-21T10:10:48Z</time>
      </trkpt>
      <trkpt lat="44.91838" lon="3.50509">
        <ele>1040.28</ele>
        <time>2020-08-21T10:11:27Z</time>
      </trkpt>
      <trkpt lat="44.91837" lon="3.50505">
        <ele>1040.76</ele>
        <time>2020-08-21T10:12:04Z</time>
      </trkpt>
      <trkpt lat="44.91842" lon="3.50506">
        <ele>1040.76</ele>
        <time>2020-08-21T10:12:34Z</time>
      </trkpt>
      <trkpt lat="44.91837" lon="3.50505">
        <ele>1041.25</ele>
        <time>2020-08-21T10:13:09Z</time>
      </trkpt>
      <trkpt lat="44.91836" lon="3.50505">
        <ele>1042.21</ele>
        <time>2020-08-21T10:13:32Z</time>
      </trkpt>
      <trkpt lat="44.91833" lon="3.50504">
        <ele>1042.69</ele>
        <time>2020-08-21T10:14:11Z</time>
      </trkpt>
      <trkpt lat="44.91833" lon="3.50501">
        <ele>1042.69</ele>
        <time>2020-08-21T10:14:52Z</time>
      </trkpt>
      <trkpt lat="44.91835" lon="3.50497">
        <ele>1043.17</ele>
        <time>2020-08-21T10:15:29Z</time>
      </trkpt>
      <trkpt lat="44.91833" lon="3.50505">
        <ele>1044.13</ele>
        <time>2020-08-21T10:16:13Z</time>
      </trkpt>
      <trkpt lat="44.91833" lon="3.50503">
        <ele>1044.13</ele>
        <time>2020-08-21T10:16:51Z</time>
      </trkpt>
      <trkpt lat="44.91833" lon="3.50506">
        <ele>1044.13</ele>
        <time>2020-08-21T10:17:30Z</time>
      </trkpt>
      <trkpt lat="44.91835" lon="3.50503">
        <ele>1044.61</ele>
        <time>2020-08-21T10:18:02Z</time>
      </trkpt>
      <trkpt lat="44.91832" lon="3.505">
        <ele>1044.61</ele>
        <time>2020-08-21T10:18:40Z</time>
      </trkpt>
      <trkpt lat="44.91834" lon="3.50502">
        <ele>1045.09</ele>
        <time>2020-08-21T10:19:13Z</time>
      </trkpt>
      <trkpt lat="44.91837" lon="3.50501">
        <ele>1045.09</ele>
        <time>2020-08-21T10:19:45Z</time>
      </trkpt>
      <trkpt lat="44.91835" lon="3.50501">
        <ele>1045.09</ele>
        <time>2020-08-21T10:20:11Z</time>
      </trkpt>
      <trkpt lat="44.91837" lon="3.50501">
        <ele>1046.05</ele>
        <time>2020-08-21T10:20:47Z</time>
      </trkpt>
      <trkpt lat="44.91836" lon="3.50502">
        <ele>1046.05</ele>
        <time>2020-08-21T10:21:20Z</time>
      </trkpt>
      <trkpt lat="44.91832" lon="3.50503">
        <ele>1046.53</ele>
        <time>2020-08-21T10:21:42Z</time>
      </trkpt>
      <trkpt lat="44.91831" lon="3.505">
        <ele>1046.53</ele>
        <time>2020-08-21T10:22:22Z</time>
      </trkpt>
      <trkpt lat="44.91832" lon="3.50498">
        <ele>1045.09</ele>
        <time>2020-08-21T10:22:48Z</time>
      </trkpt>
      <trkpt lat="44.91829" lon="3.50497">
        <ele>1046.53</ele>
        <time>2020-08-21T10:23:07Z</time>
      </trkpt>
      <trkpt lat="44.91823" lon="3.505">
        <ele>1046.53</ele>
        <time>2020-08-21T10:23:31Z</time>
      </trkpt>
      <trkpt lat="44.91829" lon="3.50501">
        <ele>1047.49</ele>
        <time>2020-08-21T10:23:54Z</time>
      </trkpt>
      <trkpt lat="44.9183" lon="3.50502">
        <ele>1046.53</ele>
        <time>2020-08-21T10:23:56Z</time>
      </trkpt>
      <trkpt lat="44.9183" lon="3.50503">
        <ele>1046.05</ele>
        <time>2020-08-21T10:24:17Z</time>
      </trkpt>
      <trkpt lat="44.91832" lon="3.50502">
        <ele>1046.05</ele>
        <time>2020-08-21T10:24:42Z</time>
      </trkpt>
      <trkpt lat="44.91832" lon="3.505">
        <ele>1046.53</ele>
        <time>2020-08-21T10:25:03Z</time>
      </trkpt>
      <trkpt lat="44.91832" lon="3.505">
        <ele>1046.53</ele>
        <time>2020-08-21T10:25:22Z</time>
      </trkpt>
      <trkpt lat="44.91833" lon="3.50504">
        <ele>1046.53</ele>
        <time>2020-08-21T10:25:40Z</time>
      </trkpt>
      <trkpt lat="44.91831" lon="3.50505">
        <ele>1046.53</ele>
        <time>2020-08-21T10:25:55Z</time>
      </trkpt>
      <trkpt lat="44.91829" lon="3.50506">
        <ele>1046.05</ele>
        <time>2020-08-21T10:26:31Z</time>
      </trkpt>
      <trkpt lat="44.91832" lon="3.50506">
        <ele>1046.53</ele>
        <time>2020-08-21T10:27:05Z</time>
      </trkpt>
      <trkpt lat="44.91834" lon="3.50516">
        <ele>1046.53</ele>
        <time>2020-08-21T10:27:22Z</time>
      </trkpt>
      <trkpt lat="44.91835" lon="3.50513">
        <ele>1046.53</ele>
        <time>2020-08-21T10:27:49Z</time>
      </trkpt>
      <trkpt lat="44.91834" lon="3.50516">
        <ele>1046.53</ele>
        <time>2020-08-21T10:28:20Z</time>
      </trkpt>
      <trkpt lat="44.91834" lon="3.50512">
        <ele>1046.53</ele>
        <time>2020-08-21T10:28:41Z</time>
      </trkpt>
      <trkpt lat="44.91832" lon="3.50508">
        <ele>1046.53</ele>
        <time>2020-08-21T10:28:57Z</time>
      </trkpt>
      <trkpt lat="44.91827" lon="3.505">
        <ele>1046.53</ele>
        <time>2020-08-21T10:29:36Z</time>
      </trkpt>
      <trkpt lat="44.91827" lon="3.50505">
        <ele>1046.05</ele>
        <time>2020-08-21T10:30:10Z</time>
      </trkpt>
      <trkpt lat="44.91827" lon="3.50508">
        <ele>1046.53</ele>
        <time>2020-08-21T10:30:48Z</time>
      </trkpt>
      <trkpt lat="44.91827" lon="3.50505">
        <ele>1046.53</ele>
        <time>2020-08-21T10:31:29Z</time>
      </trkpt>
      <trkpt lat="44.91829" lon="3.50501">
        <ele>1046.53</ele>
        <time>2020-08-21T10:32:10Z</time>
      </trkpt>
      <trkpt lat="44.91827" lon="3.50502">
        <ele>1046.53</ele>
        <time>2020-08-21T10:32:54Z</time>
      </trkpt>
      <trkpt lat="44.91828" lon="3.50504">
        <ele>1047.01</ele>
        <time>2020-08-21T10:33:35Z</time>
      </trkpt>
      <trkpt lat="44.91827" lon="3.50495">
        <ele>1047.01</ele>
        <time>2020-08-21T10:34:09Z</time>
      </trkpt>
      <trkpt lat="44.91823" lon="3.50501">
        <ele>1047.49</ele>
        <time>2020-08-21T10:34:48Z</time>
      </trkpt>
      <trkpt lat="44.91829" lon="3.50495">
        <ele>1047.49</ele>
        <time>2020-08-21T10:35:27Z</time>
      </trkpt>
      <trkpt lat="44.91826" lon="3.50493">
        <ele>1047.97</ele>
        <time>2020-08-21T10:36:00Z</time>
      </trkpt>
      <trkpt lat="44.91828" lon="3.50495">
        <ele>1047.97</ele>
        <time>2020-08-21T10:36:44Z</time>
      </trkpt>
      <trkpt lat="44.91829" lon="3.50495">
        <ele>1047.97</ele>
        <time>2020-08-21T10:37:27Z</time>
      </trkpt>
      <trkpt lat="44.9183" lon="3.50497">
        <ele>1047.97</ele>
        <time>2020-08-21T10:38:00Z</time>
      </trkpt>
      <trkpt lat="44.91828" lon="3.505">
        <ele>1047.97</ele>
        <time>2020-08-21T10:38:36Z</time>
      </trkpt>
      <trkpt lat="44.91832" lon="3.50497">
        <ele>1047.97</ele>
        <time>2020-08-21T10:39:13Z</time>
      </trkpt>
      <trkpt lat="44.91835" lon="3.50499">
        <ele>1049.9</ele>
        <time>2020-08-21T10:39:50Z</time>
      </trkpt>
      <trkpt lat="44.9183" lon="3.50501">
        <ele>1048.94</ele>
        <time>2020-08-21T10:40:23Z</time>
      </trkpt>
      <trkpt lat="44.91832" lon="3.50501">
        <ele>1048.45</ele>
        <time>2020-08-21T10:41:04Z</time>
      </trkpt>
      <trkpt lat="44.9183" lon="3.50501">
        <ele>1048.45</ele>
        <time>2020-08-21T10:41:36Z</time>
      </trkpt>
      <trkpt lat="44.9183" lon="3.50499">
        <ele>1048.94</ele>
        <time>2020-08-21T10:42:14Z</time>
      </trkpt>
      <trkpt lat="44.9183" lon="3.50495">
        <ele>1049.9</ele>
        <time>2020-08-21T10:42:50Z</time>
      </trkpt>
      <trkpt lat="44.9183" lon="3.505">
        <ele>1050.38</ele>
        <time>2020-08-21T10:43:25Z</time>
      </trkpt>
      <trkpt lat="44.91833" lon="3.50498">
        <ele>1050.38</ele>
        <time>2020-08-21T10:44:10Z</time>
      </trkpt>
      <trkpt lat="44.91832" lon="3.50501">
        <ele>1050.38</ele>
        <time>2020-08-21T10:44:55Z</time>
      </trkpt>
      <trkpt lat="44.91831" lon="3.50501">
        <ele>1049.9</ele>
        <time>2020-08-21T10:45:28Z</time>
      </trkpt>
      <trkpt lat="44.91831" lon="3.50497">
        <ele>1048.45</ele>
        <time>2020-08-21T10:45:56Z</time>
      </trkpt>
      <trkpt lat="44.91831" lon="3.50498">
        <ele>1048.45</ele>
        <time>2020-08-21T10:46:27Z</time>
      </trkpt>
      <trkpt lat="44.91828" lon="3.505">
        <ele>1049.42</ele>
        <time>2020-08-21T10:47:02Z</time>
      </trkpt>
      <trkpt lat="44.91827" lon="3.50497">
        <ele>1049.42</ele>
        <time>2020-08-21T10:47:35Z</time>
      </trkpt>
      <trkpt lat="44.91829" lon="3.50494">
        <ele>1049.9</ele>
        <time>2020-08-21T10:48:06Z</time>
      </trkpt>
      <trkpt lat="44.9183" lon="3.50496">
        <ele>1049.9</ele>
        <time>2020-08-21T10:48:43Z</time>
      </trkpt>
      <trkpt lat="44.91833" lon="3.50498">
        <ele>1049.9</ele>
        <time>2020-08-21T10:49:23Z</time>
      </trkpt>
      <trkpt lat="44.91833" lon="3.50498">
        <ele>1049.9</ele>
        <time>2020-08-21T10:50:06Z</time>
      </trkpt>
      <trkpt lat="44.91834" lon="3.50499">
        <ele>1049.9</ele>
        <time>2020-08-21T10:50:45Z</time>
      </trkpt>
      <trkpt lat="44.91834" lon="3.50496">
        <ele>1049.9</ele>
        <time>2020-08-21T10:51:20Z</time>
      </trkpt>
      <trkpt lat="44.9183" lon="3.50503">
        <ele>1049.9</ele>
        <time>2020-08-21T10:51:48Z</time>
      </trkpt>
      <trkpt lat="44.91831" lon="3.50503">
        <ele>1049.9</ele>
        <time>2020-08-21T10:52:29Z</time>
      </trkpt>
      <trkpt lat="44.9183" lon="3.50501">
        <ele>1049.9</ele>
        <time>2020-08-21T10:53:06Z</time>
      </trkpt>
      <trkpt lat="44.9183" lon="3.50498">
        <ele>1049.9</ele>
        <time>2020-08-21T10:53:52Z</time>
      </trkpt>
      <trkpt lat="44.91827" lon="3.50497">
        <ele>1050.38</ele>
        <time>2020-08-21T10:54:36Z</time>
      </trkpt>
      <trkpt lat="44.91831" lon="3.50498">
        <ele>1050.38</ele>
        <time>2020-08-21T10:55:11Z</time>
      </trkpt>
      <trkpt lat="44.91833" lon="3.50499">
        <ele>1050.38</ele>
        <time>2020-08-21T10:55:44Z</time>
      </trkpt>
      <trkpt lat="44.91832" lon="3.505">
        <ele>1050.38</ele>
        <time>2020-08-21T10:56:16Z</time>
      </trkpt>
      <trkpt lat="44.91832" lon="3.50498">
        <ele>1051.34</ele>
        <time>2020-08-21T10:56:51Z</time>
      </trkpt>
      <trkpt lat="44.91831" lon="3.50504">
        <ele>1050.38</ele>
        <time>2020-08-21T10:57:33Z</time>
      </trkpt>
      <trkpt lat="44.91829" lon="3.50498">
        <ele>1050.38</ele>
        <time>2020-08-21T10:58:10Z</time>
      </trkpt>
      <trkpt lat="44.91828" lon="3.50505">
        <ele>1050.38</ele>
        <time>2020-08-21T10:58:50Z</time>
      </trkpt>
      <trkpt lat="44.91836" lon="3.50512">
        <ele>1049.9</ele>
        <time>2020-08-21T10:59:23Z</time>
      </trkpt>
      <trkpt lat="44.91837" lon="3.50513">
        <ele>1049.9</ele>
        <time>2020-08-21T10:59:35Z</time>
      </trkpt>
      <trkpt lat="44.91834" lon="3.50511">
        <ele>1049.9</ele>
        <time>2020-08-21T10:59:48Z</time>
      </trkpt>
      <trkpt lat="44.91833" lon="3.50508">
        <ele>1049.9</ele>
        <time>2020-08-21T11:00:05Z</time>
      </trkpt>
      <trkpt lat="44.91835" lon="3.50507">
        <ele>1049.9</ele>
        <time>2020-08-21T11:00:30Z</time>
      </trkpt>
      <trkpt lat="44.91836" lon="3.50511">
        <ele>1049.9</ele>
        <time>2020-08-21T11:01:03Z</time>
      </trkpt>
      <trkpt lat="44.91834" lon="3.50509">
        <ele>1049.42</ele>
        <time>2020-08-21T11:01:34Z</time>
      </trkpt>
      <trkpt lat="44.9184" lon="3.50507">
        <ele>1049.42</ele>
        <time>2020-08-21T11:02:02Z</time>
      </trkpt>
      <trkpt lat="44.91839" lon="3.50507">
        <ele>1049.42</ele>
        <time>2020-08-21T11:02:42Z</time>
      </trkpt>
      <trkpt lat="44.91837" lon="3.50507">
        <ele>1049.42</ele>
        <time>2020-08-21T11:03:10Z</time>
      </trkpt>
      <trkpt lat="44.91833" lon="3.50505">
        <ele>1050.38</ele>
        <time>2020-08-21T11:03:47Z</time>
      </trkpt>
      <trkpt lat="44.91836" lon="3.50509">
        <ele>1050.38</ele>
        <time>2020-08-21T11:04:15Z</time>
      </trkpt>
      <trkpt lat="44.91832" lon="3.50506">
        <ele>1050.38</ele>
        <time>2020-08-21T11:04:45Z</time>
      </trkpt>
      <trkpt lat="44.91832" lon="3.50509">
        <ele>1050.38</ele>
        <time>2020-08-21T11:05:20Z</time>
      </trkpt>
      <trkpt lat="44.91834" lon="3.50506">
        <ele>1049.9</ele>
        <time>2020-08-21T11:05:53Z</time>
      </trkpt>
      <trkpt lat="44.91831" lon="3.50501">
        <ele>1049.9</ele>
        <time>2020-08-21T11:06:21Z</time>
      </trkpt>
      <trkpt lat="44.91831" lon="3.50503">
        <ele>1049.9</ele>
        <time>2020-08-21T11:06:39Z</time>
      </trkpt>
      <trkpt lat="44.91831" lon="3.50508">
        <ele>1050.38</ele>
        <time>2020-08-21T11:06:58Z</time>
      </trkpt>
      <trkpt lat="44.91831" lon="3.50506">
        <ele>1050.38</ele>
        <time>2020-08-21T11:07:18Z</time>
      </trkpt>
      <trkpt lat="44.91831" lon="3.50503">
        <ele>1050.86</ele>
        <time>2020-08-21T11:07:40Z</time>
      </trkpt>
      <trkpt lat="44.91831" lon="3.50503">
        <ele>1049.42</ele>
        <time>2020-08-21T11:07:42Z</time>
      </trkpt>
      <trkpt lat="44.91832" lon="3.50505">
        <ele>1049.42</ele>
        <time>2020-08-21T11:08:13Z</time>
      </trkpt>
      <trkpt lat="44.91831" lon="3.50505">
        <ele>1049.9</ele>
        <time>2020-08-21T11:08:37Z</time>
      </trkpt>
      <trkpt lat="44.91832" lon="3.50501">
        <ele>1049.9</ele>
        <time>2020-08-21T11:09:21Z</time>
      </trkpt>
      <trkpt lat="44.91835" lon="3.50509">
        <ele>1049.9</ele>
        <time>2020-08-21T11:09:38Z</time>
      </trkpt>
      <trkpt lat="44.91829" lon="3.50509">
        <ele>1048.94</ele>
        <time>2020-08-21T11:10:03Z</time>
      </trkpt>
      <trkpt lat="44.91829" lon="3.50506">
        <ele>1048.94</ele>
        <time>2020-08-21T11:10:26Z</time>
      </trkpt>
      <trkpt lat="44.91825" lon="3.50505">
        <ele>1048.94</ele>
        <time>2020-08-21T11:10:49Z</time>
      </trkpt>
      <trkpt lat="44.91823" lon="3.50513">
        <ele>1048.94</ele>
        <time>2020-08-21T11:11:08Z</time>
      </trkpt>
      <trkpt lat="44.91819" lon="3.50512">
        <ele>1050.38</ele>
        <time>2020-08-21T11:11:25Z</time>
      </trkpt>
      <trkpt lat="44.91813" lon="3.50509">
        <ele>1050.38</ele>
        <time>2020-08-21T11:11:47Z</time>
      </trkpt>
      <trkpt lat="44.9181" lon="3.50511">
        <ele>1050.86</ele>
        <time>2020-08-21T11:12:11Z</time>
      </trkpt>
      <trkpt lat="44.91805" lon="3.5051">
        <ele>1051.82</ele>
        <time>2020-08-21T11:12:27Z</time>
      </trkpt>
      <trkpt lat="44.91806" lon="3.50511">
        <ele>1051.82</ele>
        <time>2020-08-21T11:12:51Z</time>
      </trkpt>
      <trkpt lat="44.91806" lon="3.50512">
        <ele>1051.82</ele>
        <time>2020-08-21T11:13:24Z</time>
      </trkpt>
      <trkpt lat="44.91794" lon="3.50508">
        <ele>1051.82</ele>
        <time>2020-08-21T11:13:43Z</time>
      </trkpt>
      <trkpt lat="44.91794" lon="3.50508">
        <ele>1051.82</ele>
        <time>2020-08-21T11:13:44Z</time>
      </trkpt>
      <trkpt lat="44.91787" lon="3.50508">
        <ele>1053.74</ele>
        <time>2020-08-21T11:13:55Z</time>
      </trkpt>
      <trkpt lat="44.91778" lon="3.50504">
        <ele>1054.7</ele>
        <time>2020-08-21T11:14:09Z</time>
      </trkpt>
      <trkpt lat="44.9177" lon="3.50495">
        <ele>1055.67</ele>
        <time>2020-08-21T11:14:23Z</time>
      </trkpt>
      <trkpt lat="44.91763" lon="3.5049">
        <ele>1057.11</ele>
        <time>2020-08-21T11:14:35Z</time>
      </trkpt>
      <trkpt lat="44.91755" lon="3.5048">
        <ele>1059.51</ele>
        <time>2020-08-21T11:14:51Z</time>
      </trkpt>
      <trkpt lat="44.91748" lon="3.50473">
        <ele>1060.47</ele>
        <time>2020-08-21T11:15:06Z</time>
      </trkpt>
      <trkpt lat="44.91741" lon="3.50463">
        <ele>1061.91</ele>
        <time>2020-08-21T11:15:20Z</time>
      </trkpt>
      <trkpt lat="44.91735" lon="3.50458">
        <ele>1063.84</ele>
        <time>2020-08-21T11:15:34Z</time>
      </trkpt>
      <trkpt lat="44.91727" lon="3.50455">
        <ele>1065.28</ele>
        <time>2020-08-21T11:15:47Z</time>
      </trkpt>
      <trkpt lat="44.91722" lon="3.50444">
        <ele>1065.76</ele>
        <time>2020-08-21T11:15:59Z</time>
      </trkpt>
      <trkpt lat="44.91716" lon="3.50436">
        <ele>1066.24</ele>
        <time>2020-08-21T11:16:13Z</time>
      </trkpt>
      <trkpt lat="44.91708" lon="3.50425">
        <ele>1067.2</ele>
        <time>2020-08-21T11:16:28Z</time>
      </trkpt>
      <trkpt lat="44.91701" lon="3.50418">
        <ele>1069.12</ele>
        <time>2020-08-21T11:16:41Z</time>
      </trkpt>
      <trkpt lat="44.91693" lon="3.50413">
        <ele>1069.12</ele>
        <time>2020-08-21T11:16:53Z</time>
      </trkpt>
      <trkpt lat="44.91693" lon="3.50413">
        <ele>1070.08</ele>
        <time>2020-08-21T11:17:02Z</time>
      </trkpt>
      <trkpt lat="44.91684" lon="3.50413">
        <ele>1070.08</ele>
        <time>2020-08-21T11:17:27Z</time>
      </trkpt>
      <trkpt lat="44.91668" lon="3.50409">
        <ele>1070.08</ele>
        <time>2020-08-21T11:17:44Z</time>
      </trkpt>
      <trkpt lat="44.91654" lon="3.50411">
        <ele>1071.53</ele>
        <time>2020-08-21T11:18:00Z</time>
      </trkpt>
      <trkpt lat="44.91653" lon="3.50411">
        <ele>1071.53</ele>
        <time>2020-08-21T11:18:01Z</time>
      </trkpt>
      <trkpt lat="44.91639" lon="3.50414">
        <ele>1072.01</ele>
        <time>2020-08-21T11:18:16Z</time>
      </trkpt>
      <trkpt lat="44.91623" lon="3.50416">
        <ele>1071.05</ele>
        <time>2020-08-21T11:18:33Z</time>
      </trkpt>
      <trkpt lat="44.91612" lon="3.50419">
        <ele>1072.49</ele>
        <time>2020-08-21T11:18:44Z</time>
      </trkpt>
      <trkpt lat="44.91596" lon="3.50427">
        <ele>1073.45</ele>
        <time>2020-08-21T11:19:01Z</time>
      </trkpt>
      <trkpt lat="44.91589" lon="3.50432">
        <ele>1073.45</ele>
        <time>2020-08-21T11:19:09Z</time>
      </trkpt>
      <trkpt lat="44.91573" lon="3.50443">
        <ele>1073.45</ele>
        <time>2020-08-21T11:19:26Z</time>
      </trkpt>
      <trkpt lat="44.91557" lon="3.50451">
        <ele>1073.45</ele>
        <time>2020-08-21T11:19:42Z</time>
      </trkpt>
      <trkpt lat="44.91554" lon="3.50453">
        <ele>1074.41</ele>
        <time>2020-08-21T11:19:45Z</time>
      </trkpt>
      <trkpt lat="44.91538" lon="3.5046">
        <ele>1074.41</ele>
        <time>2020-08-21T11:20:02Z</time>
      </trkpt>
      <trkpt lat="44.91522" lon="3.50466">
        <ele>1074.89</ele>
        <time>2020-08-21T11:20:18Z</time>
      </trkpt>
      <trkpt lat="44.91511" lon="3.50468">
        <ele>1075.37</ele>
        <time>2020-08-21T11:20:31Z</time>
      </trkpt>
      <trkpt lat="44.91507" lon="3.50468">
        <ele>1073.93</ele>
        <time>2020-08-21T11:20:35Z</time>
      </trkpt>
      <trkpt lat="44.91503" lon="3.50468">
        <ele>1075.37</ele>
        <time>2020-08-21T11:20:39Z</time>
      </trkpt>
      <trkpt lat="44.91495" lon="3.50466">
        <ele>1075.85</ele>
        <time>2020-08-21T11:20:48Z</time>
      </trkpt>
      <trkpt lat="44.91483" lon="3.50458">
        <ele>1076.81</ele>
        <time>2020-08-21T11:21:02Z</time>
      </trkpt>
      <trkpt lat="44.91472" lon="3.50451">
        <ele>1077.78</ele>
        <time>2020-08-21T11:21:16Z</time>
      </trkpt>
      <trkpt lat="44.91464" lon="3.50447">
        <ele>1076.81</ele>
        <time>2020-08-21T11:21:25Z</time>
      </trkpt>
      <trkpt lat="44.91453" lon="3.50442">
        <ele>1078.74</ele>
        <time>2020-08-21T11:21:38Z</time>
      </trkpt>
      <trkpt lat="44.9144" lon="3.50436">
        <ele>1080.18</ele>
        <time>2020-08-21T11:21:52Z</time>
      </trkpt>
      <trkpt lat="44.91435" lon="3.50434">
        <ele>1080.18</ele>
        <time>2020-08-21T11:22:06Z</time>
      </trkpt>
      <trkpt lat="44.9142" lon="3.50428">
        <ele>1081.62</ele>
        <time>2020-08-21T11:22:22Z</time>
      </trkpt>
      <trkpt lat="44.91419" lon="3.50428">
        <ele>1080.18</ele>
        <time>2020-08-21T11:22:23Z</time>
      </trkpt>
      <trkpt lat="44.91412" lon="3.50428">
        <ele>1081.62</ele>
        <time>2020-08-21T11:22:30Z</time>
      </trkpt>
      <trkpt lat="44.91411" lon="3.50427">
        <ele>1081.62</ele>
        <time>2020-08-21T11:22:31Z</time>
      </trkpt>
      <trkpt lat="44.91395" lon="3.50421">
        <ele>1082.58</ele>
        <time>2020-08-21T11:22:48Z</time>
      </trkpt>
      <trkpt lat="44.91382" lon="3.50417">
        <ele>1083.54</ele>
        <time>2020-08-21T11:23:02Z</time>
      </trkpt>
      <trkpt lat="44.91369" lon="3.50408">
        <ele>1084.02</ele>
        <time>2020-08-21T11:23:16Z</time>
      </trkpt>
      <trkpt lat="44.91355" lon="3.504">
        <ele>1084.5</ele>
        <time>2020-08-21T11:23:31Z</time>
      </trkpt>
      <trkpt lat="44.91343" lon="3.50393">
        <ele>1084.99</ele>
        <time>2020-08-21T11:23:44Z</time>
      </trkpt>
      <trkpt lat="44.91339" lon="3.50392">
        <ele>1084.02</ele>
        <time>2020-08-21T11:23:48Z</time>
      </trkpt>
      <trkpt lat="44.91337" lon="3.50391">
        <ele>1085.95</ele>
        <time>2020-08-21T11:23:50Z</time>
      </trkpt>
      <trkpt lat="44.91324" lon="3.50388">
        <ele>1086.43</ele>
        <time>2020-08-21T11:24:03Z</time>
      </trkpt>
      <trkpt lat="44.91319" lon="3.5039">
        <ele>1086.91</ele>
        <time>2020-08-21T11:24:08Z</time>
      </trkpt>
      <trkpt lat="44.91302" lon="3.50391">
        <ele>1087.39</ele>
        <time>2020-08-21T11:24:24Z</time>
      </trkpt>
      <trkpt lat="44.91288" lon="3.50389">
        <ele>1087.39</ele>
        <time>2020-08-21T11:24:38Z</time>
      </trkpt>
      <trkpt lat="44.91286" lon="3.50389">
        <ele>1088.35</ele>
        <time>2020-08-21T11:24:40Z</time>
      </trkpt>
      <trkpt lat="44.9127" lon="3.50388">
        <ele>1088.83</ele>
        <time>2020-08-21T11:24:56Z</time>
      </trkpt>
      <trkpt lat="44.91264" lon="3.50388">
        <ele>1089.31</ele>
        <time>2020-08-21T11:25:02Z</time>
      </trkpt>
      <trkpt lat="44.91254" lon="3.50389">
        <ele>1087.87</ele>
        <time>2020-08-21T11:25:12Z</time>
      </trkpt>
      <trkpt lat="44.91249" lon="3.5039">
        <ele>1090.75</ele>
        <time>2020-08-21T11:25:17Z</time>
      </trkpt>
      <trkpt lat="44.91233" lon="3.50393">
        <ele>1090.75</ele>
        <time>2020-08-21T11:25:32Z</time>
      </trkpt>
      <trkpt lat="44.91219" lon="3.50398">
        <ele>1090.75</ele>
        <time>2020-08-21T11:25:47Z</time>
      </trkpt>
      <trkpt lat="44.91204" lon="3.50403">
        <ele>1091.23</ele>
        <time>2020-08-21T11:26:03Z</time>
      </trkpt>
      <trkpt lat="44.9119" lon="3.50408">
        <ele>1092.2</ele>
        <time>2020-08-21T11:26:18Z</time>
      </trkpt>
      <trkpt lat="44.91172" lon="3.50413">
        <ele>1090.75</ele>
        <time>2020-08-21T11:26:36Z</time>
      </trkpt>
      <trkpt lat="44.91162" lon="3.50415">
        <ele>1091.23</ele>
        <time>2020-08-21T11:26:45Z</time>
      </trkpt>
      <trkpt lat="44.9116" lon="3.50415">
        <ele>1089.79</ele>
        <time>2020-08-21T11:26:47Z</time>
      </trkpt>
      <trkpt lat="44.91144" lon="3.5042">
        <ele>1088.83</ele>
        <time>2020-08-21T11:27:03Z</time>
      </trkpt>
      <trkpt lat="44.91135" lon="3.50422">
        <ele>1090.27</ele>
        <time>2020-08-21T11:27:11Z</time>
      </trkpt>
      <trkpt lat="44.9113" lon="3.50423">
        <ele>1088.83</ele>
        <time>2020-08-21T11:27:15Z</time>
      </trkpt>
      <trkpt lat="44.91114" lon="3.50428">
        <ele>1088.83</ele>
        <time>2020-08-21T11:27:32Z</time>
      </trkpt>
      <trkpt lat="44.91112" lon="3.5043">
        <ele>1088.83</ele>
        <time>2020-08-21T11:27:35Z</time>
      </trkpt>
      <trkpt lat="44.91097" lon="3.50445">
        <ele>1088.83</ele>
        <time>2020-08-21T11:27:53Z</time>
      </trkpt>
      <trkpt lat="44.9109" lon="3.50448">
        <ele>1088.83</ele>
        <time>2020-08-21T11:28:06Z</time>
      </trkpt>
      <trkpt lat="44.91081" lon="3.50458">
        <ele>1090.27</ele>
        <time>2020-08-21T11:28:19Z</time>
      </trkpt>
      <trkpt lat="44.91073" lon="3.50467">
        <ele>1091.23</ele>
        <time>2020-08-21T11:28:33Z</time>
      </trkpt>
      <trkpt lat="44.91065" lon="3.50473">
        <ele>1091.23</ele>
        <time>2020-08-21T11:28:46Z</time>
      </trkpt>
      <trkpt lat="44.91046" lon="3.50494">
        <ele>1091.71</ele>
        <time>2020-08-21T11:29:08Z</time>
      </trkpt>
      <trkpt lat="44.91042" lon="3.50499">
        <ele>1090.27</ele>
        <time>2020-08-21T11:29:14Z</time>
      </trkpt>
      <trkpt lat="44.91033" lon="3.50513">
        <ele>1090.27</ele>
        <time>2020-08-21T11:29:30Z</time>
      </trkpt>
      <trkpt lat="44.9102" lon="3.50526">
        <ele>1090.27</ele>
        <time>2020-08-21T11:29:47Z</time>
      </trkpt>
      <trkpt lat="44.91012" lon="3.50536">
        <ele>1090.27</ele>
        <time>2020-08-21T11:30:02Z</time>
      </trkpt>
      <trkpt lat="44.9101" lon="3.50539">
        <ele>1090.27</ele>
        <time>2020-08-21T11:30:18Z</time>
      </trkpt>
      <trkpt lat="44.91004" lon="3.50536">
        <ele>1090.27</ele>
        <time>2020-08-21T11:30:36Z</time>
      </trkpt>
      <trkpt lat="44.91001" lon="3.50541">
        <ele>1091.71</ele>
        <time>2020-08-21T11:30:43Z</time>
      </trkpt>
      <trkpt lat="44.90997" lon="3.50552">
        <ele>1092.2</ele>
        <time>2020-08-21T11:30:59Z</time>
      </trkpt>
      <trkpt lat="44.90998" lon="3.50552">
        <ele>1091.23</ele>
        <time>2020-08-21T11:31:26Z</time>
      </trkpt>
      <trkpt lat="44.90998" lon="3.50551">
        <ele>1091.71</ele>
        <time>2020-08-21T11:31:48Z</time>
      </trkpt>
      <trkpt lat="44.90992" lon="3.50561">
        <ele>1091.71</ele>
        <time>2020-08-21T11:32:07Z</time>
      </trkpt>
      <trkpt lat="44.90982" lon="3.50566">
        <ele>1094.6</ele>
        <time>2020-08-21T11:32:23Z</time>
      </trkpt>
      <trkpt lat="44.90977" lon="3.50565">
        <ele>1093.64</ele>
        <time>2020-08-21T11:32:32Z</time>
      </trkpt>
      <trkpt lat="44.90975" lon="3.50567">
        <ele>1095.08</ele>
        <time>2020-08-21T11:32:36Z</time>
      </trkpt>
      <trkpt lat="44.90973" lon="3.50569">
        <ele>1095.56</ele>
        <time>2020-08-21T11:33:00Z</time>
      </trkpt>
      <trkpt lat="44.90972" lon="3.50567">
        <ele>1094.12</ele>
        <time>2020-08-21T11:33:02Z</time>
      </trkpt>
      <trkpt lat="44.90972" lon="3.50566">
        <ele>1096.04</ele>
        <time>2020-08-21T11:33:05Z</time>
      </trkpt>
      <trkpt lat="44.90964" lon="3.50567">
        <ele>1096.04</ele>
        <time>2020-08-21T11:33:18Z</time>
      </trkpt>
      <trkpt lat="44.90957" lon="3.50559">
        <ele>1097</ele>
        <time>2020-08-21T11:33:34Z</time>
      </trkpt>
      <trkpt lat="44.90958" lon="3.5056">
        <ele>1096.52</ele>
        <time>2020-08-21T11:33:50Z</time>
      </trkpt>
      <trkpt lat="44.90966" lon="3.50566">
        <ele>1096.52</ele>
        <time>2020-08-21T11:34:04Z</time>
      </trkpt>
      <trkpt lat="44.90976" lon="3.50562">
        <ele>1095.08</ele>
        <time>2020-08-21T11:34:18Z</time>
      </trkpt>
      <trkpt lat="44.90989" lon="3.50563">
        <ele>1094.6</ele>
        <time>2020-08-21T11:34:35Z</time>
      </trkpt>
      <trkpt lat="44.90999" lon="3.50553">
        <ele>1092.68</ele>
        <time>2020-08-21T11:34:51Z</time>
      </trkpt>
      <trkpt lat="44.90998" lon="3.50547">
        <ele>1092.2</ele>
        <time>2020-08-21T11:35:05Z</time>
      </trkpt>
      <trkpt lat="44.90989" lon="3.50547">
        <ele>1091.71</ele>
        <time>2020-08-21T11:35:22Z</time>
      </trkpt>
      <trkpt lat="44.90988" lon="3.50543">
        <ele>1091.71</ele>
        <time>2020-08-21T11:35:55Z</time>
      </trkpt>
      <trkpt lat="44.90989" lon="3.50543">
        <ele>1091.71</ele>
        <time>2020-08-21T11:36:33Z</time>
      </trkpt>
      <trkpt lat="44.9099" lon="3.50545">
        <ele>1091.23</ele>
        <time>2020-08-21T11:37:15Z</time>
      </trkpt>
      <trkpt lat="44.9099" lon="3.50545">
        <ele>1091.23</ele>
        <time>2020-08-21T11:37:46Z</time>
      </trkpt>
      <trkpt lat="44.90991" lon="3.50544">
        <ele>1092.2</ele>
        <time>2020-08-21T11:38:10Z</time>
      </trkpt>
      <trkpt lat="44.90992" lon="3.50546">
        <ele>1092.2</ele>
        <time>2020-08-21T11:38:41Z</time>
      </trkpt>
      <trkpt lat="44.90989" lon="3.50545">
        <ele>1092.2</ele>
        <time>2020-08-21T11:39:07Z</time>
      </trkpt>
      <trkpt lat="44.90989" lon="3.50546">
        <ele>1092.2</ele>
        <time>2020-08-21T11:39:39Z</time>
      </trkpt>
      <trkpt lat="44.90989" lon="3.50546">
        <ele>1092.2</ele>
        <time>2020-08-21T11:40:10Z</time>
      </trkpt>
      <trkpt lat="44.9099" lon="3.50542">
        <ele>1092.2</ele>
        <time>2020-08-21T11:40:47Z</time>
      </trkpt>
      <trkpt lat="44.90989" lon="3.50542">
        <ele>1092.68</ele>
        <time>2020-08-21T11:41:13Z</time>
      </trkpt>
      <trkpt lat="44.9099" lon="3.50546">
        <ele>1092.68</ele>
        <time>2020-08-21T11:41:41Z</time>
      </trkpt>
      <trkpt lat="44.9099" lon="3.50546">
        <ele>1092.68</ele>
        <time>2020-08-21T11:42:16Z</time>
      </trkpt>
      <trkpt lat="44.90988" lon="3.50546">
        <ele>1092.68</ele>
        <time>2020-08-21T11:42:49Z</time>
      </trkpt>
      <trkpt lat="44.90994" lon="3.50548">
        <ele>1092.68</ele>
        <time>2020-08-21T11:43:10Z</time>
      </trkpt>
      <trkpt lat="44.90997" lon="3.50546">
        <ele>1092.68</ele>
        <time>2020-08-21T11:43:28Z</time>
      </trkpt>
      <trkpt lat="44.90997" lon="3.50548">
        <ele>1092.68</ele>
        <time>2020-08-21T11:43:56Z</time>
      </trkpt>
      <trkpt lat="44.90997" lon="3.50548">
        <ele>1092.68</ele>
        <time>2020-08-21T11:44:29Z</time>
      </trkpt>
      <trkpt lat="44.90996" lon="3.50548">
        <ele>1092.2</ele>
        <time>2020-08-21T11:45:00Z</time>
      </trkpt>
      <trkpt lat="44.90994" lon="3.50547">
        <ele>1092.2</ele>
        <time>2020-08-21T11:45:31Z</time>
      </trkpt>
      <trkpt lat="44.9099" lon="3.50546">
        <ele>1092.2</ele>
        <time>2020-08-21T11:45:55Z</time>
      </trkpt>
      <trkpt lat="44.90987" lon="3.50546">
        <ele>1092.2</ele>
        <time>2020-08-21T11:46:27Z</time>
      </trkpt>
      <trkpt lat="44.90992" lon="3.50543">
        <ele>1092.2</ele>
        <time>2020-08-21T11:46:54Z</time>
      </trkpt>
      <trkpt lat="44.90991" lon="3.50547">
        <ele>1092.2</ele>
        <time>2020-08-21T11:47:26Z</time>
      </trkpt>
      <trkpt lat="44.9099" lon="3.50545">
        <ele>1092.2</ele>
        <time>2020-08-21T11:48:00Z</time>
      </trkpt>
      <trkpt lat="44.90991" lon="3.50544">
        <ele>1092.2</ele>
        <time>2020-08-21T11:48:28Z</time>
      </trkpt>
      <trkpt lat="44.90997" lon="3.50534">
        <ele>1092.2</ele>
        <time>2020-08-21T11:48:42Z</time>
      </trkpt>
      <trkpt lat="44.90994" lon="3.50531">
        <ele>1092.68</ele>
        <time>2020-08-21T11:48:54Z</time>
      </trkpt>
      <trkpt lat="44.90986" lon="3.50523">
        <ele>1092.68</ele>
        <time>2020-08-21T11:49:08Z</time>
      </trkpt>
      <trkpt lat="44.90977" lon="3.50515">
        <ele>1092.68</ele>
        <time>2020-08-21T11:49:21Z</time>
      </trkpt>
      <trkpt lat="44.90969" lon="3.50498">
        <ele>1093.16</ele>
        <time>2020-08-21T11:49:37Z</time>
      </trkpt>
      <trkpt lat="44.90968" lon="3.50495">
        <ele>1093.16</ele>
        <time>2020-08-21T11:49:39Z</time>
      </trkpt>
      <trkpt lat="44.90967" lon="3.50489">
        <ele>1093.16</ele>
        <time>2020-08-21T11:49:44Z</time>
      </trkpt>
      <trkpt lat="44.90965" lon="3.50468">
        <ele>1093.64</ele>
        <time>2020-08-21T11:50:00Z</time>
      </trkpt>
      <trkpt lat="44.90965" lon="3.50453">
        <ele>1093.64</ele>
        <time>2020-08-21T11:50:12Z</time>
      </trkpt>
      <trkpt lat="44.90966" lon="3.50442">
        <ele>1094.12</ele>
        <time>2020-08-21T11:50:26Z</time>
      </trkpt>
      <trkpt lat="44.90967" lon="3.50428">
        <ele>1094.6</ele>
        <time>2020-08-21T11:50:40Z</time>
      </trkpt>
      <trkpt lat="44.90966" lon="3.50413">
        <ele>1095.08</ele>
        <time>2020-08-21T11:50:53Z</time>
      </trkpt>
      <trkpt lat="44.90964" lon="3.50402">
        <ele>1096.04</ele>
        <time>2020-08-21T11:51:02Z</time>
      </trkpt>
      <trkpt lat="44.90955" lon="3.50391">
        <ele>1096.52</ele>
        <time>2020-08-21T11:51:17Z</time>
      </trkpt>
      <trkpt lat="44.90953" lon="3.5039">
        <ele>1096.52</ele>
        <time>2020-08-21T11:51:20Z</time>
      </trkpt>
      <trkpt lat="44.90942" lon="3.50385">
        <ele>1097.96</ele>
        <time>2020-08-21T11:51:33Z</time>
      </trkpt>
      <trkpt lat="44.90939" lon="3.50386">
        <ele>1098.44</ele>
        <time>2020-08-21T11:51:49Z</time>
      </trkpt>
      <trkpt lat="44.90939" lon="3.50385">
        <ele>1098.44</ele>
        <time>2020-08-21T11:52:03Z</time>
      </trkpt>
      <trkpt lat="44.90929" lon="3.50379">
        <ele>1098.92</ele>
        <time>2020-08-21T11:52:18Z</time>
      </trkpt>
      <trkpt lat="44.90917" lon="3.50376">
        <ele>1100.37</ele>
        <time>2020-08-21T11:52:33Z</time>
      </trkpt>
      <trkpt lat="44.90905" lon="3.50372">
        <ele>1100.85</ele>
        <time>2020-08-21T11:52:47Z</time>
      </trkpt>
      <trkpt lat="44.90903" lon="3.50373">
        <ele>1101.33</ele>
        <time>2020-08-21T11:52:50Z</time>
      </trkpt>
      <trkpt lat="44.90889" lon="3.50367">
        <ele>1102.29</ele>
        <time>2020-08-21T11:53:05Z</time>
      </trkpt>
      <trkpt lat="44.90886" lon="3.50363">
        <ele>1100.85</ele>
        <time>2020-08-21T11:53:09Z</time>
      </trkpt>
      <trkpt lat="44.90877" lon="3.50346">
        <ele>1100.85</ele>
        <time>2020-08-21T11:53:24Z</time>
      </trkpt>
      <trkpt lat="44.90868" lon="3.50328">
        <ele>1101.81</ele>
        <time>2020-08-21T11:53:39Z</time>
      </trkpt>
      <trkpt lat="44.90865" lon="3.50321">
        <ele>1101.33</ele>
        <time>2020-08-21T11:53:45Z</time>
      </trkpt>
      <trkpt lat="44.90861" lon="3.50313">
        <ele>1101.33</ele>
        <time>2020-08-21T11:53:53Z</time>
      </trkpt>
      <trkpt lat="44.90849" lon="3.50287">
        <ele>1101.33</ele>
        <time>2020-08-21T11:54:15Z</time>
      </trkpt>
      <trkpt lat="44.9084" lon="3.50272">
        <ele>1100.37</ele>
        <time>2020-08-21T11:54:30Z</time>
      </trkpt>
      <trkpt lat="44.90828" lon="3.50254">
        <ele>1099.89</ele>
        <time>2020-08-21T11:54:47Z</time>
      </trkpt>
      <trkpt lat="44.90814" lon="3.50236">
        <ele>1098.44</ele>
        <time>2020-08-21T11:55:06Z</time>
      </trkpt>
      <trkpt lat="44.90797" lon="3.50219">
        <ele>1097</ele>
        <time>2020-08-21T11:55:27Z</time>
      </trkpt>
      <trkpt lat="44.90779" lon="3.50203">
        <ele>1095.08</ele>
        <time>2020-08-21T11:55:48Z</time>
      </trkpt>
      <trkpt lat="44.90766" lon="3.50198">
        <ele>1095.08</ele>
        <time>2020-08-21T11:56:01Z</time>
      </trkpt>
      <trkpt lat="44.90746" lon="3.50196">
        <ele>1094.12</ele>
        <time>2020-08-21T11:56:21Z</time>
      </trkpt>
      <trkpt lat="44.90732" lon="3.50194">
        <ele>1094.12</ele>
        <time>2020-08-21T11:56:38Z</time>
      </trkpt>
      <trkpt lat="44.9071" lon="3.50196">
        <ele>1093.64</ele>
        <time>2020-08-21T11:56:56Z</time>
      </trkpt>
      <trkpt lat="44.90706" lon="3.50195">
        <ele>1093.16</ele>
        <time>2020-08-21T11:57:00Z</time>
      </trkpt>
      <trkpt lat="44.90689" lon="3.5019">
        <ele>1092.68</ele>
        <time>2020-08-21T11:57:17Z</time>
      </trkpt>
      <trkpt lat="44.90673" lon="3.50191">
        <ele>1092.68</ele>
        <time>2020-08-21T11:57:32Z</time>
      </trkpt>
      <trkpt lat="44.90658" lon="3.5019">
        <ele>1092.68</ele>
        <time>2020-08-21T11:57:47Z</time>
      </trkpt>
      <trkpt lat="44.9065" lon="3.5019">
        <ele>1094.12</ele>
        <time>2020-08-21T11:57:56Z</time>
      </trkpt>
      <trkpt lat="44.90632" lon="3.50189">
        <ele>1094.6</ele>
        <time>2020-08-21T11:58:14Z</time>
      </trkpt>
      <trkpt lat="44.90616" lon="3.5019">
        <ele>1094.6</ele>
        <time>2020-08-21T11:58:30Z</time>
      </trkpt>
      <trkpt lat="44.90601" lon="3.50192">
        <ele>1096.04</ele>
        <time>2020-08-21T11:58:45Z</time>
      </trkpt>
      <trkpt lat="44.90587" lon="3.50195">
        <ele>1096.04</ele>
        <time>2020-08-21T11:59:01Z</time>
      </trkpt>
      <trkpt lat="44.90584" lon="3.50195">
        <ele>1096.04</ele>
        <time>2020-08-21T11:59:21Z</time>
      </trkpt>
      <trkpt lat="44.9057" lon="3.50199">
        <ele>1096.04</ele>
        <time>2020-08-21T11:59:38Z</time>
      </trkpt>
      <trkpt lat="44.90564" lon="3.502">
        <ele>1096.04</ele>
        <time>2020-08-21T11:59:44Z</time>
      </trkpt>
      <trkpt lat="44.90548" lon="3.50202">
        <ele>1096.52</ele>
        <time>2020-08-21T11:59:59Z</time>
      </trkpt>
      <trkpt lat="44.90537" lon="3.50201">
        <ele>1096.52</ele>
        <time>2020-08-21T12:00:12Z</time>
      </trkpt>
      <trkpt lat="44.9052" lon="3.50196">
        <ele>1097.48</ele>
        <time>2020-08-21T12:00:29Z</time>
      </trkpt>
      <trkpt lat="44.90507" lon="3.50191">
        <ele>1097.96</ele>
        <time>2020-08-21T12:00:43Z</time>
      </trkpt>
      <trkpt lat="44.905" lon="3.5019">
        <ele>1098.44</ele>
        <time>2020-08-21T12:00:50Z</time>
      </trkpt>
      <trkpt lat="44.90496" lon="3.5019">
        <ele>1098.44</ele>
        <time>2020-08-21T12:00:53Z</time>
      </trkpt>
      <trkpt lat="44.90486" lon="3.50188">
        <ele>1098.92</ele>
        <time>2020-08-21T12:01:04Z</time>
      </trkpt>
      <trkpt lat="44.90471" lon="3.50187">
        <ele>1099.4</ele>
        <time>2020-08-21T12:01:18Z</time>
      </trkpt>
      <trkpt lat="44.9046" lon="3.50187">
        <ele>1099.4</ele>
        <time>2020-08-21T12:01:28Z</time>
      </trkpt>
      <trkpt lat="44.90447" lon="3.50189">
        <ele>1099.89</ele>
        <time>2020-08-21T12:01:41Z</time>
      </trkpt>
      <trkpt lat="44.90434" lon="3.50189">
        <ele>1099.89</ele>
        <time>2020-08-21T12:01:55Z</time>
      </trkpt>
      <trkpt lat="44.90418" lon="3.50189">
        <ele>1100.85</ele>
        <time>2020-08-21T12:02:11Z</time>
      </trkpt>
      <trkpt lat="44.90403" lon="3.50183">
        <ele>1100.85</ele>
        <time>2020-08-21T12:02:26Z</time>
      </trkpt>
      <trkpt lat="44.9039" lon="3.50177">
        <ele>1101.81</ele>
        <time>2020-08-21T12:02:40Z</time>
      </trkpt>
      <trkpt lat="44.90389" lon="3.50176">
        <ele>1101.81</ele>
        <time>2020-08-21T12:02:41Z</time>
      </trkpt>
      <trkpt lat="44.90376" lon="3.50167">
        <ele>1102.29</ele>
        <time>2020-08-21T12:02:55Z</time>
      </trkpt>
      <trkpt lat="44.90366" lon="3.50157">
        <ele>1102.29</ele>
        <time>2020-08-21T12:03:07Z</time>
      </trkpt>
      <trkpt lat="44.90357" lon="3.50147">
        <ele>1103.73</ele>
        <time>2020-08-21T12:03:19Z</time>
      </trkpt>
      <trkpt lat="44.9035" lon="3.50139">
        <ele>1103.73</ele>
        <time>2020-08-21T12:03:29Z</time>
      </trkpt>
      <trkpt lat="44.90341" lon="3.50127">
        <ele>1104.69</ele>
        <time>2020-08-21T12:03:44Z</time>
      </trkpt>
      <trkpt lat="44.90331" lon="3.50116">
        <ele>1106.13</ele>
        <time>2020-08-21T12:03:58Z</time>
      </trkpt>
      <trkpt lat="44.90323" lon="3.50108">
        <ele>1107.1</ele>
        <time>2020-08-21T12:04:09Z</time>
      </trkpt>
      <trkpt lat="44.90307" lon="3.50101">
        <ele>1107.58</ele>
        <time>2020-08-21T12:04:25Z</time>
      </trkpt>
      <trkpt lat="44.90294" lon="3.50095">
        <ele>1108.54</ele>
        <time>2020-08-21T12:04:39Z</time>
      </trkpt>
      <trkpt lat="44.9028" lon="3.50089">
        <ele>1108.06</ele>
        <time>2020-08-21T12:04:53Z</time>
      </trkpt>
      <trkpt lat="44.90279" lon="3.50089">
        <ele>1108.06</ele>
        <time>2020-08-21T12:04:54Z</time>
      </trkpt>
      <trkpt lat="44.90277" lon="3.50088">
        <ele>1109.02</ele>
        <time>2020-08-21T12:04:57Z</time>
      </trkpt>
      <trkpt lat="44.90268" lon="3.50084">
        <ele>1109.98</ele>
        <time>2020-08-21T12:05:07Z</time>
      </trkpt>
      <trkpt lat="44.90254" lon="3.50074">
        <ele>1111.42</ele>
        <time>2020-08-21T12:05:23Z</time>
      </trkpt>
      <trkpt lat="44.90249" lon="3.5007">
        <ele>1109.98</ele>
        <time>2020-08-21T12:05:29Z</time>
      </trkpt>
      <trkpt lat="44.90237" lon="3.50063">
        <ele>1109.98</ele>
        <time>2020-08-21T12:05:43Z</time>
      </trkpt>
      <trkpt lat="44.90237" lon="3.50063">
        <ele>1111.9</ele>
        <time>2020-08-21T12:06:06Z</time>
      </trkpt>
      <trkpt lat="44.90234" lon="3.50062">
        <ele>1109.98</ele>
        <time>2020-08-21T12:06:22Z</time>
      </trkpt>
      <trkpt lat="44.90222" lon="3.50053">
        <ele>1111.42</ele>
        <time>2020-08-21T12:06:36Z</time>
      </trkpt>
      <trkpt lat="44.90208" lon="3.50046">
        <ele>1111.9</ele>
        <time>2020-08-21T12:06:50Z</time>
      </trkpt>
      <trkpt lat="44.90205" lon="3.50045">
        <ele>1111.9</ele>
        <time>2020-08-21T12:06:53Z</time>
      </trkpt>
      <trkpt lat="44.90196" lon="3.50041">
        <ele>1112.38</ele>
        <time>2020-08-21T12:07:02Z</time>
      </trkpt>
      <trkpt lat="44.90189" lon="3.50039">
        <ele>1112.38</ele>
        <time>2020-08-21T12:07:09Z</time>
      </trkpt>
      <trkpt lat="44.9018" lon="3.50036">
        <ele>1112.38</ele>
        <time>2020-08-21T12:07:17Z</time>
      </trkpt>
      <trkpt lat="44.90163" lon="3.50032">
        <ele>1110.94</ele>
        <time>2020-08-21T12:07:33Z</time>
      </trkpt>
      <trkpt lat="44.90153" lon="3.50031">
        <ele>1110.94</ele>
        <time>2020-08-21T12:07:43Z</time>
      </trkpt>
      <trkpt lat="44.90135" lon="3.50035">
        <ele>1110.94</ele>
        <time>2020-08-21T12:08:00Z</time>
      </trkpt>
      <trkpt lat="44.90123" lon="3.50035">
        <ele>1111.9</ele>
        <time>2020-08-21T12:08:11Z</time>
      </trkpt>
      <trkpt lat="44.90119" lon="3.50034">
        <ele>1111.9</ele>
        <time>2020-08-21T12:08:15Z</time>
      </trkpt>
      <trkpt lat="44.90115" lon="3.50034">
        <ele>1111.9</ele>
        <time>2020-08-21T12:08:18Z</time>
      </trkpt>
      <trkpt lat="44.90112" lon="3.50034">
        <ele>1110.46</ele>
        <time>2020-08-21T12:08:21Z</time>
      </trkpt>
      <trkpt lat="44.90109" lon="3.50035">
        <ele>1111.9</ele>
        <time>2020-08-21T12:08:24Z</time>
      </trkpt>
      <trkpt lat="44.90105" lon="3.50035">
        <ele>1111.9</ele>
        <time>2020-08-21T12:08:28Z</time>
      </trkpt>
      <trkpt lat="44.90091" lon="3.50038">
        <ele>1112.86</ele>
        <time>2020-08-21T12:08:42Z</time>
      </trkpt>
      <trkpt lat="44.90077" lon="3.5004">
        <ele>1113.34</ele>
        <time>2020-08-21T12:08:56Z</time>
      </trkpt>
      <trkpt lat="44.90066" lon="3.50041">
        <ele>1113.34</ele>
        <time>2020-08-21T12:09:08Z</time>
      </trkpt>
      <trkpt lat="44.90052" lon="3.50042">
        <ele>1114.31</ele>
        <time>2020-08-21T12:09:22Z</time>
      </trkpt>
      <trkpt lat="44.90048" lon="3.50043">
        <ele>1114.31</ele>
        <time>2020-08-21T12:09:26Z</time>
      </trkpt>
      <trkpt lat="44.90033" lon="3.50047">
        <ele>1115.75</ele>
        <time>2020-08-21T12:09:41Z</time>
      </trkpt>
      <trkpt lat="44.90017" lon="3.50048">
        <ele>1117.19</ele>
        <time>2020-08-21T12:09:57Z</time>
      </trkpt>
      <trkpt lat="44.90014" lon="3.50045">
        <ele>1118.15</ele>
        <time>2020-08-21T12:10:06Z</time>
      </trkpt>
      <trkpt lat="44.90016" lon="3.5004">
        <ele>1118.15</ele>
        <time>2020-08-21T12:10:23Z</time>
      </trkpt>
      <trkpt lat="44.90014" lon="3.50042">
        <ele>1118.15</ele>
        <time>2020-08-21T12:10:43Z</time>
      </trkpt>
      <trkpt lat="44.90001" lon="3.50043">
        <ele>1118.15</ele>
        <time>2020-08-21T12:10:53Z</time>
      </trkpt>
      <trkpt lat="44.89992" lon="3.50045">
        <ele>1118.63</ele>
        <time>2020-08-21T12:11:02Z</time>
      </trkpt>
      <trkpt lat="44.89984" lon="3.50048">
        <ele>1119.11</ele>
        <time>2020-08-21T12:11:11Z</time>
      </trkpt>
      <trkpt lat="44.8997" lon="3.50051">
        <ele>1119.59</ele>
        <time>2020-08-21T12:11:25Z</time>
      </trkpt>
      <trkpt lat="44.89954" lon="3.50059">
        <ele>1120.07</ele>
        <time>2020-08-21T12:11:41Z</time>
      </trkpt>
      <trkpt lat="44.89942" lon="3.50061">
        <ele>1121.52</ele>
        <time>2020-08-21T12:11:56Z</time>
      </trkpt>
      <trkpt lat="44.89928" lon="3.50066">
        <ele>1121.03</ele>
        <time>2020-08-21T12:12:11Z</time>
      </trkpt>
      <trkpt lat="44.89914" lon="3.50071">
        <ele>1121.52</ele>
        <time>2020-08-21T12:12:24Z</time>
      </trkpt>
      <trkpt lat="44.89899" lon="3.5008">
        <ele>1121.52</ele>
        <time>2020-08-21T12:12:39Z</time>
      </trkpt>
      <trkpt lat="44.89896" lon="3.50082">
        <ele>1121.52</ele>
        <time>2020-08-21T12:12:42Z</time>
      </trkpt>
      <trkpt lat="44.89883" lon="3.50087">
        <ele>1121.52</ele>
        <time>2020-08-21T12:12:54Z</time>
      </trkpt>
      <trkpt lat="44.89882" lon="3.50086">
        <ele>1121.52</ele>
        <time>2020-08-21T12:12:56Z</time>
      </trkpt>
      <trkpt lat="44.89872" lon="3.50088">
        <ele>1121.52</ele>
        <time>2020-08-21T12:13:05Z</time>
      </trkpt>
      <trkpt lat="44.89865" lon="3.50093">
        <ele>1120.07</ele>
        <time>2020-08-21T12:13:12Z</time>
      </trkpt>
      <trkpt lat="44.89863" lon="3.50095">
        <ele>1121.52</ele>
        <time>2020-08-21T12:13:15Z</time>
      </trkpt>
      <trkpt lat="44.89859" lon="3.50095">
        <ele>1118.15</ele>
        <time>2020-08-21T12:13:18Z</time>
      </trkpt>
      <trkpt lat="44.89853" lon="3.50094">
        <ele>1120.07</ele>
        <time>2020-08-21T12:13:24Z</time>
      </trkpt>
      <trkpt lat="44.89849" lon="3.50091">
        <ele>1121.52</ele>
        <time>2020-08-21T12:13:28Z</time>
      </trkpt>
      <trkpt lat="44.89835" lon="3.50084">
        <ele>1122.48</ele>
        <time>2020-08-21T12:13:42Z</time>
      </trkpt>
      <trkpt lat="44.89823" lon="3.50077">
        <ele>1121.52</ele>
        <time>2020-08-21T12:13:55Z</time>
      </trkpt>
      <trkpt lat="44.89807" lon="3.50068">
        <ele>1121.03</ele>
        <time>2020-08-21T12:14:11Z</time>
      </trkpt>
      <trkpt lat="44.89801" lon="3.50066">
        <ele>1122.48</ele>
        <time>2020-08-21T12:14:18Z</time>
      </trkpt>
      <trkpt lat="44.89799" lon="3.50064">
        <ele>1122.48</ele>
        <time>2020-08-21T12:14:21Z</time>
      </trkpt>
      <trkpt lat="44.89793" lon="3.50061">
        <ele>1122.48</ele>
        <time>2020-08-21T12:14:27Z</time>
      </trkpt>
      <trkpt lat="44.89791" lon="3.5006">
        <ele>1122.96</ele>
        <time>2020-08-21T12:14:29Z</time>
      </trkpt>
      <trkpt lat="44.89786" lon="3.50057">
        <ele>1122.96</ele>
        <time>2020-08-21T12:14:35Z</time>
      </trkpt>
      <trkpt lat="44.89773" lon="3.50053">
        <ele>1123.92</ele>
        <time>2020-08-21T12:14:48Z</time>
      </trkpt>
      <trkpt lat="44.89759" lon="3.50047">
        <ele>1124.88</ele>
        <time>2020-08-21T12:15:02Z</time>
      </trkpt>
      <trkpt lat="44.8975" lon="3.50043">
        <ele>1125.84</ele>
        <time>2020-08-21T12:15:17Z</time>
      </trkpt>
      <trkpt lat="44.89744" lon="3.50042">
        <ele>1125.84</ele>
        <time>2020-08-21T12:15:23Z</time>
      </trkpt>
      <trkpt lat="44.89729" lon="3.50036">
        <ele>1126.32</ele>
        <time>2020-08-21T12:15:38Z</time>
      </trkpt>
      <trkpt lat="44.89715" lon="3.50032">
        <ele>1127.28</ele>
        <time>2020-08-21T12:15:53Z</time>
      </trkpt>
      <trkpt lat="44.89701" lon="3.50029">
        <ele>1128.24</ele>
        <time>2020-08-21T12:16:08Z</time>
      </trkpt>
      <trkpt lat="44.8969" lon="3.50025">
        <ele>1129.69</ele>
        <time>2020-08-21T12:16:21Z</time>
      </trkpt>
      <trkpt lat="44.89679" lon="3.50021">
        <ele>1128.73</ele>
        <time>2020-08-21T12:16:34Z</time>
      </trkpt>
      <trkpt lat="44.89678" lon="3.5002">
        <ele>1128.73</ele>
        <time>2020-08-21T12:16:35Z</time>
      </trkpt>
      <trkpt lat="44.89676" lon="3.5002">
        <ele>1130.65</ele>
        <time>2020-08-21T12:16:37Z</time>
      </trkpt>
      <trkpt lat="44.89673" lon="3.50019">
        <ele>1131.61</ele>
        <time>2020-08-21T12:16:41Z</time>
      </trkpt>
      <trkpt lat="44.89666" lon="3.50014">
        <ele>1131.61</ele>
        <time>2020-08-21T12:17:01Z</time>
      </trkpt>
      <trkpt lat="44.89658" lon="3.50014">
        <ele>1133.05</ele>
        <time>2020-08-21T12:17:10Z</time>
      </trkpt>
      <trkpt lat="44.8965" lon="3.50012">
        <ele>1134.01</ele>
        <time>2020-08-21T12:17:20Z</time>
      </trkpt>
      <trkpt lat="44.89644" lon="3.5001">
        <ele>1134.49</ele>
        <time>2020-08-21T12:17:27Z</time>
      </trkpt>
      <trkpt lat="44.89642" lon="3.5001">
        <ele>1134.97</ele>
        <time>2020-08-21T12:17:29Z</time>
      </trkpt>
      <trkpt lat="44.89631" lon="3.50005">
        <ele>1136.42</ele>
        <time>2020-08-21T12:17:42Z</time>
      </trkpt>
      <trkpt lat="44.8962" lon="3.50004">
        <ele>1138.34</ele>
        <time>2020-08-21T12:17:54Z</time>
      </trkpt>
      <trkpt lat="44.89608" lon="3.50001">
        <ele>1138.82</ele>
        <time>2020-08-21T12:18:08Z</time>
      </trkpt>
      <trkpt lat="44.89605" lon="3.5">
        <ele>1139.3</ele>
        <time>2020-08-21T12:18:11Z</time>
      </trkpt>
      <trkpt lat="44.89594" lon="3.50002">
        <ele>1139.78</ele>
        <time>2020-08-21T12:18:23Z</time>
      </trkpt>
      <trkpt lat="44.89579" lon="3.50003">
        <ele>1141.7</ele>
        <time>2020-08-21T12:18:38Z</time>
      </trkpt>
      <trkpt lat="44.89567" lon="3.50006">
        <ele>1143.14</ele>
        <time>2020-08-21T12:18:51Z</time>
      </trkpt>
      <trkpt lat="44.89553" lon="3.50009">
        <ele>1144.11</ele>
        <time>2020-08-21T12:19:05Z</time>
      </trkpt>
      <trkpt lat="44.89539" lon="3.50014">
        <ele>1144.59</ele>
        <time>2020-08-21T12:19:20Z</time>
      </trkpt>
      <trkpt lat="44.89525" lon="3.50018">
        <ele>1145.07</ele>
        <time>2020-08-21T12:19:33Z</time>
      </trkpt>
      <trkpt lat="44.89517" lon="3.50014">
        <ele>1144.59</ele>
        <time>2020-08-21T12:19:44Z</time>
      </trkpt>
      <trkpt lat="44.89514" lon="3.50012">
        <ele>1146.03</ele>
        <time>2020-08-21T12:19:46Z</time>
      </trkpt>
      <trkpt lat="44.89506" lon="3.50013">
        <ele>1144.11</ele>
        <time>2020-08-21T12:19:55Z</time>
      </trkpt>
      <trkpt lat="44.895" lon="3.50013">
        <ele>1145.55</ele>
        <time>2020-08-21T12:20:02Z</time>
      </trkpt>
      <trkpt lat="44.89495" lon="3.50012">
        <ele>1148.43</ele>
        <time>2020-08-21T12:20:16Z</time>
      </trkpt>
      <trkpt lat="44.89487" lon="3.50008">
        <ele>1146.51</ele>
        <time>2020-08-21T12:20:24Z</time>
      </trkpt>
      <trkpt lat="44.89486" lon="3.50008">
        <ele>1148.91</ele>
        <time>2020-08-21T12:20:29Z</time>
      </trkpt>
      <trkpt lat="44.89492" lon="3.50006">
        <ele>1148.91</ele>
        <time>2020-08-21T12:20:53Z</time>
      </trkpt>
      <trkpt lat="44.89498" lon="3.50007">
        <ele>1149.39</ele>
        <time>2020-08-21T12:21:25Z</time>
      </trkpt>
      <trkpt lat="44.89499" lon="3.50007">
        <ele>1149.39</ele>
        <time>2020-08-21T12:21:53Z</time>
      </trkpt>
      <trkpt lat="44.89498" lon="3.50011">
        <ele>1149.39</ele>
        <time>2020-08-21T12:22:23Z</time>
      </trkpt>
      <trkpt lat="44.89492" lon="3.50004">
        <ele>1149.39</ele>
        <time>2020-08-21T12:22:52Z</time>
      </trkpt>
      <trkpt lat="44.89492" lon="3.50005">
        <ele>1149.87</ele>
        <time>2020-08-21T12:23:20Z</time>
      </trkpt>
      <trkpt lat="44.89491" lon="3.50006">
        <ele>1149.87</ele>
        <time>2020-08-21T12:23:53Z</time>
      </trkpt>
      <trkpt lat="44.89497" lon="3.50011">
        <ele>1149.87</ele>
        <time>2020-08-21T12:24:27Z</time>
      </trkpt>
      <trkpt lat="44.89499" lon="3.5001">
        <ele>1150.35</ele>
        <time>2020-08-21T12:25:06Z</time>
      </trkpt>
      <trkpt lat="44.89496" lon="3.50013">
        <ele>1150.35</ele>
        <time>2020-08-21T12:25:44Z</time>
      </trkpt>
      <trkpt lat="44.89495" lon="3.50009">
        <ele>1150.35</ele>
        <time>2020-08-21T12:26:18Z</time>
      </trkpt>
      <trkpt lat="44.89495" lon="3.50009">
        <ele>1150.84</ele>
        <time>2020-08-21T12:26:56Z</time>
      </trkpt>
      <trkpt lat="44.89494" lon="3.50007">
        <ele>1150.84</ele>
        <time>2020-08-21T12:27:20Z</time>
      </trkpt>
      <trkpt lat="44.89497" lon="3.50005">
        <ele>1150.84</ele>
        <time>2020-08-21T12:27:47Z</time>
      </trkpt>
      <trkpt lat="44.89493" lon="3.50005">
        <ele>1151.32</ele>
        <time>2020-08-21T12:28:17Z</time>
      </trkpt>
      <trkpt lat="44.89492" lon="3.50006">
        <ele>1151.32</ele>
        <time>2020-08-21T12:28:38Z</time>
      </trkpt>
      <trkpt lat="44.89495" lon="3.50009">
        <ele>1151.8</ele>
        <time>2020-08-21T12:29:11Z</time>
      </trkpt>
      <trkpt lat="44.89493" lon="3.50005">
        <ele>1151.8</ele>
        <time>2020-08-21T12:29:49Z</time>
      </trkpt>
      <trkpt lat="44.89496" lon="3.50007">
        <ele>1152.28</ele>
        <time>2020-08-21T12:30:18Z</time>
      </trkpt>
      <trkpt lat="44.89491" lon="3.50011">
        <ele>1152.28</ele>
        <time>2020-08-21T12:30:44Z</time>
      </trkpt>
      <trkpt lat="44.89491" lon="3.50011">
        <ele>1152.28</ele>
        <time>2020-08-21T12:31:19Z</time>
      </trkpt>
      <trkpt lat="44.89493" lon="3.50012">
        <ele>1152.28</ele>
        <time>2020-08-21T12:31:55Z</time>
      </trkpt>
      <trkpt lat="44.8949" lon="3.50004">
        <ele>1152.28</ele>
        <time>2020-08-21T12:32:22Z</time>
      </trkpt>
      <trkpt lat="44.89486" lon="3.50011">
        <ele>1150.84</ele>
        <time>2020-08-21T12:32:54Z</time>
      </trkpt>
      <trkpt lat="44.89484" lon="3.50011">
        <ele>1150.84</ele>
        <time>2020-08-21T12:33:13Z</time>
      </trkpt>
      <trkpt lat="44.89483" lon="3.50009">
        <ele>1150.84</ele>
        <time>2020-08-21T12:33:38Z</time>
      </trkpt>
      <trkpt lat="44.89484" lon="3.50006">
        <ele>1150.35</ele>
        <time>2020-08-21T12:34:27Z</time>
      </trkpt>
      <trkpt lat="44.89481" lon="3.50007">
        <ele>1150.35</ele>
        <time>2020-08-21T12:35:18Z</time>
      </trkpt>
      <trkpt lat="44.89484" lon="3.50007">
        <ele>1150.35</ele>
        <time>2020-08-21T12:36:05Z</time>
      </trkpt>
      <trkpt lat="44.89489" lon="3.49999">
        <ele>1150.35</ele>
        <time>2020-08-21T12:36:35Z</time>
      </trkpt>
      <trkpt lat="44.89494" lon="3.50002">
        <ele>1150.35</ele>
        <time>2020-08-21T12:37:12Z</time>
      </trkpt>
      <trkpt lat="44.89489" lon="3.50013">
        <ele>1150.84</ele>
        <time>2020-08-21T12:37:32Z</time>
      </trkpt>
      <trkpt lat="44.89484" lon="3.50026">
        <ele>1149.87</ele>
        <time>2020-08-21T12:37:47Z</time>
      </trkpt>
      <trkpt lat="44.89473" lon="3.50026">
        <ele>1149.39</ele>
        <time>2020-08-21T12:38:00Z</time>
      </trkpt>
      <trkpt lat="44.89466" lon="3.50024">
        <ele>1149.39</ele>
        <time>2020-08-21T12:38:07Z</time>
      </trkpt>
      <trkpt lat="44.8945" lon="3.50019">
        <ele>1149.39</ele>
        <time>2020-08-21T12:38:25Z</time>
      </trkpt>
      <trkpt lat="44.89442" lon="3.50016">
        <ele>1150.84</ele>
        <time>2020-08-21T12:38:34Z</time>
      </trkpt>
      <trkpt lat="44.8944" lon="3.50016">
        <ele>1149.39</ele>
        <time>2020-08-21T12:38:37Z</time>
      </trkpt>
      <trkpt lat="44.89417" lon="3.50004">
        <ele>1147.47</ele>
        <time>2020-08-21T12:39:00Z</time>
      </trkpt>
      <trkpt lat="44.8941" lon="3.49999">
        <ele>1147.47</ele>
        <time>2020-08-21T12:39:08Z</time>
      </trkpt>
      <trkpt lat="44.89404" lon="3.49999">
        <ele>1147.47</ele>
        <time>2020-08-21T12:39:29Z</time>
      </trkpt>
      <trkpt lat="44.89393" lon="3.49991">
        <ele>1146.51</ele>
        <time>2020-08-21T12:39:41Z</time>
      </trkpt>
      <trkpt lat="44.89371" lon="3.49981">
        <ele>1145.07</ele>
        <time>2020-08-21T12:40:03Z</time>
      </trkpt>
      <trkpt lat="44.8935" lon="3.49969">
        <ele>1143.14</ele>
        <time>2020-08-21T12:40:24Z</time>
      </trkpt>
      <trkpt lat="44.89328" lon="3.49956">
        <ele>1141.7</ele>
        <time>2020-08-21T12:40:46Z</time>
      </trkpt>
      <trkpt lat="44.89306" lon="3.49938">
        <ele>1140.74</ele>
        <time>2020-08-21T12:41:08Z</time>
      </trkpt>
      <trkpt lat="44.8929" lon="3.49913">
        <ele>1140.26</ele>
        <time>2020-08-21T12:41:28Z</time>
      </trkpt>
      <trkpt lat="44.89279" lon="3.49891">
        <ele>1140.26</ele>
        <time>2020-08-21T12:41:46Z</time>
      </trkpt>
      <trkpt lat="44.89268" lon="3.49875">
        <ele>1139.78</ele>
        <time>2020-08-21T12:42:01Z</time>
      </trkpt>
      <trkpt lat="44.89255" lon="3.49858">
        <ele>1139.78</ele>
        <time>2020-08-21T12:42:17Z</time>
      </trkpt>
      <trkpt lat="44.89246" lon="3.49845">
        <ele>1141.22</ele>
        <time>2020-08-21T12:42:27Z</time>
      </trkpt>
      <trkpt lat="44.89239" lon="3.49834">
        <ele>1141.22</ele>
        <time>2020-08-21T12:42:38Z</time>
      </trkpt>
      <trkpt lat="44.89238" lon="3.49831">
        <ele>1141.22</ele>
        <time>2020-08-21T12:42:40Z</time>
      </trkpt>
      <trkpt lat="44.89224" lon="3.49803">
        <ele>1139.78</ele>
        <time>2020-08-21T12:43:00Z</time>
      </trkpt>
      <trkpt lat="44.89213" lon="3.49782">
        <ele>1139.78</ele>
        <time>2020-08-21T12:43:16Z</time>
      </trkpt>
      <trkpt lat="44.8921" lon="3.49774">
        <ele>1139.78</ele>
        <time>2020-08-21T12:43:22Z</time>
      </trkpt>
      <trkpt lat="44.89196" lon="3.49752">
        <ele>1139.78</ele>
        <time>2020-08-21T12:43:40Z</time>
      </trkpt>
      <trkpt lat="44.89183" lon="3.49733">
        <ele>1139.78</ele>
        <time>2020-08-21T12:43:56Z</time>
      </trkpt>
      <trkpt lat="44.89171" lon="3.49714">
        <ele>1139.3</ele>
        <time>2020-08-21T12:44:12Z</time>
      </trkpt>
      <trkpt lat="44.89158" lon="3.4969">
        <ele>1139.3</ele>
        <time>2020-08-21T12:44:31Z</time>
      </trkpt>
      <trkpt lat="44.89148" lon="3.49669">
        <ele>1138.82</ele>
        <time>2020-08-21T12:44:48Z</time>
      </trkpt>
      <trkpt lat="44.89141" lon="3.49653">
        <ele>1137.38</ele>
        <time>2020-08-21T12:45:02Z</time>
      </trkpt>
      <trkpt lat="44.89125" lon="3.49636">
        <ele>1137.38</ele>
        <time>2020-08-21T12:45:22Z</time>
      </trkpt>
      <trkpt lat="44.89107" lon="3.49633">
        <ele>1135.94</ele>
        <time>2020-08-21T12:45:38Z</time>
      </trkpt>
      <trkpt lat="44.89088" lon="3.49632">
        <ele>1134.97</ele>
        <time>2020-08-21T12:45:59Z</time>
      </trkpt>
      <trkpt lat="44.89077" lon="3.49629">
        <ele>1133.05</ele>
        <time>2020-08-21T12:46:11Z</time>
      </trkpt>
      <trkpt lat="44.89049" lon="3.49617">
        <ele>1134.49</ele>
        <time>2020-08-21T12:46:32Z</time>
      </trkpt>
      <trkpt lat="44.89028" lon="3.49598">
        <ele>1131.61</ele>
        <time>2020-08-21T12:46:52Z</time>
      </trkpt>
      <trkpt lat="44.89018" lon="3.49582">
        <ele>1130.65</ele>
        <time>2020-08-21T12:47:11Z</time>
      </trkpt>
      <trkpt lat="44.89009" lon="3.49578">
        <ele>1130.65</ele>
        <time>2020-08-21T12:47:35Z</time>
      </trkpt>
      <trkpt lat="44.89012" lon="3.49584">
        <ele>1130.65</ele>
        <time>2020-08-21T12:48:13Z</time>
      </trkpt>
      <trkpt lat="44.89016" lon="3.49585">
        <ele>1130.65</ele>
        <time>2020-08-21T12:48:52Z</time>
      </trkpt>
      <trkpt lat="44.89014" lon="3.496">
        <ele>1130.17</ele>
        <time>2020-08-21T12:49:13Z</time>
      </trkpt>
      <trkpt lat="44.89016" lon="3.4962">
        <ele>1129.69</ele>
        <time>2020-08-21T12:49:30Z</time>
      </trkpt>
      <trkpt lat="44.89018" lon="3.49618">
        <ele>1129.69</ele>
        <time>2020-08-21T12:49:49Z</time>
      </trkpt>
      <trkpt lat="44.89013" lon="3.49622">
        <ele>1130.17</ele>
        <time>2020-08-21T12:50:09Z</time>
      </trkpt>
      <trkpt lat="44.89015" lon="3.49621">
        <ele>1129.69</ele>
        <time>2020-08-21T12:50:23Z</time>
      </trkpt>
      <trkpt lat="44.89015" lon="3.49622">
        <ele>1129.69</ele>
        <time>2020-08-21T12:50:42Z</time>
      </trkpt>
      <trkpt lat="44.89016" lon="3.49621">
        <ele>1129.69</ele>
        <time>2020-08-21T12:51:01Z</time>
      </trkpt>
      <trkpt lat="44.89018" lon="3.49617">
        <ele>1129.69</ele>
        <time>2020-08-21T12:51:24Z</time>
      </trkpt>
      <trkpt lat="44.89016" lon="3.49619">
        <ele>1129.69</ele>
        <time>2020-08-21T12:51:54Z</time>
      </trkpt>
      <trkpt lat="44.89017" lon="3.49619">
        <ele>1129.69</ele>
        <time>2020-08-21T12:52:18Z</time>
      </trkpt>
      <trkpt lat="44.89016" lon="3.49617">
        <ele>1129.69</ele>
        <time>2020-08-21T12:52:49Z</time>
      </trkpt>
      <trkpt lat="44.89014" lon="3.49625">
        <ele>1129.69</ele>
        <time>2020-08-21T12:53:06Z</time>
      </trkpt>
      <trkpt lat="44.89015" lon="3.49622">
        <ele>1129.69</ele>
        <time>2020-08-21T12:53:20Z</time>
      </trkpt>
      <trkpt lat="44.89015" lon="3.49624">
        <ele>1130.17</ele>
        <time>2020-08-21T12:53:39Z</time>
      </trkpt>
      <trkpt lat="44.89013" lon="3.49622">
        <ele>1130.65</ele>
        <time>2020-08-21T12:54:08Z</time>
      </trkpt>
      <trkpt lat="44.89014" lon="3.49623">
        <ele>1130.17</ele>
        <time>2020-08-21T12:54:38Z</time>
      </trkpt>
      <trkpt lat="44.89014" lon="3.4962">
        <ele>1130.17</ele>
        <time>2020-08-21T12:55:09Z</time>
      </trkpt>
      <trkpt lat="44.89013" lon="3.49623">
        <ele>1129.69</ele>
        <time>2020-08-21T12:56:02Z</time>
      </trkpt>
      <trkpt lat="44.89014" lon="3.49625">
        <ele>1130.17</ele>
        <time>2020-08-21T12:56:33Z</time>
      </trkpt>
      <trkpt lat="44.89013" lon="3.4962">
        <ele>1130.17</ele>
        <time>2020-08-21T12:57:06Z</time>
      </trkpt>
      <trkpt lat="44.89013" lon="3.49622">
        <ele>1130.17</ele>
        <time>2020-08-21T12:57:38Z</time>
      </trkpt>
      <trkpt lat="44.89014" lon="3.49624">
        <ele>1131.13</ele>
        <time>2020-08-21T12:58:03Z</time>
      </trkpt>
      <trkpt lat="44.89021" lon="3.49621">
        <ele>1130.17</ele>
        <time>2020-08-21T12:58:35Z</time>
      </trkpt>
      <trkpt lat="44.89024" lon="3.49619">
        <ele>1130.17</ele>
        <time>2020-08-21T12:59:10Z</time>
      </trkpt>
      <trkpt lat="44.89014" lon="3.49626">
        <ele>1130.17</ele>
        <time>2020-08-21T12:59:35Z</time>
      </trkpt>
      <trkpt lat="44.89014" lon="3.49626">
        <ele>1130.17</ele>
        <time>2020-08-21T13:00:08Z</time>
      </trkpt>
      <trkpt lat="44.89013" lon="3.49626">
        <ele>1131.61</ele>
        <time>2020-08-21T13:00:35Z</time>
      </trkpt>
      <trkpt lat="44.89014" lon="3.49626">
        <ele>1132.09</ele>
        <time>2020-08-21T13:01:14Z</time>
      </trkpt>
      <trkpt lat="44.89014" lon="3.49626">
        <ele>1132.09</ele>
        <time>2020-08-21T13:01:45Z</time>
      </trkpt>
      <trkpt lat="44.89014" lon="3.49626">
        <ele>1132.09</ele>
        <time>2020-08-21T13:02:11Z</time>
      </trkpt>
      <trkpt lat="44.89013" lon="3.49628">
        <ele>1132.09</ele>
        <time>2020-08-21T13:02:41Z</time>
      </trkpt>
      <trkpt lat="44.89015" lon="3.49624">
        <ele>1131.13</ele>
        <time>2020-08-21T13:02:52Z</time>
      </trkpt>
      <trkpt lat="44.89016" lon="3.49623">
        <ele>1131.13</ele>
        <time>2020-08-21T13:03:34Z</time>
      </trkpt>
      <trkpt lat="44.89015" lon="3.49624">
        <ele>1131.13</ele>
        <time>2020-08-21T13:04:18Z</time>
      </trkpt>
      <trkpt lat="44.89012" lon="3.49627">
        <ele>1131.13</ele>
        <time>2020-08-21T13:04:58Z</time>
      </trkpt>
      <trkpt lat="44.89014" lon="3.49625">
        <ele>1131.13</ele>
        <time>2020-08-21T13:05:39Z</time>
      </trkpt>
      <trkpt lat="44.89013" lon="3.49624">
        <ele>1131.13</ele>
        <time>2020-08-21T13:06:07Z</time>
      </trkpt>
      <trkpt lat="44.89014" lon="3.49628">
        <ele>1131.13</ele>
        <time>2020-08-21T13:06:41Z</time>
      </trkpt>
      <trkpt lat="44.89014" lon="3.49625">
        <ele>1132.57</ele>
        <time>2020-08-21T13:07:07Z</time>
      </trkpt>
      <trkpt lat="44.89019" lon="3.49622">
        <ele>1132.57</ele>
        <time>2020-08-21T13:07:24Z</time>
      </trkpt>
      <trkpt lat="44.89022" lon="3.49615">
        <ele>1132.57</ele>
        <time>2020-08-21T13:07:38Z</time>
      </trkpt>
      <trkpt lat="44.89017" lon="3.49617">
        <ele>1132.57</ele>
        <time>2020-08-21T13:07:58Z</time>
      </trkpt>
      <trkpt lat="44.89017" lon="3.49611">
        <ele>1132.57</ele>
        <time>2020-08-21T13:08:07Z</time>
      </trkpt>
      <trkpt lat="44.89023" lon="3.49597">
        <ele>1132.57</ele>
        <time>2020-08-21T13:08:33Z</time>
      </trkpt>
      <trkpt lat="44.8902" lon="3.49596">
        <ele>1132.57</ele>
        <time>2020-08-21T13:08:43Z</time>
      </trkpt>
      <trkpt lat="44.89016" lon="3.49618">
        <ele>1132.57</ele>
        <time>2020-08-21T13:08:56Z</time>
      </trkpt>
      <trkpt lat="44.89016" lon="3.49625">
        <ele>1132.57</ele>
        <time>2020-08-21T13:09:08Z</time>
      </trkpt>
      <trkpt lat="44.89015" lon="3.49627">
        <ele>1133.05</ele>
        <time>2020-08-21T13:09:24Z</time>
      </trkpt>
      <trkpt lat="44.89015" lon="3.49619">
        <ele>1133.05</ele>
        <time>2020-08-21T13:09:38Z</time>
      </trkpt>
      <trkpt lat="44.89009" lon="3.49622">
        <ele>1133.05</ele>
        <time>2020-08-21T13:09:49Z</time>
      </trkpt>
      <trkpt lat="44.8901" lon="3.49621">
        <ele>1133.05</ele>
        <time>2020-08-21T13:10:17Z</time>
      </trkpt>
      <trkpt lat="44.89014" lon="3.49619">
        <ele>1133.05</ele>
        <time>2020-08-21T13:10:31Z</time>
      </trkpt>
      <trkpt lat="44.89013" lon="3.49622">
        <ele>1133.05</ele>
        <time>2020-08-21T13:10:46Z</time>
      </trkpt>
      <trkpt lat="44.89014" lon="3.49623">
        <ele>1133.05</ele>
        <time>2020-08-21T13:10:56Z</time>
      </trkpt>
      <trkpt lat="44.89016" lon="3.49619">
        <ele>1133.05</ele>
        <time>2020-08-21T13:11:05Z</time>
      </trkpt>
      <trkpt lat="44.89014" lon="3.49619">
        <ele>1133.05</ele>
        <time>2020-08-21T13:11:27Z</time>
      </trkpt>
      <trkpt lat="44.89015" lon="3.49622">
        <ele>1133.05</ele>
        <time>2020-08-21T13:11:47Z</time>
      </trkpt>
      <trkpt lat="44.89016" lon="3.49619">
        <ele>1133.05</ele>
        <time>2020-08-21T13:12:07Z</time>
      </trkpt>
      <trkpt lat="44.89017" lon="3.49613">
        <ele>1133.05</ele>
        <time>2020-08-21T13:12:19Z</time>
      </trkpt>
      <trkpt lat="44.89015" lon="3.49602">
        <ele>1133.05</ele>
        <time>2020-08-21T13:12:28Z</time>
      </trkpt>
      <trkpt lat="44.89011" lon="3.49577">
        <ele>1134.49</ele>
        <time>2020-08-21T13:12:48Z</time>
      </trkpt>
      <trkpt lat="44.89008" lon="3.49567">
        <ele>1134.97</ele>
        <time>2020-08-21T13:12:59Z</time>
      </trkpt>
      <trkpt lat="44.89001" lon="3.49549">
        <ele>1136.42</ele>
        <time>2020-08-21T13:13:14Z</time>
      </trkpt>
      <trkpt lat="44.88997" lon="3.49536">
        <ele>1136.9</ele>
        <time>2020-08-21T13:13:27Z</time>
      </trkpt>
      <trkpt lat="44.88989" lon="3.4952">
        <ele>1135.45</ele>
        <time>2020-08-21T13:13:43Z</time>
      </trkpt>
      <trkpt lat="44.88975" lon="3.49502">
        <ele>1134.97</ele>
        <time>2020-08-21T13:14:03Z</time>
      </trkpt>
      <trkpt lat="44.88963" lon="3.49494">
        <ele>1135.94</ele>
        <time>2020-08-21T13:14:19Z</time>
      </trkpt>
      <trkpt lat="44.88948" lon="3.49494">
        <ele>1135.94</ele>
        <time>2020-08-21T13:14:34Z</time>
      </trkpt>
      <trkpt lat="44.88924" lon="3.49501">
        <ele>1135.94</ele>
        <time>2020-08-21T13:14:57Z</time>
      </trkpt>
      <trkpt lat="44.88907" lon="3.49493">
        <ele>1136.42</ele>
        <time>2020-08-21T13:15:14Z</time>
      </trkpt>
      <trkpt lat="44.8889" lon="3.49483">
        <ele>1136.9</ele>
        <time>2020-08-21T13:15:32Z</time>
      </trkpt>
      <trkpt lat="44.88876" lon="3.49475">
        <ele>1136.9</ele>
        <time>2020-08-21T13:15:49Z</time>
      </trkpt>
      <trkpt lat="44.88865" lon="3.49468">
        <ele>1137.38</ele>
        <time>2020-08-21T13:16:03Z</time>
      </trkpt>
      <trkpt lat="44.88849" lon="3.49456">
        <ele>1136.9</ele>
        <time>2020-08-21T13:16:20Z</time>
      </trkpt>
      <trkpt lat="44.88847" lon="3.49454">
        <ele>1138.82</ele>
        <time>2020-08-21T13:16:23Z</time>
      </trkpt>
      <trkpt lat="44.88842" lon="3.4945">
        <ele>1138.82</ele>
        <time>2020-08-21T13:16:28Z</time>
      </trkpt>
      <trkpt lat="44.88823" lon="3.49444">
        <ele>1140.26</ele>
        <time>2020-08-21T13:16:47Z</time>
      </trkpt>
      <trkpt lat="44.88819" lon="3.49444">
        <ele>1140.74</ele>
        <time>2020-08-21T13:16:51Z</time>
      </trkpt>
      <trkpt lat="44.88801" lon="3.49458">
        <ele>1142.18</ele>
        <time>2020-08-21T13:17:10Z</time>
      </trkpt>
      <trkpt lat="44.88796" lon="3.49467">
        <ele>1142.66</ele>
        <time>2020-08-21T13:17:18Z</time>
      </trkpt>
      <trkpt lat="44.8879" lon="3.49484">
        <ele>1143.14</ele>
        <time>2020-08-21T13:17:32Z</time>
      </trkpt>
      <trkpt lat="44.88781" lon="3.49502">
        <ele>1143.14</ele>
        <time>2020-08-21T13:17:47Z</time>
      </trkpt>
      <trkpt lat="44.88772" lon="3.4952">
        <ele>1143.63</ele>
        <time>2020-08-21T13:18:02Z</time>
      </trkpt>
      <trkpt lat="44.88764" lon="3.49536">
        <ele>1143.63</ele>
        <time>2020-08-21T13:18:16Z</time>
      </trkpt>
      <trkpt lat="44.88754" lon="3.49549">
        <ele>1143.63</ele>
        <time>2020-08-21T13:18:32Z</time>
      </trkpt>
      <trkpt lat="44.88749" lon="3.49554">
        <ele>1145.07</ele>
        <time>2020-08-21T13:18:38Z</time>
      </trkpt>
      <trkpt lat="44.88739" lon="3.49569">
        <ele>1146.51</ele>
        <time>2020-08-21T13:18:54Z</time>
      </trkpt>
      <trkpt lat="44.88738" lon="3.49572">
        <ele>1146.51</ele>
        <time>2020-08-21T13:18:57Z</time>
      </trkpt>
      <trkpt lat="44.88728" lon="3.49583">
        <ele>1148.43</ele>
        <time>2020-08-21T13:19:11Z</time>
      </trkpt>
      <trkpt lat="44.88721" lon="3.49591">
        <ele>1149.87</ele>
        <time>2020-08-21T13:19:21Z</time>
      </trkpt>
      <trkpt lat="44.8871" lon="3.49605">
        <ele>1150.84</ele>
        <time>2020-08-21T13:19:37Z</time>
      </trkpt>
      <trkpt lat="44.88698" lon="3.49619">
        <ele>1151.8</ele>
        <time>2020-08-21T13:19:53Z</time>
      </trkpt>
      <trkpt lat="44.88687" lon="3.49631">
        <ele>1151.32</ele>
        <time>2020-08-21T13:20:08Z</time>
      </trkpt>
      <trkpt lat="44.88684" lon="3.49634">
        <ele>1152.28</ele>
        <time>2020-08-21T13:20:11Z</time>
      </trkpt>
      <trkpt lat="44.8867" lon="3.49648">
        <ele>1153.72</ele>
        <time>2020-08-21T13:20:29Z</time>
      </trkpt>
      <trkpt lat="44.88665" lon="3.49652">
        <ele>1151.8</ele>
        <time>2020-08-21T13:20:35Z</time>
      </trkpt>
      <trkpt lat="44.88656" lon="3.49658">
        <ele>1152.76</ele>
        <time>2020-08-21T13:20:46Z</time>
      </trkpt>
      <trkpt lat="44.88643" lon="3.49667">
        <ele>1151.8</ele>
        <time>2020-08-21T13:20:59Z</time>
      </trkpt>
      <trkpt lat="44.8862" lon="3.49678">
        <ele>1151.8</ele>
        <time>2020-08-21T13:21:21Z</time>
      </trkpt>
      <trkpt lat="44.88599" lon="3.49682">
        <ele>1148.91</ele>
        <time>2020-08-21T13:21:41Z</time>
      </trkpt>
      <trkpt lat="44.88596" lon="3.49683">
        <ele>1150.84</ele>
        <time>2020-08-21T13:21:44Z</time>
      </trkpt>
      <trkpt lat="44.88574" lon="3.49683">
        <ele>1151.8</ele>
        <time>2020-08-21T13:22:05Z</time>
      </trkpt>
      <trkpt lat="44.8855" lon="3.49682">
        <ele>1151.8</ele>
        <time>2020-08-21T13:22:27Z</time>
      </trkpt>
      <trkpt lat="44.88538" lon="3.4968">
        <ele>1150.35</ele>
        <time>2020-08-21T13:22:38Z</time>
      </trkpt>
      <trkpt lat="44.88517" lon="3.49676">
        <ele>1150.35</ele>
        <time>2020-08-21T13:22:58Z</time>
      </trkpt>
      <trkpt lat="44.88493" lon="3.49672">
        <ele>1150.35</ele>
        <time>2020-08-21T13:23:20Z</time>
      </trkpt>
      <trkpt lat="44.88471" lon="3.49671">
        <ele>1150.35</ele>
        <time>2020-08-21T13:23:41Z</time>
      </trkpt>
      <trkpt lat="44.8845" lon="3.4967">
        <ele>1150.35</ele>
        <time>2020-08-21T13:24:01Z</time>
      </trkpt>
      <trkpt lat="44.88429" lon="3.49674">
        <ele>1148.91</ele>
        <time>2020-08-21T13:24:23Z</time>
      </trkpt>
      <trkpt lat="44.88414" lon="3.49679">
        <ele>1148.43</ele>
        <time>2020-08-21T13:24:39Z</time>
      </trkpt>
      <trkpt lat="44.88402" lon="3.4969">
        <ele>1147.95</ele>
        <time>2020-08-21T13:24:52Z</time>
      </trkpt>
      <trkpt lat="44.88395" lon="3.49702">
        <ele>1147.95</ele>
        <time>2020-08-21T13:25:10Z</time>
      </trkpt>
      <trkpt lat="44.88384" lon="3.49721">
        <ele>1147.47</ele>
        <time>2020-08-21T13:25:26Z</time>
      </trkpt>
      <trkpt lat="44.88373" lon="3.49743">
        <ele>1147.47</ele>
        <time>2020-08-21T13:25:44Z</time>
      </trkpt>
      <trkpt lat="44.8836" lon="3.49768">
        <ele>1147.47</ele>
        <time>2020-08-21T13:26:04Z</time>
      </trkpt>
      <trkpt lat="44.88347" lon="3.49797">
        <ele>1147.47</ele>
        <time>2020-08-21T13:26:26Z</time>
      </trkpt>
      <trkpt lat="44.88337" lon="3.4982">
        <ele>1147.47</ele>
        <time>2020-08-21T13:26:43Z</time>
      </trkpt>
      <trkpt lat="44.88336" lon="3.49821">
        <ele>1148.91</ele>
        <time>2020-08-21T13:26:48Z</time>
      </trkpt>
      <trkpt lat="44.88324" lon="3.49838">
        <ele>1148.91</ele>
        <time>2020-08-21T13:27:04Z</time>
      </trkpt>
      <trkpt lat="44.88323" lon="3.4984">
        <ele>1147.47</ele>
        <time>2020-08-21T13:27:06Z</time>
      </trkpt>
      <trkpt lat="44.88302" lon="3.49861">
        <ele>1145.55</ele>
        <time>2020-08-21T13:27:31Z</time>
      </trkpt>
      <trkpt lat="44.88276" lon="3.49882">
        <ele>1144.11</ele>
        <time>2020-08-21T13:27:56Z</time>
      </trkpt>
      <trkpt lat="44.88265" lon="3.49887">
        <ele>1142.18</ele>
        <time>2020-08-21T13:28:07Z</time>
      </trkpt>
      <trkpt lat="44.88241" lon="3.49897">
        <ele>1141.22</ele>
        <time>2020-08-21T13:28:29Z</time>
      </trkpt>
      <trkpt lat="44.88218" lon="3.49906">
        <ele>1139.78</ele>
        <time>2020-08-21T13:28:50Z</time>
      </trkpt>
      <trkpt lat="44.882" lon="3.49899">
        <ele>1137.86</ele>
        <time>2020-08-21T13:29:10Z</time>
      </trkpt>
      <trkpt lat="44.88179" lon="3.49899">
        <ele>1134.97</ele>
        <time>2020-08-21T13:29:32Z</time>
      </trkpt>
      <trkpt lat="44.88161" lon="3.49904">
        <ele>1132.09</ele>
        <time>2020-08-21T13:29:51Z</time>
      </trkpt>
      <trkpt lat="44.88141" lon="3.4991">
        <ele>1131.13</ele>
        <time>2020-08-21T13:30:12Z</time>
      </trkpt>
      <trkpt lat="44.8813" lon="3.49913">
        <ele>1129.69</ele>
        <time>2020-08-21T13:30:30Z</time>
      </trkpt>
      <trkpt lat="44.88112" lon="3.49932">
        <ele>1128.73</ele>
        <time>2020-08-21T13:30:50Z</time>
      </trkpt>
      <trkpt lat="44.88102" lon="3.49924">
        <ele>1128.24</ele>
        <time>2020-08-21T13:31:18Z</time>
      </trkpt>
      <trkpt lat="44.88098" lon="3.4993">
        <ele>1127.76</ele>
        <time>2020-08-21T13:31:33Z</time>
      </trkpt>
      <trkpt lat="44.88096" lon="3.49926">
        <ele>1128.24</ele>
        <time>2020-08-21T13:31:51Z</time>
      </trkpt>
      <trkpt lat="44.88097" lon="3.49924">
        <ele>1128.24</ele>
        <time>2020-08-21T13:32:16Z</time>
      </trkpt>
      <trkpt lat="44.88097" lon="3.49926">
        <ele>1127.28</ele>
        <time>2020-08-21T13:32:36Z</time>
      </trkpt>
      <trkpt lat="44.88096" lon="3.49927">
        <ele>1127.28</ele>
        <time>2020-08-21T13:33:05Z</time>
      </trkpt>
      <trkpt lat="44.88102" lon="3.4993">
        <ele>1127.28</ele>
        <time>2020-08-21T13:33:34Z</time>
      </trkpt>
      <trkpt lat="44.88096" lon="3.49922">
        <ele>1127.28</ele>
        <time>2020-08-21T13:34:07Z</time>
      </trkpt>
      <trkpt lat="44.88096" lon="3.49925">
        <ele>1127.76</ele>
        <time>2020-08-21T13:34:39Z</time>
      </trkpt>
      <trkpt lat="44.88097" lon="3.49933">
        <ele>1128.73</ele>
        <time>2020-08-21T13:34:58Z</time>
      </trkpt>
    </trkseg>
  </trk>
</gpx>